<?xml version="1.0" encoding="UTF-8" standalone="no" ?>
<gpx xmlns="http://www.topografix.com/GPX/1/1" xmlns:xsi="http://www.w3.org/2001/XMLSchema-instance" xsi:schemaLocation="http://www.topografix.com/GPX/1/1 http://www.topografix.com/GPX/1/1/gpx.xsd" version="1.1" creator="VisuGPX - https://www.visugpx.com">
  <metadata>
    <name>Les Arcs - Les Bauquières</name>
    <desc><![CDATA[Aller/retour dans la forêt des Arcs partant du centre ville jusqu'au 3/4h de l'oued des Bauquières.]]></desc>
  </metadata>
  <trk>
    <name><![CDATA[Les Arcs - Les Bauquières_1]]></name>
    <trkseg>
      <trkpt lat="43.45441" lon="6.47189">
        <ele>66</ele>
        <time>2017-10-29T15:08:47Z</time>
      </trkpt>
      <trkpt lat="43.45435" lon="6.47215">
        <ele>66</ele>
        <time>2017-10-29T15:08:51Z</time>
      </trkpt>
      <trkpt lat="43.45432" lon="6.47232">
        <ele>65</ele>
        <time>2017-10-29T15:08:53Z</time>
      </trkpt>
      <trkpt lat="43.45433" lon="6.47251">
        <ele>65</ele>
        <time>2017-10-29T15:08:55Z</time>
      </trkpt>
      <trkpt lat="43.45436" lon="6.47267">
        <ele>65</ele>
        <time>2017-10-29T15:08:58Z</time>
      </trkpt>
      <trkpt lat="43.4544" lon="6.47288">
        <ele>65</ele>
        <time>2017-10-29T15:09:00Z</time>
      </trkpt>
      <trkpt lat="43.45447" lon="6.47317">
        <ele>65</ele>
        <time>2017-10-29T15:09:02Z</time>
      </trkpt>
      <trkpt lat="43.45452" lon="6.47337">
        <ele>65</ele>
        <time>2017-10-29T15:09:04Z</time>
      </trkpt>
      <trkpt lat="43.45456" lon="6.47358">
        <ele>65</ele>
        <time>2017-10-29T15:09:06Z</time>
      </trkpt>
      <trkpt lat="43.4546" lon="6.47379">
        <ele>65</ele>
        <time>2017-10-29T15:09:08Z</time>
      </trkpt>
      <trkpt lat="43.45461" lon="6.47401">
        <ele>65</ele>
        <time>2017-10-29T15:09:10Z</time>
      </trkpt>
      <trkpt lat="43.45459" lon="6.47422">
        <ele>65</ele>
        <time>2017-10-29T15:09:12Z</time>
      </trkpt>
      <trkpt lat="43.45456" lon="6.47441">
        <ele>65</ele>
        <time>2017-10-29T15:09:14Z</time>
      </trkpt>
      <trkpt lat="43.45461" lon="6.4746">
        <ele>65</ele>
        <time>2017-10-29T15:09:16Z</time>
      </trkpt>
      <trkpt lat="43.45467" lon="6.47477">
        <ele>65</ele>
        <time>2017-10-29T15:09:18Z</time>
      </trkpt>
      <trkpt lat="43.45475" lon="6.47494">
        <ele>65</ele>
        <time>2017-10-29T15:09:20Z</time>
      </trkpt>
      <trkpt lat="43.45485" lon="6.47509">
        <ele>65</ele>
        <time>2017-10-29T15:09:22Z</time>
      </trkpt>
      <trkpt lat="43.45495" lon="6.47525">
        <ele>65</ele>
        <time>2017-10-29T15:09:24Z</time>
      </trkpt>
      <trkpt lat="43.45506" lon="6.4754">
        <ele>66</ele>
        <time>2017-10-29T15:09:26Z</time>
      </trkpt>
      <trkpt lat="43.45517" lon="6.47565">
        <ele>66</ele>
        <time>2017-10-29T15:09:29Z</time>
      </trkpt>
      <trkpt lat="43.45518" lon="6.47582">
        <ele>66</ele>
        <time>2017-10-29T15:09:31Z</time>
      </trkpt>
      <trkpt lat="43.45521" lon="6.47601">
        <ele>67</ele>
        <time>2017-10-29T15:09:33Z</time>
      </trkpt>
      <trkpt lat="43.45523" lon="6.47618">
        <ele>68</ele>
        <time>2017-10-29T15:09:35Z</time>
      </trkpt>
      <trkpt lat="43.45527" lon="6.47636">
        <ele>68</ele>
        <time>2017-10-29T15:09:37Z</time>
      </trkpt>
      <trkpt lat="43.45531" lon="6.47652">
        <ele>69</ele>
        <time>2017-10-29T15:09:39Z</time>
      </trkpt>
      <trkpt lat="43.45532" lon="6.47687">
        <ele>70</ele>
        <time>2017-10-29T15:09:44Z</time>
      </trkpt>
      <trkpt lat="43.45532" lon="6.47704">
        <ele>70</ele>
        <time>2017-10-29T15:09:46Z</time>
      </trkpt>
      <trkpt lat="43.4553" lon="6.47722">
        <ele>70</ele>
        <time>2017-10-29T15:09:48Z</time>
      </trkpt>
      <trkpt lat="43.45533" lon="6.47747">
        <ele>70</ele>
        <time>2017-10-29T15:09:50Z</time>
      </trkpt>
      <trkpt lat="43.45534" lon="6.47763">
        <ele>70</ele>
        <time>2017-10-29T15:09:52Z</time>
      </trkpt>
      <trkpt lat="43.45535" lon="6.47781">
        <ele>70</ele>
        <time>2017-10-29T15:09:54Z</time>
      </trkpt>
      <trkpt lat="43.4554" lon="6.47799">
        <ele>70</ele>
        <time>2017-10-29T15:09:56Z</time>
      </trkpt>
      <trkpt lat="43.4554" lon="6.47819">
        <ele>70</ele>
        <time>2017-10-29T15:09:58Z</time>
      </trkpt>
      <trkpt lat="43.4554" lon="6.47837">
        <ele>69</ele>
        <time>2017-10-29T15:10:00Z</time>
      </trkpt>
      <trkpt lat="43.45538" lon="6.47854">
        <ele>69</ele>
        <time>2017-10-29T15:10:02Z</time>
      </trkpt>
      <trkpt lat="43.45538" lon="6.4787">
        <ele>69</ele>
        <time>2017-10-29T15:10:04Z</time>
      </trkpt>
      <trkpt lat="43.45536" lon="6.47886">
        <ele>69</ele>
        <time>2017-10-29T15:10:06Z</time>
      </trkpt>
      <trkpt lat="43.45537" lon="6.479">
        <ele>69</ele>
        <time>2017-10-29T15:10:08Z</time>
      </trkpt>
      <trkpt lat="43.45536" lon="6.47916">
        <ele>69</ele>
        <time>2017-10-29T15:10:10Z</time>
      </trkpt>
      <trkpt lat="43.45536" lon="6.47931">
        <ele>69</ele>
        <time>2017-10-29T15:10:12Z</time>
      </trkpt>
      <trkpt lat="43.45537" lon="6.47947">
        <ele>69</ele>
        <time>2017-10-29T15:10:15Z</time>
      </trkpt>
      <trkpt lat="43.45536" lon="6.47962">
        <ele>69</ele>
        <time>2017-10-29T15:10:19Z</time>
      </trkpt>
      <trkpt lat="43.45529" lon="6.47977">
        <ele>68</ele>
        <time>2017-10-29T15:10:54Z</time>
      </trkpt>
      <trkpt lat="43.45516" lon="6.47973">
        <ele>68</ele>
        <time>2017-10-29T15:10:56Z</time>
      </trkpt>
      <trkpt lat="43.45498" lon="6.47966">
        <ele>67</ele>
        <time>2017-10-29T15:10:59Z</time>
      </trkpt>
      <trkpt lat="43.45484" lon="6.4796">
        <ele>67</ele>
        <time>2017-10-29T15:11:01Z</time>
      </trkpt>
      <trkpt lat="43.4547" lon="6.47955">
        <ele>66</ele>
        <time>2017-10-29T15:11:03Z</time>
      </trkpt>
      <trkpt lat="43.45454" lon="6.47949">
        <ele>66</ele>
        <time>2017-10-29T15:11:05Z</time>
      </trkpt>
      <trkpt lat="43.45437" lon="6.47942">
        <ele>66</ele>
        <time>2017-10-29T15:11:07Z</time>
      </trkpt>
      <trkpt lat="43.4542" lon="6.47936">
        <ele>66</ele>
        <time>2017-10-29T15:11:09Z</time>
      </trkpt>
      <trkpt lat="43.45403" lon="6.47929">
        <ele>64</ele>
        <time>2017-10-29T15:11:12Z</time>
      </trkpt>
      <trkpt lat="43.45386" lon="6.47917">
        <ele>63</ele>
        <time>2017-10-29T15:11:14Z</time>
      </trkpt>
      <trkpt lat="43.4537" lon="6.47904">
        <ele>63</ele>
        <time>2017-10-29T15:11:16Z</time>
      </trkpt>
      <trkpt lat="43.45345" lon="6.47885">
        <ele>63</ele>
        <time>2017-10-29T15:11:18Z</time>
      </trkpt>
      <trkpt lat="43.45328" lon="6.47873">
        <ele>60</ele>
        <time>2017-10-29T15:11:20Z</time>
      </trkpt>
      <trkpt lat="43.45311" lon="6.4786">
        <ele>60</ele>
        <time>2017-10-29T15:11:22Z</time>
      </trkpt>
      <trkpt lat="43.45294" lon="6.47848">
        <ele>59</ele>
        <time>2017-10-29T15:11:24Z</time>
      </trkpt>
      <trkpt lat="43.45278" lon="6.47835">
        <ele>59</ele>
        <time>2017-10-29T15:11:26Z</time>
      </trkpt>
      <trkpt lat="43.45261" lon="6.47824">
        <ele>60</ele>
        <time>2017-10-29T15:11:28Z</time>
      </trkpt>
      <trkpt lat="43.45245" lon="6.47813">
        <ele>58</ele>
        <time>2017-10-29T15:11:30Z</time>
      </trkpt>
      <trkpt lat="43.4523" lon="6.47803">
        <ele>58</ele>
        <time>2017-10-29T15:11:32Z</time>
      </trkpt>
      <trkpt lat="43.45215" lon="6.47792">
        <ele>58</ele>
        <time>2017-10-29T15:11:34Z</time>
      </trkpt>
      <trkpt lat="43.4519" lon="6.47772">
        <ele>58</ele>
        <time>2017-10-29T15:11:37Z</time>
      </trkpt>
      <trkpt lat="43.45175" lon="6.47756">
        <ele>57</ele>
        <time>2017-10-29T15:11:39Z</time>
      </trkpt>
      <trkpt lat="43.45158" lon="6.47741">
        <ele>56</ele>
        <time>2017-10-29T15:11:41Z</time>
      </trkpt>
      <trkpt lat="43.45142" lon="6.47725">
        <ele>55</ele>
        <time>2017-10-29T15:11:43Z</time>
      </trkpt>
      <trkpt lat="43.45124" lon="6.47714">
        <ele>55</ele>
        <time>2017-10-29T15:11:45Z</time>
      </trkpt>
      <trkpt lat="43.45106" lon="6.47703">
        <ele>55</ele>
        <time>2017-10-29T15:11:48Z</time>
      </trkpt>
      <trkpt lat="43.45086" lon="6.4769">
        <ele>54</ele>
        <time>2017-10-29T15:11:50Z</time>
      </trkpt>
      <trkpt lat="43.4506" lon="6.47672">
        <ele>52</ele>
        <time>2017-10-29T15:11:52Z</time>
      </trkpt>
      <trkpt lat="43.45043" lon="6.47661">
        <ele>52</ele>
        <time>2017-10-29T15:11:54Z</time>
      </trkpt>
      <trkpt lat="43.45028" lon="6.47649">
        <ele>51</ele>
        <time>2017-10-29T15:11:56Z</time>
      </trkpt>
      <trkpt lat="43.45013" lon="6.47639">
        <ele>51</ele>
        <time>2017-10-29T15:11:58Z</time>
      </trkpt>
      <trkpt lat="43.44998" lon="6.47627">
        <ele>50</ele>
        <time>2017-10-29T15:12:00Z</time>
      </trkpt>
      <trkpt lat="43.44983" lon="6.47615">
        <ele>50</ele>
        <time>2017-10-29T15:12:02Z</time>
      </trkpt>
      <trkpt lat="43.44967" lon="6.47603">
        <ele>49</ele>
        <time>2017-10-29T15:12:04Z</time>
      </trkpt>
      <trkpt lat="43.44952" lon="6.47592">
        <ele>49</ele>
        <time>2017-10-29T15:12:06Z</time>
      </trkpt>
      <trkpt lat="43.44937" lon="6.47582">
        <ele>48</ele>
        <time>2017-10-29T15:12:08Z</time>
      </trkpt>
      <trkpt lat="43.44923" lon="6.47572">
        <ele>48</ele>
        <time>2017-10-29T15:12:10Z</time>
      </trkpt>
      <trkpt lat="43.4491" lon="6.47561">
        <ele>48</ele>
        <time>2017-10-29T15:12:12Z</time>
      </trkpt>
      <trkpt lat="43.44897" lon="6.4755">
        <ele>47</ele>
        <time>2017-10-29T15:12:14Z</time>
      </trkpt>
      <trkpt lat="43.44887" lon="6.47536">
        <ele>47</ele>
        <time>2017-10-29T15:12:16Z</time>
      </trkpt>
      <trkpt lat="43.44878" lon="6.47524">
        <ele>47</ele>
        <time>2017-10-29T15:12:18Z</time>
      </trkpt>
      <trkpt lat="43.4486" lon="6.47523">
        <ele>47</ele>
        <time>2017-10-29T15:12:21Z</time>
      </trkpt>
      <trkpt lat="43.44849" lon="6.47533">
        <ele>47</ele>
        <time>2017-10-29T15:12:23Z</time>
      </trkpt>
      <trkpt lat="43.44837" lon="6.47526">
        <ele>47</ele>
        <time>2017-10-29T15:12:25Z</time>
      </trkpt>
      <trkpt lat="43.44827" lon="6.47513">
        <ele>47</ele>
        <time>2017-10-29T15:12:27Z</time>
      </trkpt>
      <trkpt lat="43.44816" lon="6.47502">
        <ele>47</ele>
        <time>2017-10-29T15:12:29Z</time>
      </trkpt>
      <trkpt lat="43.44804" lon="6.47492">
        <ele>46</ele>
        <time>2017-10-29T15:12:31Z</time>
      </trkpt>
      <trkpt lat="43.44792" lon="6.47485">
        <ele>46</ele>
        <time>2017-10-29T15:12:34Z</time>
      </trkpt>
      <trkpt lat="43.44781" lon="6.47476">
        <ele>46</ele>
        <time>2017-10-29T15:12:36Z</time>
      </trkpt>
      <trkpt lat="43.44765" lon="6.47462">
        <ele>46</ele>
        <time>2017-10-29T15:12:38Z</time>
      </trkpt>
      <trkpt lat="43.44753" lon="6.47455">
        <ele>46</ele>
        <time>2017-10-29T15:12:40Z</time>
      </trkpt>
      <trkpt lat="43.4474" lon="6.47458">
        <ele>46</ele>
        <time>2017-10-29T15:12:42Z</time>
      </trkpt>
      <trkpt lat="43.44728" lon="6.47469">
        <ele>46</ele>
        <time>2017-10-29T15:12:44Z</time>
      </trkpt>
      <trkpt lat="43.44715" lon="6.47474">
        <ele>46</ele>
        <time>2017-10-29T15:12:46Z</time>
      </trkpt>
      <trkpt lat="43.44701" lon="6.4747">
        <ele>46</ele>
        <time>2017-10-29T15:12:48Z</time>
      </trkpt>
      <trkpt lat="43.44693" lon="6.47456">
        <ele>46</ele>
        <time>2017-10-29T15:12:50Z</time>
      </trkpt>
      <trkpt lat="43.44688" lon="6.4744">
        <ele>46</ele>
        <time>2017-10-29T15:12:52Z</time>
      </trkpt>
      <trkpt lat="43.44681" lon="6.47424">
        <ele>47</ele>
        <time>2017-10-29T15:12:54Z</time>
      </trkpt>
      <trkpt lat="43.44675" lon="6.47406">
        <ele>47</ele>
        <time>2017-10-29T15:12:56Z</time>
      </trkpt>
      <trkpt lat="43.44672" lon="6.47387">
        <ele>47</ele>
        <time>2017-10-29T15:12:58Z</time>
      </trkpt>
      <trkpt lat="43.44671" lon="6.47368">
        <ele>46</ele>
        <time>2017-10-29T15:13:00Z</time>
      </trkpt>
      <trkpt lat="43.44672" lon="6.47341">
        <ele>46</ele>
        <time>2017-10-29T15:13:03Z</time>
      </trkpt>
      <trkpt lat="43.44676" lon="6.47328">
        <ele>45</ele>
        <time>2017-10-29T15:13:05Z</time>
      </trkpt>
      <trkpt lat="43.44686" lon="6.47325">
        <ele>45</ele>
        <time>2017-10-29T15:13:09Z</time>
      </trkpt>
      <trkpt lat="43.44691" lon="6.47309">
        <ele>44</ele>
        <time>2017-10-29T15:13:13Z</time>
      </trkpt>
      <trkpt lat="43.44684" lon="6.47287">
        <ele>44</ele>
        <time>2017-10-29T15:13:18Z</time>
      </trkpt>
      <trkpt lat="43.44676" lon="6.47268">
        <ele>44</ele>
        <time>2017-10-29T15:13:20Z</time>
      </trkpt>
      <trkpt lat="43.44671" lon="6.47256">
        <ele>43</ele>
        <time>2017-10-29T15:13:22Z</time>
      </trkpt>
      <trkpt lat="43.44665" lon="6.47242">
        <ele>43</ele>
        <time>2017-10-29T15:13:24Z</time>
      </trkpt>
      <trkpt lat="43.44659" lon="6.47228">
        <ele>43</ele>
        <time>2017-10-29T15:13:26Z</time>
      </trkpt>
      <trkpt lat="43.44653" lon="6.47212">
        <ele>43</ele>
        <time>2017-10-29T15:13:28Z</time>
      </trkpt>
      <trkpt lat="43.44647" lon="6.47198">
        <ele>43</ele>
        <time>2017-10-29T15:13:30Z</time>
      </trkpt>
      <trkpt lat="43.44642" lon="6.47183">
        <ele>43</ele>
        <time>2017-10-29T15:13:32Z</time>
      </trkpt>
      <trkpt lat="43.44636" lon="6.4717">
        <ele>43</ele>
        <time>2017-10-29T15:13:34Z</time>
      </trkpt>
      <trkpt lat="43.44628" lon="6.47158">
        <ele>44</ele>
        <time>2017-10-29T15:13:36Z</time>
      </trkpt>
      <trkpt lat="43.4462" lon="6.47145">
        <ele>44</ele>
        <time>2017-10-29T15:13:38Z</time>
      </trkpt>
      <trkpt lat="43.4461" lon="6.47131">
        <ele>44</ele>
        <time>2017-10-29T15:13:40Z</time>
      </trkpt>
      <trkpt lat="43.44601" lon="6.47118">
        <ele>45</ele>
        <time>2017-10-29T15:13:42Z</time>
      </trkpt>
      <trkpt lat="43.44592" lon="6.47107">
        <ele>45</ele>
        <time>2017-10-29T15:13:44Z</time>
      </trkpt>
      <trkpt lat="43.44582" lon="6.47093">
        <ele>45</ele>
        <time>2017-10-29T15:13:46Z</time>
      </trkpt>
      <trkpt lat="43.44571" lon="6.47083">
        <ele>46</ele>
        <time>2017-10-29T15:13:48Z</time>
      </trkpt>
      <trkpt lat="43.44556" lon="6.47069">
        <ele>45</ele>
        <time>2017-10-29T15:13:51Z</time>
      </trkpt>
      <trkpt lat="43.44545" lon="6.47059">
        <ele>45</ele>
        <time>2017-10-29T15:13:53Z</time>
      </trkpt>
      <trkpt lat="43.44536" lon="6.47045">
        <ele>45</ele>
        <time>2017-10-29T15:13:55Z</time>
      </trkpt>
      <trkpt lat="43.44528" lon="6.47034">
        <ele>45</ele>
        <time>2017-10-29T15:13:57Z</time>
      </trkpt>
      <trkpt lat="43.44518" lon="6.47025">
        <ele>45</ele>
        <time>2017-10-29T15:13:59Z</time>
      </trkpt>
      <trkpt lat="43.44508" lon="6.47015">
        <ele>45</ele>
        <time>2017-10-29T15:14:01Z</time>
      </trkpt>
      <trkpt lat="43.44501" lon="6.47005">
        <ele>45</ele>
        <time>2017-10-29T15:14:04Z</time>
      </trkpt>
      <trkpt lat="43.44493" lon="6.46995">
        <ele>45</ele>
        <time>2017-10-29T15:14:06Z</time>
      </trkpt>
      <trkpt lat="43.44485" lon="6.4699">
        <ele>45</ele>
        <time>2017-10-29T15:14:08Z</time>
      </trkpt>
      <trkpt lat="43.44472" lon="6.46997">
        <ele>45</ele>
        <time>2017-10-29T15:14:10Z</time>
      </trkpt>
      <trkpt lat="43.44469" lon="6.47014">
        <ele>44</ele>
        <time>2017-10-29T15:14:12Z</time>
      </trkpt>
      <trkpt lat="43.44467" lon="6.47029">
        <ele>44</ele>
        <time>2017-10-29T15:14:14Z</time>
      </trkpt>
      <trkpt lat="43.44466" lon="6.47046">
        <ele>44</ele>
        <time>2017-10-29T15:14:16Z</time>
      </trkpt>
      <trkpt lat="43.44464" lon="6.47063">
        <ele>44</ele>
        <time>2017-10-29T15:14:18Z</time>
      </trkpt>
      <trkpt lat="43.44462" lon="6.4708">
        <ele>44</ele>
        <time>2017-10-29T15:14:20Z</time>
      </trkpt>
      <trkpt lat="43.44459" lon="6.47097">
        <ele>43</ele>
        <time>2017-10-29T15:14:22Z</time>
      </trkpt>
      <trkpt lat="43.44457" lon="6.47113">
        <ele>43</ele>
        <time>2017-10-29T15:14:24Z</time>
      </trkpt>
      <trkpt lat="43.44454" lon="6.4713">
        <ele>43</ele>
        <time>2017-10-29T15:14:26Z</time>
      </trkpt>
      <trkpt lat="43.44452" lon="6.47147">
        <ele>43</ele>
        <time>2017-10-29T15:14:28Z</time>
      </trkpt>
      <trkpt lat="43.4445" lon="6.47163">
        <ele>43</ele>
        <time>2017-10-29T15:14:30Z</time>
      </trkpt>
      <trkpt lat="43.44447" lon="6.47179">
        <ele>42</ele>
        <time>2017-10-29T15:14:32Z</time>
      </trkpt>
      <trkpt lat="43.44445" lon="6.47197">
        <ele>42</ele>
        <time>2017-10-29T15:14:34Z</time>
      </trkpt>
      <trkpt lat="43.44442" lon="6.47223">
        <ele>42</ele>
        <time>2017-10-29T15:14:37Z</time>
      </trkpt>
      <trkpt lat="43.4444" lon="6.4724">
        <ele>42</ele>
        <time>2017-10-29T15:14:39Z</time>
      </trkpt>
      <trkpt lat="43.44438" lon="6.47257">
        <ele>42</ele>
        <time>2017-10-29T15:14:41Z</time>
      </trkpt>
      <trkpt lat="43.44437" lon="6.47274">
        <ele>41</ele>
        <time>2017-10-29T15:14:43Z</time>
      </trkpt>
      <trkpt lat="43.44434" lon="6.47291">
        <ele>41</ele>
        <time>2017-10-29T15:14:45Z</time>
      </trkpt>
      <trkpt lat="43.44432" lon="6.47309">
        <ele>41</ele>
        <time>2017-10-29T15:14:47Z</time>
      </trkpt>
      <trkpt lat="43.4443" lon="6.47326">
        <ele>41</ele>
        <time>2017-10-29T15:14:50Z</time>
      </trkpt>
      <trkpt lat="43.44427" lon="6.47353">
        <ele>42</ele>
        <time>2017-10-29T15:14:52Z</time>
      </trkpt>
      <trkpt lat="43.44425" lon="6.4737">
        <ele>42</ele>
        <time>2017-10-29T15:14:54Z</time>
      </trkpt>
      <trkpt lat="43.44423" lon="6.47388">
        <ele>42</ele>
        <time>2017-10-29T15:14:56Z</time>
      </trkpt>
      <trkpt lat="43.44422" lon="6.47404">
        <ele>43</ele>
        <time>2017-10-29T15:14:58Z</time>
      </trkpt>
      <trkpt lat="43.44421" lon="6.47422">
        <ele>43</ele>
        <time>2017-10-29T15:15:00Z</time>
      </trkpt>
      <trkpt lat="43.44419" lon="6.47439">
        <ele>43</ele>
        <time>2017-10-29T15:15:02Z</time>
      </trkpt>
      <trkpt lat="43.44417" lon="6.47455">
        <ele>43</ele>
        <time>2017-10-29T15:15:04Z</time>
      </trkpt>
      <trkpt lat="43.44412" lon="6.47473">
        <ele>43</ele>
        <time>2017-10-29T15:15:06Z</time>
      </trkpt>
      <trkpt lat="43.44406" lon="6.47489">
        <ele>43</ele>
        <time>2017-10-29T15:15:08Z</time>
      </trkpt>
      <trkpt lat="43.44399" lon="6.47504">
        <ele>43</ele>
        <time>2017-10-29T15:15:10Z</time>
      </trkpt>
      <trkpt lat="43.44392" lon="6.47519">
        <ele>42</ele>
        <time>2017-10-29T15:15:12Z</time>
      </trkpt>
      <trkpt lat="43.44383" lon="6.47533">
        <ele>42</ele>
        <time>2017-10-29T15:15:14Z</time>
      </trkpt>
      <trkpt lat="43.44375" lon="6.47548">
        <ele>42</ele>
        <time>2017-10-29T15:15:16Z</time>
      </trkpt>
      <trkpt lat="43.44363" lon="6.4757">
        <ele>42</ele>
        <time>2017-10-29T15:15:19Z</time>
      </trkpt>
      <trkpt lat="43.44355" lon="6.47585">
        <ele>42</ele>
        <time>2017-10-29T15:15:21Z</time>
      </trkpt>
      <trkpt lat="43.44346" lon="6.47598">
        <ele>42</ele>
        <time>2017-10-29T15:15:23Z</time>
      </trkpt>
      <trkpt lat="43.44335" lon="6.47611">
        <ele>42</ele>
        <time>2017-10-29T15:15:25Z</time>
      </trkpt>
      <trkpt lat="43.44325" lon="6.47622">
        <ele>42</ele>
        <time>2017-10-29T15:15:27Z</time>
      </trkpt>
      <trkpt lat="43.44314" lon="6.47634">
        <ele>42</ele>
        <time>2017-10-29T15:15:30Z</time>
      </trkpt>
      <trkpt lat="43.44303" lon="6.47644">
        <ele>42</ele>
        <time>2017-10-29T15:15:32Z</time>
      </trkpt>
      <trkpt lat="43.44287" lon="6.47659">
        <ele>42</ele>
        <time>2017-10-29T15:15:34Z</time>
      </trkpt>
      <trkpt lat="43.44277" lon="6.4767">
        <ele>42</ele>
        <time>2017-10-29T15:15:36Z</time>
      </trkpt>
      <trkpt lat="43.44267" lon="6.47681">
        <ele>42</ele>
        <time>2017-10-29T15:15:38Z</time>
      </trkpt>
      <trkpt lat="43.44257" lon="6.47695">
        <ele>42</ele>
        <time>2017-10-29T15:15:40Z</time>
      </trkpt>
      <trkpt lat="43.44249" lon="6.47707">
        <ele>42</ele>
        <time>2017-10-29T15:15:42Z</time>
      </trkpt>
      <trkpt lat="43.44241" lon="6.47718">
        <ele>42</ele>
        <time>2017-10-29T15:15:44Z</time>
      </trkpt>
      <trkpt lat="43.44234" lon="6.47731">
        <ele>43</ele>
        <time>2017-10-29T15:15:46Z</time>
      </trkpt>
      <trkpt lat="43.44225" lon="6.47744">
        <ele>43</ele>
        <time>2017-10-29T15:15:48Z</time>
      </trkpt>
      <trkpt lat="43.4422" lon="6.47757">
        <ele>42</ele>
        <time>2017-10-29T15:15:50Z</time>
      </trkpt>
      <trkpt lat="43.44211" lon="6.47772">
        <ele>42</ele>
        <time>2017-10-29T15:15:52Z</time>
      </trkpt>
      <trkpt lat="43.44203" lon="6.47786">
        <ele>42</ele>
        <time>2017-10-29T15:15:54Z</time>
      </trkpt>
      <trkpt lat="43.44193" lon="6.47799">
        <ele>42</ele>
        <time>2017-10-29T15:15:56Z</time>
      </trkpt>
      <trkpt lat="43.44183" lon="6.47812">
        <ele>42</ele>
        <time>2017-10-29T15:15:58Z</time>
      </trkpt>
      <trkpt lat="43.4417" lon="6.47825">
        <ele>41</ele>
        <time>2017-10-29T15:16:00Z</time>
      </trkpt>
      <trkpt lat="43.44153" lon="6.47846">
        <ele>41</ele>
        <time>2017-10-29T15:16:03Z</time>
      </trkpt>
      <trkpt lat="43.44142" lon="6.47861">
        <ele>42</ele>
        <time>2017-10-29T15:16:05Z</time>
      </trkpt>
      <trkpt lat="43.44127" lon="6.47873">
        <ele>42</ele>
        <time>2017-10-29T15:16:07Z</time>
      </trkpt>
      <trkpt lat="43.44114" lon="6.47884">
        <ele>42</ele>
        <time>2017-10-29T15:16:09Z</time>
      </trkpt>
      <trkpt lat="43.44087" lon="6.47911">
        <ele>42</ele>
        <time>2017-10-29T15:16:14Z</time>
      </trkpt>
      <trkpt lat="43.44077" lon="6.47925">
        <ele>42</ele>
        <time>2017-10-29T15:16:16Z</time>
      </trkpt>
      <trkpt lat="43.44067" lon="6.4794">
        <ele>42</ele>
        <time>2017-10-29T15:16:18Z</time>
      </trkpt>
      <trkpt lat="43.44051" lon="6.47958">
        <ele>42</ele>
        <time>2017-10-29T15:16:20Z</time>
      </trkpt>
      <trkpt lat="43.44041" lon="6.47973">
        <ele>42</ele>
        <time>2017-10-29T15:16:22Z</time>
      </trkpt>
      <trkpt lat="43.44032" lon="6.47986">
        <ele>42</ele>
        <time>2017-10-29T15:16:24Z</time>
      </trkpt>
      <trkpt lat="43.44021" lon="6.47998">
        <ele>42</ele>
        <time>2017-10-29T15:16:26Z</time>
      </trkpt>
      <trkpt lat="43.4401" lon="6.48007">
        <ele>42</ele>
        <time>2017-10-29T15:16:28Z</time>
      </trkpt>
      <trkpt lat="43.44" lon="6.48012">
        <ele>42</ele>
        <time>2017-10-29T15:16:30Z</time>
      </trkpt>
      <trkpt lat="43.43994" lon="6.48024">
        <ele>42</ele>
        <time>2017-10-29T15:16:32Z</time>
      </trkpt>
      <trkpt lat="43.43993" lon="6.48041">
        <ele>42</ele>
        <time>2017-10-29T15:16:34Z</time>
      </trkpt>
      <trkpt lat="43.43995" lon="6.48058">
        <ele>42</ele>
        <time>2017-10-29T15:16:36Z</time>
      </trkpt>
      <trkpt lat="43.43994" lon="6.48075">
        <ele>42</ele>
        <time>2017-10-29T15:16:38Z</time>
      </trkpt>
      <trkpt lat="43.43989" lon="6.4809">
        <ele>42</ele>
        <time>2017-10-29T15:16:40Z</time>
      </trkpt>
      <trkpt lat="43.43987" lon="6.48103">
        <ele>42</ele>
        <time>2017-10-29T15:16:42Z</time>
      </trkpt>
      <trkpt lat="43.43973" lon="6.48121">
        <ele>41</ele>
        <time>2017-10-29T15:16:45Z</time>
      </trkpt>
      <trkpt lat="43.43965" lon="6.48132">
        <ele>41</ele>
        <time>2017-10-29T15:16:47Z</time>
      </trkpt>
      <trkpt lat="43.43959" lon="6.48144">
        <ele>41</ele>
        <time>2017-10-29T15:16:49Z</time>
      </trkpt>
      <trkpt lat="43.43955" lon="6.48156">
        <ele>41</ele>
        <time>2017-10-29T15:16:51Z</time>
      </trkpt>
      <trkpt lat="43.43951" lon="6.48169">
        <ele>41</ele>
        <time>2017-10-29T15:16:53Z</time>
      </trkpt>
      <trkpt lat="43.43949" lon="6.48185">
        <ele>40</ele>
        <time>2017-10-29T15:16:56Z</time>
      </trkpt>
      <trkpt lat="43.43948" lon="6.48201">
        <ele>40</ele>
        <time>2017-10-29T15:16:58Z</time>
      </trkpt>
      <trkpt lat="43.43945" lon="6.48225">
        <ele>40</ele>
        <time>2017-10-29T15:17:00Z</time>
      </trkpt>
      <trkpt lat="43.4394" lon="6.48238">
        <ele>40</ele>
        <time>2017-10-29T15:17:02Z</time>
      </trkpt>
      <trkpt lat="43.43928" lon="6.48242">
        <ele>40</ele>
        <time>2017-10-29T15:17:04Z</time>
      </trkpt>
      <trkpt lat="43.43918" lon="6.48242">
        <ele>40</ele>
        <time>2017-10-29T15:17:06Z</time>
      </trkpt>
      <trkpt lat="43.43908" lon="6.48243">
        <ele>40</ele>
        <time>2017-10-29T15:17:08Z</time>
      </trkpt>
      <trkpt lat="43.43893" lon="6.48251">
        <ele>41</ele>
        <time>2017-10-29T15:17:12Z</time>
      </trkpt>
      <trkpt lat="43.43893" lon="6.48265">
        <ele>41</ele>
        <time>2017-10-29T15:17:14Z</time>
      </trkpt>
      <trkpt lat="43.43894" lon="6.48281">
        <ele>41</ele>
        <time>2017-10-29T15:17:16Z</time>
      </trkpt>
      <trkpt lat="43.43893" lon="6.48296">
        <ele>41</ele>
        <time>2017-10-29T15:17:18Z</time>
      </trkpt>
      <trkpt lat="43.43892" lon="6.48312">
        <ele>41</ele>
        <time>2017-10-29T15:17:20Z</time>
      </trkpt>
      <trkpt lat="43.43891" lon="6.48328">
        <ele>41</ele>
        <time>2017-10-29T15:17:22Z</time>
      </trkpt>
      <trkpt lat="43.43888" lon="6.48357">
        <ele>41</ele>
        <time>2017-10-29T15:17:25Z</time>
      </trkpt>
      <trkpt lat="43.43886" lon="6.48376">
        <ele>41</ele>
        <time>2017-10-29T15:17:27Z</time>
      </trkpt>
      <trkpt lat="43.43885" lon="6.48395">
        <ele>41</ele>
        <time>2017-10-29T15:17:29Z</time>
      </trkpt>
      <trkpt lat="43.43883" lon="6.48415">
        <ele>41</ele>
        <time>2017-10-29T15:17:31Z</time>
      </trkpt>
      <trkpt lat="43.43881" lon="6.48434">
        <ele>41</ele>
        <time>2017-10-29T15:17:33Z</time>
      </trkpt>
      <trkpt lat="43.43879" lon="6.48452">
        <ele>41</ele>
        <time>2017-10-29T15:17:35Z</time>
      </trkpt>
      <trkpt lat="43.43878" lon="6.48471">
        <ele>40</ele>
        <time>2017-10-29T15:17:38Z</time>
      </trkpt>
      <trkpt lat="43.43876" lon="6.48491">
        <ele>40</ele>
        <time>2017-10-29T15:17:40Z</time>
      </trkpt>
      <trkpt lat="43.43875" lon="6.4851">
        <ele>40</ele>
        <time>2017-10-29T15:17:42Z</time>
      </trkpt>
      <trkpt lat="43.43875" lon="6.48538">
        <ele>40</ele>
        <time>2017-10-29T15:17:44Z</time>
      </trkpt>
      <trkpt lat="43.43878" lon="6.48557">
        <ele>40</ele>
        <time>2017-10-29T15:17:46Z</time>
      </trkpt>
      <trkpt lat="43.4388" lon="6.48578">
        <ele>40</ele>
        <time>2017-10-29T15:17:48Z</time>
      </trkpt>
      <trkpt lat="43.43884" lon="6.48598">
        <ele>41</ele>
        <time>2017-10-29T15:17:50Z</time>
      </trkpt>
      <trkpt lat="43.43884" lon="6.48616">
        <ele>41</ele>
        <time>2017-10-29T15:17:52Z</time>
      </trkpt>
      <trkpt lat="43.43882" lon="6.48629">
        <ele>41</ele>
        <time>2017-10-29T15:17:54Z</time>
      </trkpt>
      <trkpt lat="43.43875" lon="6.48639">
        <ele>41</ele>
        <time>2017-10-29T15:17:56Z</time>
      </trkpt>
      <trkpt lat="43.43866" lon="6.48646">
        <ele>41</ele>
        <time>2017-10-29T15:17:58Z</time>
      </trkpt>
      <trkpt lat="43.43859" lon="6.48653">
        <ele>41</ele>
        <time>2017-10-29T15:18:00Z</time>
      </trkpt>
      <trkpt lat="43.43844" lon="6.48664">
        <ele>42</ele>
        <time>2017-10-29T15:18:04Z</time>
      </trkpt>
      <trkpt lat="43.43837" lon="6.48671">
        <ele>42</ele>
        <time>2017-10-29T15:18:06Z</time>
      </trkpt>
      <trkpt lat="43.43826" lon="6.48682">
        <ele>44</ele>
        <time>2017-10-29T15:18:09Z</time>
      </trkpt>
      <trkpt lat="43.43819" lon="6.4869">
        <ele>45</ele>
        <time>2017-10-29T15:18:11Z</time>
      </trkpt>
      <trkpt lat="43.43812" lon="6.48698">
        <ele>45</ele>
        <time>2017-10-29T15:18:13Z</time>
      </trkpt>
      <trkpt lat="43.43798" lon="6.48713">
        <ele>46</ele>
        <time>2017-10-29T15:18:17Z</time>
      </trkpt>
      <trkpt lat="43.43786" lon="6.48726">
        <ele>47</ele>
        <time>2017-10-29T15:18:22Z</time>
      </trkpt>
      <trkpt lat="43.43771" lon="6.48741">
        <ele>48</ele>
        <time>2017-10-29T15:18:26Z</time>
      </trkpt>
      <trkpt lat="43.43761" lon="6.48755">
        <ele>49</ele>
        <time>2017-10-29T15:18:30Z</time>
      </trkpt>
      <trkpt lat="43.43763" lon="6.48776">
        <ele>49</ele>
        <time>2017-10-29T15:18:34Z</time>
      </trkpt>
      <trkpt lat="43.43771" lon="6.48794">
        <ele>49</ele>
        <time>2017-10-29T15:18:38Z</time>
      </trkpt>
      <trkpt lat="43.43779" lon="6.48817">
        <ele>50</ele>
        <time>2017-10-29T15:18:42Z</time>
      </trkpt>
      <trkpt lat="43.4378" lon="6.48829">
        <ele>50</ele>
        <time>2017-10-29T15:18:44Z</time>
      </trkpt>
      <trkpt lat="43.43785" lon="6.48842">
        <ele>52</ele>
        <time>2017-10-29T15:18:46Z</time>
      </trkpt>
      <trkpt lat="43.43785" lon="6.48857">
        <ele>52</ele>
        <time>2017-10-29T15:18:48Z</time>
      </trkpt>
      <trkpt lat="43.43778" lon="6.48875">
        <ele>52</ele>
        <time>2017-10-29T15:18:51Z</time>
      </trkpt>
      <trkpt lat="43.43773" lon="6.4889">
        <ele>54</ele>
        <time>2017-10-29T15:18:53Z</time>
      </trkpt>
      <trkpt lat="43.4377" lon="6.48903">
        <ele>55</ele>
        <time>2017-10-29T15:18:55Z</time>
      </trkpt>
      <trkpt lat="43.43769" lon="6.48917">
        <ele>56</ele>
        <time>2017-10-29T15:18:57Z</time>
      </trkpt>
      <trkpt lat="43.43768" lon="6.48933">
        <ele>55</ele>
        <time>2017-10-29T15:18:59Z</time>
      </trkpt>
      <trkpt lat="43.43763" lon="6.48949">
        <ele>54</ele>
        <time>2017-10-29T15:19:01Z</time>
      </trkpt>
      <trkpt lat="43.43758" lon="6.48964">
        <ele>54</ele>
        <time>2017-10-29T15:19:04Z</time>
      </trkpt>
      <trkpt lat="43.43757" lon="6.48997">
        <ele>56</ele>
        <time>2017-10-29T15:19:08Z</time>
      </trkpt>
      <trkpt lat="43.43754" lon="6.49012">
        <ele>54</ele>
        <time>2017-10-29T15:19:10Z</time>
      </trkpt>
      <trkpt lat="43.43753" lon="6.49026">
        <ele>51</ele>
        <time>2017-10-29T15:19:12Z</time>
      </trkpt>
      <trkpt lat="43.43749" lon="6.49041">
        <ele>62</ele>
        <time>2017-10-29T15:19:14Z</time>
      </trkpt>
      <trkpt lat="43.43748" lon="6.49055">
        <ele>60</ele>
        <time>2017-10-29T15:19:16Z</time>
      </trkpt>
      <trkpt lat="43.43746" lon="6.49068">
        <ele>58</ele>
        <time>2017-10-29T15:19:18Z</time>
      </trkpt>
      <trkpt lat="43.43743" lon="6.49082">
        <ele>55</ele>
        <time>2017-10-29T15:19:20Z</time>
      </trkpt>
      <trkpt lat="43.43739" lon="6.49097">
        <ele>56</ele>
        <time>2017-10-29T15:19:22Z</time>
      </trkpt>
      <trkpt lat="43.43731" lon="6.49115">
        <ele>58</ele>
        <time>2017-10-29T15:19:24Z</time>
      </trkpt>
      <trkpt lat="43.43727" lon="6.49133">
        <ele>58</ele>
        <time>2017-10-29T15:19:26Z</time>
      </trkpt>
      <trkpt lat="43.43724" lon="6.49149">
        <ele>57</ele>
        <time>2017-10-29T15:19:28Z</time>
      </trkpt>
      <trkpt lat="43.43724" lon="6.49164">
        <ele>56</ele>
        <time>2017-10-29T15:19:30Z</time>
      </trkpt>
      <trkpt lat="43.43724" lon="6.49179">
        <ele>53</ele>
        <time>2017-10-29T15:19:32Z</time>
      </trkpt>
      <trkpt lat="43.43723" lon="6.49203">
        <ele>54</ele>
        <time>2017-10-29T15:19:35Z</time>
      </trkpt>
      <trkpt lat="43.43719" lon="6.4922">
        <ele>54</ele>
        <time>2017-10-29T15:19:37Z</time>
      </trkpt>
      <trkpt lat="43.43715" lon="6.49234">
        <ele>54</ele>
        <time>2017-10-29T15:19:39Z</time>
      </trkpt>
      <trkpt lat="43.43708" lon="6.49245">
        <ele>55</ele>
        <time>2017-10-29T15:19:41Z</time>
      </trkpt>
      <trkpt lat="43.437" lon="6.49257">
        <ele>53</ele>
        <time>2017-10-29T15:19:43Z</time>
      </trkpt>
      <trkpt lat="43.43695" lon="6.49268">
        <ele>53</ele>
        <time>2017-10-29T15:19:46Z</time>
      </trkpt>
      <trkpt lat="43.43689" lon="6.4928">
        <ele>53</ele>
        <time>2017-10-29T15:19:48Z</time>
      </trkpt>
      <trkpt lat="43.43685" lon="6.49297">
        <ele>53</ele>
        <time>2017-10-29T15:19:50Z</time>
      </trkpt>
      <trkpt lat="43.43682" lon="6.49309">
        <ele>53</ele>
        <time>2017-10-29T15:19:52Z</time>
      </trkpt>
      <trkpt lat="43.43676" lon="6.49321">
        <ele>53</ele>
        <time>2017-10-29T15:19:54Z</time>
      </trkpt>
      <trkpt lat="43.43671" lon="6.49333">
        <ele>54</ele>
        <time>2017-10-29T15:19:56Z</time>
      </trkpt>
      <trkpt lat="43.43665" lon="6.49345">
        <ele>57</ele>
        <time>2017-10-29T15:19:58Z</time>
      </trkpt>
      <trkpt lat="43.43662" lon="6.49358">
        <ele>58</ele>
        <time>2017-10-29T15:20:00Z</time>
      </trkpt>
      <trkpt lat="43.43663" lon="6.4938">
        <ele>58</ele>
        <time>2017-10-29T15:20:04Z</time>
      </trkpt>
      <trkpt lat="43.43663" lon="6.49396">
        <ele>56</ele>
        <time>2017-10-29T15:20:06Z</time>
      </trkpt>
      <trkpt lat="43.4366" lon="6.49413">
        <ele>53</ele>
        <time>2017-10-29T15:20:08Z</time>
      </trkpt>
      <trkpt lat="43.43652" lon="6.49436">
        <ele>55</ele>
        <time>2017-10-29T15:20:11Z</time>
      </trkpt>
      <trkpt lat="43.43648" lon="6.4945">
        <ele>56</ele>
        <time>2017-10-29T15:20:13Z</time>
      </trkpt>
      <trkpt lat="43.43643" lon="6.49472">
        <ele>56</ele>
        <time>2017-10-29T15:20:17Z</time>
      </trkpt>
      <trkpt lat="43.4364" lon="6.49484">
        <ele>56</ele>
        <time>2017-10-29T15:20:20Z</time>
      </trkpt>
      <trkpt lat="43.43634" lon="6.49512">
        <ele>56</ele>
        <time>2017-10-29T15:20:24Z</time>
      </trkpt>
      <trkpt lat="43.43631" lon="6.49534">
        <ele>57</ele>
        <time>2017-10-29T15:20:28Z</time>
      </trkpt>
      <trkpt lat="43.43629" lon="6.49553">
        <ele>57</ele>
        <time>2017-10-29T15:20:32Z</time>
      </trkpt>
      <trkpt lat="43.43627" lon="6.49573">
        <ele>57</ele>
        <time>2017-10-29T15:20:36Z</time>
      </trkpt>
      <trkpt lat="43.43625" lon="6.4959">
        <ele>57</ele>
        <time>2017-10-29T15:20:40Z</time>
      </trkpt>
      <trkpt lat="43.43626" lon="6.49602">
        <ele>56</ele>
        <time>2017-10-29T15:20:44Z</time>
      </trkpt>
      <trkpt lat="43.43628" lon="6.49616">
        <ele>56</ele>
        <time>2017-10-29T15:20:49Z</time>
      </trkpt>
      <trkpt lat="43.43627" lon="6.49633">
        <ele>56</ele>
        <time>2017-10-29T15:20:55Z</time>
      </trkpt>
      <trkpt lat="43.43623" lon="6.49644">
        <ele>56</ele>
        <time>2017-10-29T15:21:04Z</time>
      </trkpt>
      <trkpt lat="43.43619" lon="6.49656">
        <ele>57</ele>
        <time>2017-10-29T15:21:28Z</time>
      </trkpt>
      <trkpt lat="43.43617" lon="6.49684">
        <ele>56</ele>
        <time>2017-10-29T15:21:32Z</time>
      </trkpt>
      <trkpt lat="43.43616" lon="6.49704">
        <ele>56</ele>
        <time>2017-10-29T15:21:34Z</time>
      </trkpt>
      <trkpt lat="43.43612" lon="6.49728">
        <ele>56</ele>
        <time>2017-10-29T15:21:37Z</time>
      </trkpt>
      <trkpt lat="43.43611" lon="6.49744">
        <ele>57</ele>
        <time>2017-10-29T15:21:39Z</time>
      </trkpt>
      <trkpt lat="43.43613" lon="6.49757">
        <ele>55</ele>
        <time>2017-10-29T15:21:41Z</time>
      </trkpt>
      <trkpt lat="43.43615" lon="6.49774">
        <ele>54</ele>
        <time>2017-10-29T15:21:43Z</time>
      </trkpt>
      <trkpt lat="43.43615" lon="6.49791">
        <ele>54</ele>
        <time>2017-10-29T15:21:46Z</time>
      </trkpt>
      <trkpt lat="43.43615" lon="6.49807">
        <ele>54</ele>
        <time>2017-10-29T15:21:48Z</time>
      </trkpt>
      <trkpt lat="43.43623" lon="6.49817">
        <ele>52</ele>
        <time>2017-10-29T15:21:50Z</time>
      </trkpt>
      <trkpt lat="43.43623" lon="6.49833">
        <ele>53</ele>
        <time>2017-10-29T15:21:52Z</time>
      </trkpt>
      <trkpt lat="43.43623" lon="6.49849">
        <ele>53</ele>
        <time>2017-10-29T15:21:54Z</time>
      </trkpt>
      <trkpt lat="43.43622" lon="6.49867">
        <ele>53</ele>
        <time>2017-10-29T15:21:56Z</time>
      </trkpt>
      <trkpt lat="43.43608" lon="6.49878">
        <ele>55</ele>
        <time>2017-10-29T15:21:58Z</time>
      </trkpt>
      <trkpt lat="43.43597" lon="6.49882">
        <ele>56</ele>
        <time>2017-10-29T15:22:00Z</time>
      </trkpt>
      <trkpt lat="43.436" lon="6.49895">
        <ele>57</ele>
        <time>2017-10-29T15:22:02Z</time>
      </trkpt>
      <trkpt lat="43.4361" lon="6.49905">
        <ele>56</ele>
        <time>2017-10-29T15:22:08Z</time>
      </trkpt>
      <trkpt lat="43.43621" lon="6.49905">
        <ele>54</ele>
        <time>2017-10-29T15:22:10Z</time>
      </trkpt>
      <trkpt lat="43.43635" lon="6.49926">
        <ele>56</ele>
        <time>2017-10-29T15:22:17Z</time>
      </trkpt>
      <trkpt lat="43.43633" lon="6.49949">
        <ele>58</ele>
        <time>2017-10-29T15:22:21Z</time>
      </trkpt>
      <trkpt lat="43.43633" lon="6.49969">
        <ele>59</ele>
        <time>2017-10-29T15:22:25Z</time>
      </trkpt>
      <trkpt lat="43.43631" lon="6.49985">
        <ele>60</ele>
        <time>2017-10-29T15:22:30Z</time>
      </trkpt>
      <trkpt lat="43.43632" lon="6.5">
        <ele>60</ele>
        <time>2017-10-29T15:22:34Z</time>
      </trkpt>
      <trkpt lat="43.4363" lon="6.50021">
        <ele>66</ele>
        <time>2017-10-29T15:22:40Z</time>
      </trkpt>
      <trkpt lat="43.43629" lon="6.50034">
        <ele>67</ele>
        <time>2017-10-29T15:22:42Z</time>
      </trkpt>
      <trkpt lat="43.43636" lon="6.50046">
        <ele>66</ele>
        <time>2017-10-29T15:22:44Z</time>
      </trkpt>
      <trkpt lat="43.43644" lon="6.50059">
        <ele>65</ele>
        <time>2017-10-29T15:22:48Z</time>
      </trkpt>
      <trkpt lat="43.43652" lon="6.50067">
        <ele>62</ele>
        <time>2017-10-29T15:22:50Z</time>
      </trkpt>
      <trkpt lat="43.43661" lon="6.50087">
        <ele>59</ele>
        <time>2017-10-29T15:22:54Z</time>
      </trkpt>
      <trkpt lat="43.43664" lon="6.50103">
        <ele>64</ele>
        <time>2017-10-29T15:22:56Z</time>
      </trkpt>
      <trkpt lat="43.43668" lon="6.50118">
        <ele>51</ele>
        <time>2017-10-29T15:22:58Z</time>
      </trkpt>
      <trkpt lat="43.43669" lon="6.50142">
        <ele>53</ele>
        <time>2017-10-29T15:23:01Z</time>
      </trkpt>
      <trkpt lat="43.43668" lon="6.50157">
        <ele>56</ele>
        <time>2017-10-29T15:23:03Z</time>
      </trkpt>
      <trkpt lat="43.43668" lon="6.5018">
        <ele>56</ele>
        <time>2017-10-29T15:23:07Z</time>
      </trkpt>
      <trkpt lat="43.43666" lon="6.50197">
        <ele>71</ele>
        <time>2017-10-29T15:23:12Z</time>
      </trkpt>
      <trkpt lat="43.43679" lon="6.50222">
        <ele>54</ele>
        <time>2017-10-29T15:23:16Z</time>
      </trkpt>
      <trkpt lat="43.43685" lon="6.50235">
        <ele>55</ele>
        <time>2017-10-29T15:23:18Z</time>
      </trkpt>
      <trkpt lat="43.43688" lon="6.50248">
        <ele>55</ele>
        <time>2017-10-29T15:23:20Z</time>
      </trkpt>
      <trkpt lat="43.43686" lon="6.50263">
        <ele>56</ele>
        <time>2017-10-29T15:23:22Z</time>
      </trkpt>
      <trkpt lat="43.4369" lon="6.50276">
        <ele>55</ele>
        <time>2017-10-29T15:23:24Z</time>
      </trkpt>
      <trkpt lat="43.43693" lon="6.50288">
        <ele>54</ele>
        <time>2017-10-29T15:23:26Z</time>
      </trkpt>
      <trkpt lat="43.43697" lon="6.50299">
        <ele>54</ele>
        <time>2017-10-29T15:23:28Z</time>
      </trkpt>
      <trkpt lat="43.43699" lon="6.50314">
        <ele>54</ele>
        <time>2017-10-29T15:23:30Z</time>
      </trkpt>
      <trkpt lat="43.43702" lon="6.50328">
        <ele>54</ele>
        <time>2017-10-29T15:23:32Z</time>
      </trkpt>
      <trkpt lat="43.43706" lon="6.50342">
        <ele>56</ele>
        <time>2017-10-29T15:23:34Z</time>
      </trkpt>
      <trkpt lat="43.4371" lon="6.50355">
        <ele>55</ele>
        <time>2017-10-29T15:23:36Z</time>
      </trkpt>
      <trkpt lat="43.43713" lon="6.50369">
        <ele>55</ele>
        <time>2017-10-29T15:23:38Z</time>
      </trkpt>
      <trkpt lat="43.43713" lon="6.50382">
        <ele>55</ele>
        <time>2017-10-29T15:23:40Z</time>
      </trkpt>
      <trkpt lat="43.43718" lon="6.50402">
        <ele>54</ele>
        <time>2017-10-29T15:23:43Z</time>
      </trkpt>
      <trkpt lat="43.4373" lon="6.50423">
        <ele>53</ele>
        <time>2017-10-29T15:23:47Z</time>
      </trkpt>
      <trkpt lat="43.43727" lon="6.5044">
        <ele>56</ele>
        <time>2017-10-29T15:23:49Z</time>
      </trkpt>
      <trkpt lat="43.43731" lon="6.50452">
        <ele>56</ele>
        <time>2017-10-29T15:23:52Z</time>
      </trkpt>
      <trkpt lat="43.4373" lon="6.50466">
        <ele>57</ele>
        <time>2017-10-29T15:23:54Z</time>
      </trkpt>
      <trkpt lat="43.43725" lon="6.50487">
        <ele>57</ele>
        <time>2017-10-29T15:23:56Z</time>
      </trkpt>
      <trkpt lat="43.43726" lon="6.50503">
        <ele>57</ele>
        <time>2017-10-29T15:23:58Z</time>
      </trkpt>
      <trkpt lat="43.43729" lon="6.50517">
        <ele>57</ele>
        <time>2017-10-29T15:24:00Z</time>
      </trkpt>
      <trkpt lat="43.43731" lon="6.5053">
        <ele>58</ele>
        <time>2017-10-29T15:24:02Z</time>
      </trkpt>
      <trkpt lat="43.43732" lon="6.50548">
        <ele>58</ele>
        <time>2017-10-29T15:24:06Z</time>
      </trkpt>
      <trkpt lat="43.43729" lon="6.50568">
        <ele>56</ele>
        <time>2017-10-29T15:24:12Z</time>
      </trkpt>
      <trkpt lat="43.43728" lon="6.50586">
        <ele>54</ele>
        <time>2017-10-29T15:24:16Z</time>
      </trkpt>
      <trkpt lat="43.43725" lon="6.50609">
        <ele>56</ele>
        <time>2017-10-29T15:24:20Z</time>
      </trkpt>
      <trkpt lat="43.43723" lon="6.50629">
        <ele>56</ele>
        <time>2017-10-29T15:24:24Z</time>
      </trkpt>
      <trkpt lat="43.43718" lon="6.50646">
        <ele>56</ele>
        <time>2017-10-29T15:24:27Z</time>
      </trkpt>
      <trkpt lat="43.43714" lon="6.50667">
        <ele>53</ele>
        <time>2017-10-29T15:24:31Z</time>
      </trkpt>
      <trkpt lat="43.4371" lon="6.50685">
        <ele>54</ele>
        <time>2017-10-29T15:24:35Z</time>
      </trkpt>
      <trkpt lat="43.43707" lon="6.50707">
        <ele>54</ele>
        <time>2017-10-29T15:24:40Z</time>
      </trkpt>
      <trkpt lat="43.43704" lon="6.50723">
        <ele>54</ele>
        <time>2017-10-29T15:24:42Z</time>
      </trkpt>
      <trkpt lat="43.43701" lon="6.50745">
        <ele>54</ele>
        <time>2017-10-29T15:24:46Z</time>
      </trkpt>
      <trkpt lat="43.43702" lon="6.50761">
        <ele>51</ele>
        <time>2017-10-29T15:24:50Z</time>
      </trkpt>
      <trkpt lat="43.43695" lon="6.50776">
        <ele>51</ele>
        <time>2017-10-29T15:24:56Z</time>
      </trkpt>
      <trkpt lat="43.43688" lon="6.50788">
        <ele>51</ele>
        <time>2017-10-29T15:25:00Z</time>
      </trkpt>
      <trkpt lat="43.43681" lon="6.50801">
        <ele>51</ele>
        <time>2017-10-29T15:25:04Z</time>
      </trkpt>
      <trkpt lat="43.43669" lon="6.50819">
        <ele>52</ele>
        <time>2017-10-29T15:25:09Z</time>
      </trkpt>
      <trkpt lat="43.4366" lon="6.50824">
        <ele>60</ele>
        <time>2017-10-29T15:25:13Z</time>
      </trkpt>
      <trkpt lat="43.43656" lon="6.50841">
        <ele>59</ele>
        <time>2017-10-29T15:25:20Z</time>
      </trkpt>
      <trkpt lat="43.43659" lon="6.5086">
        <ele>60</ele>
        <time>2017-10-29T15:25:24Z</time>
      </trkpt>
      <trkpt lat="43.43655" lon="6.50876">
        <ele>61</ele>
        <time>2017-10-29T15:25:30Z</time>
      </trkpt>
      <trkpt lat="43.43651" lon="6.50889">
        <ele>61</ele>
        <time>2017-10-29T15:25:34Z</time>
      </trkpt>
      <trkpt lat="43.43649" lon="6.50901">
        <ele>60</ele>
        <time>2017-10-29T15:25:38Z</time>
      </trkpt>
      <trkpt lat="43.43642" lon="6.50913">
        <ele>60</ele>
        <time>2017-10-29T15:25:45Z</time>
      </trkpt>
      <trkpt lat="43.43638" lon="6.50928">
        <ele>56</ele>
        <time>2017-10-29T15:25:54Z</time>
      </trkpt>
      <trkpt lat="43.43646" lon="6.50949">
        <ele>55</ele>
        <time>2017-10-29T15:25:58Z</time>
      </trkpt>
      <trkpt lat="43.43649" lon="6.50962">
        <ele>55</ele>
        <time>2017-10-29T15:26:00Z</time>
      </trkpt>
      <trkpt lat="43.43651" lon="6.50983">
        <ele>53</ele>
        <time>2017-10-29T15:26:04Z</time>
      </trkpt>
      <trkpt lat="43.43655" lon="6.50996">
        <ele>52</ele>
        <time>2017-10-29T15:26:08Z</time>
      </trkpt>
      <trkpt lat="43.43663" lon="6.51024">
        <ele>46</ele>
        <time>2017-10-29T15:26:27Z</time>
      </trkpt>
      <trkpt lat="43.43657" lon="6.51034">
        <ele>45</ele>
        <time>2017-10-29T15:26:29Z</time>
      </trkpt>
      <trkpt lat="43.43646" lon="6.51036">
        <ele>45</ele>
        <time>2017-10-29T15:26:31Z</time>
      </trkpt>
      <trkpt lat="43.43634" lon="6.51033">
        <ele>45</ele>
        <time>2017-10-29T15:26:33Z</time>
      </trkpt>
      <trkpt lat="43.43623" lon="6.51026">
        <ele>46</ele>
        <time>2017-10-29T15:26:36Z</time>
      </trkpt>
      <trkpt lat="43.43609" lon="6.51019">
        <ele>47</ele>
        <time>2017-10-29T15:26:38Z</time>
      </trkpt>
      <trkpt lat="43.43594" lon="6.51015">
        <ele>49</ele>
        <time>2017-10-29T15:26:40Z</time>
      </trkpt>
      <trkpt lat="43.43572" lon="6.51023">
        <ele>48</ele>
        <time>2017-10-29T15:26:42Z</time>
      </trkpt>
      <trkpt lat="43.43556" lon="6.51035">
        <ele>46</ele>
        <time>2017-10-29T15:26:44Z</time>
      </trkpt>
      <trkpt lat="43.43541" lon="6.51044">
        <ele>45</ele>
        <time>2017-10-29T15:26:46Z</time>
      </trkpt>
      <trkpt lat="43.43529" lon="6.51055">
        <ele>44</ele>
        <time>2017-10-29T15:26:48Z</time>
      </trkpt>
      <trkpt lat="43.4352" lon="6.51066">
        <ele>43</ele>
        <time>2017-10-29T15:26:50Z</time>
      </trkpt>
      <trkpt lat="43.43508" lon="6.51076">
        <ele>40</ele>
        <time>2017-10-29T15:26:52Z</time>
      </trkpt>
      <trkpt lat="43.43498" lon="6.5108">
        <ele>38</ele>
        <time>2017-10-29T15:26:54Z</time>
      </trkpt>
      <trkpt lat="43.43489" lon="6.5108">
        <ele>40</ele>
        <time>2017-10-29T15:26:56Z</time>
      </trkpt>
      <trkpt lat="43.43478" lon="6.51081">
        <ele>41</ele>
        <time>2017-10-29T15:26:58Z</time>
      </trkpt>
      <trkpt lat="43.43469" lon="6.51073">
        <ele>42</ele>
        <time>2017-10-29T15:27:00Z</time>
      </trkpt>
      <trkpt lat="43.43458" lon="6.51069">
        <ele>43</ele>
        <time>2017-10-29T15:27:02Z</time>
      </trkpt>
      <trkpt lat="43.43449" lon="6.51061">
        <ele>43</ele>
        <time>2017-10-29T15:27:04Z</time>
      </trkpt>
      <trkpt lat="43.43437" lon="6.51058">
        <ele>43</ele>
        <time>2017-10-29T15:27:06Z</time>
      </trkpt>
      <trkpt lat="43.43419" lon="6.5105">
        <ele>43</ele>
        <time>2017-10-29T15:27:09Z</time>
      </trkpt>
      <trkpt lat="43.43407" lon="6.51043">
        <ele>42</ele>
        <time>2017-10-29T15:27:11Z</time>
      </trkpt>
      <trkpt lat="43.43397" lon="6.51035">
        <ele>43</ele>
        <time>2017-10-29T15:27:13Z</time>
      </trkpt>
      <trkpt lat="43.43383" lon="6.51032">
        <ele>42</ele>
        <time>2017-10-29T15:27:15Z</time>
      </trkpt>
      <trkpt lat="43.4337" lon="6.51028">
        <ele>42</ele>
        <time>2017-10-29T15:27:17Z</time>
      </trkpt>
      <trkpt lat="43.43356" lon="6.51023">
        <ele>42</ele>
        <time>2017-10-29T15:27:19Z</time>
      </trkpt>
      <trkpt lat="43.43341" lon="6.51022">
        <ele>42</ele>
        <time>2017-10-29T15:27:21Z</time>
      </trkpt>
      <trkpt lat="43.4333" lon="6.51026">
        <ele>38</ele>
        <time>2017-10-29T15:27:24Z</time>
      </trkpt>
      <trkpt lat="43.43319" lon="6.51031">
        <ele>37</ele>
        <time>2017-10-29T15:27:26Z</time>
      </trkpt>
      <trkpt lat="43.43305" lon="6.51031">
        <ele>36</ele>
        <time>2017-10-29T15:27:28Z</time>
      </trkpt>
      <trkpt lat="43.43295" lon="6.51032">
        <ele>36</ele>
        <time>2017-10-29T15:27:30Z</time>
      </trkpt>
      <trkpt lat="43.43284" lon="6.51036">
        <ele>35</ele>
        <time>2017-10-29T15:27:32Z</time>
      </trkpt>
      <trkpt lat="43.43272" lon="6.51043">
        <ele>34</ele>
        <time>2017-10-29T15:27:34Z</time>
      </trkpt>
      <trkpt lat="43.4326" lon="6.51046">
        <ele>34</ele>
        <time>2017-10-29T15:27:36Z</time>
      </trkpt>
      <trkpt lat="43.43247" lon="6.51046">
        <ele>35</ele>
        <time>2017-10-29T15:27:38Z</time>
      </trkpt>
      <trkpt lat="43.43232" lon="6.51046">
        <ele>36</ele>
        <time>2017-10-29T15:27:40Z</time>
      </trkpt>
      <trkpt lat="43.43217" lon="6.51045">
        <ele>37</ele>
        <time>2017-10-29T15:27:42Z</time>
      </trkpt>
      <trkpt lat="43.43203" lon="6.51042">
        <ele>38</ele>
        <time>2017-10-29T15:27:44Z</time>
      </trkpt>
      <trkpt lat="43.43187" lon="6.51038">
        <ele>39</ele>
        <time>2017-10-29T15:27:46Z</time>
      </trkpt>
      <trkpt lat="43.43168" lon="6.51039">
        <ele>39</ele>
        <time>2017-10-29T15:27:49Z</time>
      </trkpt>
      <trkpt lat="43.43163" lon="6.51069">
        <ele>46</ele>
        <time>2017-10-29T15:27:53Z</time>
      </trkpt>
      <trkpt lat="43.43155" lon="6.51082">
        <ele>45</ele>
        <time>2017-10-29T15:27:55Z</time>
      </trkpt>
      <trkpt lat="43.43149" lon="6.51091">
        <ele>42</ele>
        <time>2017-10-29T15:27:57Z</time>
      </trkpt>
      <trkpt lat="43.43125" lon="6.51106">
        <ele>44</ele>
        <time>2017-10-29T15:28:06Z</time>
      </trkpt>
      <trkpt lat="43.43114" lon="6.51122">
        <ele>44</ele>
        <time>2017-10-29T15:28:10Z</time>
      </trkpt>
      <trkpt lat="43.43107" lon="6.5113">
        <ele>44</ele>
        <time>2017-10-29T15:28:14Z</time>
      </trkpt>
      <trkpt lat="43.43095" lon="6.51133">
        <ele>44</ele>
        <time>2017-10-29T15:28:18Z</time>
      </trkpt>
      <trkpt lat="43.43076" lon="6.51135">
        <ele>51</ele>
        <time>2017-10-29T15:28:22Z</time>
      </trkpt>
      <trkpt lat="43.43066" lon="6.51134">
        <ele>52</ele>
        <time>2017-10-29T15:28:24Z</time>
      </trkpt>
      <trkpt lat="43.43055" lon="6.51132">
        <ele>53</ele>
        <time>2017-10-29T15:28:26Z</time>
      </trkpt>
      <trkpt lat="43.43045" lon="6.51126">
        <ele>54</ele>
        <time>2017-10-29T15:28:28Z</time>
      </trkpt>
      <trkpt lat="43.43032" lon="6.51113">
        <ele>55</ele>
        <time>2017-10-29T15:28:31Z</time>
      </trkpt>
      <trkpt lat="43.43025" lon="6.51101">
        <ele>56</ele>
        <time>2017-10-29T15:28:33Z</time>
      </trkpt>
      <trkpt lat="43.43019" lon="6.51092">
        <ele>58</ele>
        <time>2017-10-29T15:28:35Z</time>
      </trkpt>
      <trkpt lat="43.43013" lon="6.51105">
        <ele>57</ele>
        <time>2017-10-29T15:28:37Z</time>
      </trkpt>
      <trkpt lat="43.43008" lon="6.51128">
        <ele>54</ele>
        <time>2017-10-29T15:28:42Z</time>
      </trkpt>
      <trkpt lat="43.43004" lon="6.51143">
        <ele>53</ele>
        <time>2017-10-29T15:28:44Z</time>
      </trkpt>
      <trkpt lat="43.42996" lon="6.51161">
        <ele>57</ele>
        <time>2017-10-29T15:28:46Z</time>
      </trkpt>
      <trkpt lat="43.42992" lon="6.51185">
        <ele>57</ele>
        <time>2017-10-29T15:28:50Z</time>
      </trkpt>
      <trkpt lat="43.42984" lon="6.51203">
        <ele>60</ele>
        <time>2017-10-29T15:28:54Z</time>
      </trkpt>
      <trkpt lat="43.42977" lon="6.51212">
        <ele>60</ele>
        <time>2017-10-29T15:28:56Z</time>
      </trkpt>
      <trkpt lat="43.42967" lon="6.51228">
        <ele>61</ele>
        <time>2017-10-29T15:29:00Z</time>
      </trkpt>
      <trkpt lat="43.42962" lon="6.51251">
        <ele>56</ele>
        <time>2017-10-29T15:29:04Z</time>
      </trkpt>
      <trkpt lat="43.4296" lon="6.51265">
        <ele>56</ele>
        <time>2017-10-29T15:29:06Z</time>
      </trkpt>
      <trkpt lat="43.42956" lon="6.51286">
        <ele>56</ele>
        <time>2017-10-29T15:29:09Z</time>
      </trkpt>
      <trkpt lat="43.42945" lon="6.51307">
        <ele>56</ele>
        <time>2017-10-29T15:29:13Z</time>
      </trkpt>
      <trkpt lat="43.42942" lon="6.51332">
        <ele>57</ele>
        <time>2017-10-29T15:29:17Z</time>
      </trkpt>
      <trkpt lat="43.42937" lon="6.51343">
        <ele>54</ele>
        <time>2017-10-29T15:29:20Z</time>
      </trkpt>
      <trkpt lat="43.42924" lon="6.51352">
        <ele>55</ele>
        <time>2017-10-29T15:29:22Z</time>
      </trkpt>
      <trkpt lat="43.42914" lon="6.51376">
        <ele>69</ele>
        <time>2017-10-29T15:29:24Z</time>
      </trkpt>
      <trkpt lat="43.42915" lon="6.51391">
        <ele>66</ele>
        <time>2017-10-29T15:29:26Z</time>
      </trkpt>
      <trkpt lat="43.42909" lon="6.51402">
        <ele>63</ele>
        <time>2017-10-29T15:29:28Z</time>
      </trkpt>
      <trkpt lat="43.42905" lon="6.51416">
        <ele>61</ele>
        <time>2017-10-29T15:29:30Z</time>
      </trkpt>
      <trkpt lat="43.42907" lon="6.51446">
        <ele>60</ele>
        <time>2017-10-29T15:29:34Z</time>
      </trkpt>
      <trkpt lat="43.4291" lon="6.51464">
        <ele>60</ele>
        <time>2017-10-29T15:29:36Z</time>
      </trkpt>
      <trkpt lat="43.42914" lon="6.51481">
        <ele>56</ele>
        <time>2017-10-29T15:29:38Z</time>
      </trkpt>
      <trkpt lat="43.42917" lon="6.51496">
        <ele>47</ele>
        <time>2017-10-29T15:29:40Z</time>
      </trkpt>
      <trkpt lat="43.42915" lon="6.51511">
        <ele>50</ele>
        <time>2017-10-29T15:29:42Z</time>
      </trkpt>
      <trkpt lat="43.42913" lon="6.51527">
        <ele>52</ele>
        <time>2017-10-29T15:29:44Z</time>
      </trkpt>
      <trkpt lat="43.42909" lon="6.51552">
        <ele>50</ele>
        <time>2017-10-29T15:29:47Z</time>
      </trkpt>
      <trkpt lat="43.42897" lon="6.51567">
        <ele>50</ele>
        <time>2017-10-29T15:29:49Z</time>
      </trkpt>
      <trkpt lat="43.42887" lon="6.51581">
        <ele>51</ele>
        <time>2017-10-29T15:29:51Z</time>
      </trkpt>
      <trkpt lat="43.42885" lon="6.51594">
        <ele>46</ele>
        <time>2017-10-29T15:29:53Z</time>
      </trkpt>
      <trkpt lat="43.42872" lon="6.51613">
        <ele>48</ele>
        <time>2017-10-29T15:29:55Z</time>
      </trkpt>
      <trkpt lat="43.42859" lon="6.51638">
        <ele>49</ele>
        <time>2017-10-29T15:30:00Z</time>
      </trkpt>
      <trkpt lat="43.42849" lon="6.51658">
        <ele>51</ele>
        <time>2017-10-29T15:30:02Z</time>
      </trkpt>
      <trkpt lat="43.42846" lon="6.51674">
        <ele>51</ele>
        <time>2017-10-29T15:30:04Z</time>
      </trkpt>
      <trkpt lat="43.42847" lon="6.51696">
        <ele>49</ele>
        <time>2017-10-29T15:30:08Z</time>
      </trkpt>
      <trkpt lat="43.4285" lon="6.51708">
        <ele>49</ele>
        <time>2017-10-29T15:30:10Z</time>
      </trkpt>
      <trkpt lat="43.4286" lon="6.51715">
        <ele>49</ele>
        <time>2017-10-29T15:30:12Z</time>
      </trkpt>
      <trkpt lat="43.42868" lon="6.51725">
        <ele>48</ele>
        <time>2017-10-29T15:30:14Z</time>
      </trkpt>
      <trkpt lat="43.42877" lon="6.51734">
        <ele>46</ele>
        <time>2017-10-29T15:30:16Z</time>
      </trkpt>
      <trkpt lat="43.42882" lon="6.51747">
        <ele>45</ele>
        <time>2017-10-29T15:30:18Z</time>
      </trkpt>
      <trkpt lat="43.42883" lon="6.51766">
        <ele>49</ele>
        <time>2017-10-29T15:30:20Z</time>
      </trkpt>
      <trkpt lat="43.4289" lon="6.51779">
        <ele>48</ele>
        <time>2017-10-29T15:30:22Z</time>
      </trkpt>
      <trkpt lat="43.42891" lon="6.51795">
        <ele>49</ele>
        <time>2017-10-29T15:30:24Z</time>
      </trkpt>
      <trkpt lat="43.4289" lon="6.51809">
        <ele>49</ele>
        <time>2017-10-29T15:30:26Z</time>
      </trkpt>
      <trkpt lat="43.42889" lon="6.51822">
        <ele>49</ele>
        <time>2017-10-29T15:30:28Z</time>
      </trkpt>
      <trkpt lat="43.42888" lon="6.51844">
        <ele>54</ele>
        <time>2017-10-29T15:30:31Z</time>
      </trkpt>
      <trkpt lat="43.42891" lon="6.5186">
        <ele>54</ele>
        <time>2017-10-29T15:30:33Z</time>
      </trkpt>
      <trkpt lat="43.42894" lon="6.51875">
        <ele>54</ele>
        <time>2017-10-29T15:30:35Z</time>
      </trkpt>
      <trkpt lat="43.42896" lon="6.51892">
        <ele>53</ele>
        <time>2017-10-29T15:30:37Z</time>
      </trkpt>
      <trkpt lat="43.42899" lon="6.51906">
        <ele>50</ele>
        <time>2017-10-29T15:30:40Z</time>
      </trkpt>
      <trkpt lat="43.42901" lon="6.51924">
        <ele>52</ele>
        <time>2017-10-29T15:30:42Z</time>
      </trkpt>
      <trkpt lat="43.42909" lon="6.51948">
        <ele>56</ele>
        <time>2017-10-29T15:30:44Z</time>
      </trkpt>
      <trkpt lat="43.42914" lon="6.51964">
        <ele>57</ele>
        <time>2017-10-29T15:30:46Z</time>
      </trkpt>
      <trkpt lat="43.4292" lon="6.51983">
        <ele>38</ele>
        <time>2017-10-29T15:30:48Z</time>
      </trkpt>
      <trkpt lat="43.42927" lon="6.52001">
        <ele>41</ele>
        <time>2017-10-29T15:30:50Z</time>
      </trkpt>
      <trkpt lat="43.42938" lon="6.52043">
        <ele>40</ele>
        <time>2017-10-29T15:30:54Z</time>
      </trkpt>
      <trkpt lat="43.42942" lon="6.52061">
        <ele>42</ele>
        <time>2017-10-29T15:30:56Z</time>
      </trkpt>
      <trkpt lat="43.42945" lon="6.52077">
        <ele>42</ele>
        <time>2017-10-29T15:30:58Z</time>
      </trkpt>
      <trkpt lat="43.42947" lon="6.52095">
        <ele>45</ele>
        <time>2017-10-29T15:31:00Z</time>
      </trkpt>
      <trkpt lat="43.42954" lon="6.52109">
        <ele>44</ele>
        <time>2017-10-29T15:31:02Z</time>
      </trkpt>
      <trkpt lat="43.42958" lon="6.52123">
        <ele>44</ele>
        <time>2017-10-29T15:31:04Z</time>
      </trkpt>
      <trkpt lat="43.42964" lon="6.52146">
        <ele>43</ele>
        <time>2017-10-29T15:31:07Z</time>
      </trkpt>
      <trkpt lat="43.42967" lon="6.52159">
        <ele>42</ele>
        <time>2017-10-29T15:31:09Z</time>
      </trkpt>
      <trkpt lat="43.42969" lon="6.52173">
        <ele>42</ele>
        <time>2017-10-29T15:31:11Z</time>
      </trkpt>
      <trkpt lat="43.4297" lon="6.52188">
        <ele>42</ele>
        <time>2017-10-29T15:31:13Z</time>
      </trkpt>
      <trkpt lat="43.42972" lon="6.52206">
        <ele>42</ele>
        <time>2017-10-29T15:31:15Z</time>
      </trkpt>
      <trkpt lat="43.42975" lon="6.52222">
        <ele>41</ele>
        <time>2017-10-29T15:31:18Z</time>
      </trkpt>
      <trkpt lat="43.42977" lon="6.52243">
        <ele>40</ele>
        <time>2017-10-29T15:31:20Z</time>
      </trkpt>
      <trkpt lat="43.42973" lon="6.52256">
        <ele>38</ele>
        <time>2017-10-29T15:31:22Z</time>
      </trkpt>
      <trkpt lat="43.42964" lon="6.52273">
        <ele>39</ele>
        <time>2017-10-29T15:31:24Z</time>
      </trkpt>
      <trkpt lat="43.42961" lon="6.52294">
        <ele>39</ele>
        <time>2017-10-29T15:31:28Z</time>
      </trkpt>
      <trkpt lat="43.42953" lon="6.52311">
        <ele>39</ele>
        <time>2017-10-29T15:31:30Z</time>
      </trkpt>
      <trkpt lat="43.42938" lon="6.52318">
        <ele>39</ele>
        <time>2017-10-29T15:31:32Z</time>
      </trkpt>
      <trkpt lat="43.42926" lon="6.52321">
        <ele>38</ele>
        <time>2017-10-29T15:31:34Z</time>
      </trkpt>
      <trkpt lat="43.42915" lon="6.52317">
        <ele>42</ele>
        <time>2017-10-29T15:31:36Z</time>
      </trkpt>
      <trkpt lat="43.42902" lon="6.52314">
        <ele>44</ele>
        <time>2017-10-29T15:31:38Z</time>
      </trkpt>
      <trkpt lat="43.42892" lon="6.52315">
        <ele>45</ele>
        <time>2017-10-29T15:31:40Z</time>
      </trkpt>
      <trkpt lat="43.42884" lon="6.52332">
        <ele>44</ele>
        <time>2017-10-29T15:31:42Z</time>
      </trkpt>
      <trkpt lat="43.42871" lon="6.52341">
        <ele>38</ele>
        <time>2017-10-29T15:31:45Z</time>
      </trkpt>
      <trkpt lat="43.42862" lon="6.52348">
        <ele>38</ele>
        <time>2017-10-29T15:31:47Z</time>
      </trkpt>
      <trkpt lat="43.42844" lon="6.5236">
        <ele>38</ele>
        <time>2017-10-29T15:31:51Z</time>
      </trkpt>
      <trkpt lat="43.42834" lon="6.52365">
        <ele>38</ele>
        <time>2017-10-29T15:31:53Z</time>
      </trkpt>
      <trkpt lat="43.42824" lon="6.5237">
        <ele>40</ele>
        <time>2017-10-29T15:31:56Z</time>
      </trkpt>
      <trkpt lat="43.42815" lon="6.52374">
        <ele>40</ele>
        <time>2017-10-29T15:31:58Z</time>
      </trkpt>
      <trkpt lat="43.42803" lon="6.52393">
        <ele>40</ele>
        <time>2017-10-29T15:32:02Z</time>
      </trkpt>
      <trkpt lat="43.42799" lon="6.52406">
        <ele>39</ele>
        <time>2017-10-29T15:32:04Z</time>
      </trkpt>
      <trkpt lat="43.42787" lon="6.52423">
        <ele>38</ele>
        <time>2017-10-29T15:32:08Z</time>
      </trkpt>
      <trkpt lat="43.42778" lon="6.52427">
        <ele>38</ele>
        <time>2017-10-29T15:32:10Z</time>
      </trkpt>
      <trkpt lat="43.42761" lon="6.52427">
        <ele>38</ele>
        <time>2017-10-29T15:32:14Z</time>
      </trkpt>
      <trkpt lat="43.42752" lon="6.5243">
        <ele>38</ele>
        <time>2017-10-29T15:32:16Z</time>
      </trkpt>
      <trkpt lat="43.42744" lon="6.52437">
        <ele>41</ele>
        <time>2017-10-29T15:32:18Z</time>
      </trkpt>
      <trkpt lat="43.42728" lon="6.52433">
        <ele>42</ele>
        <time>2017-10-29T15:32:22Z</time>
      </trkpt>
      <trkpt lat="43.42716" lon="6.52432">
        <ele>43</ele>
        <time>2017-10-29T15:32:25Z</time>
      </trkpt>
      <trkpt lat="43.42702" lon="6.52438">
        <ele>44</ele>
        <time>2017-10-29T15:32:29Z</time>
      </trkpt>
      <trkpt lat="43.42691" lon="6.52449">
        <ele>45</ele>
        <time>2017-10-29T15:32:33Z</time>
      </trkpt>
      <trkpt lat="43.42681" lon="6.52462">
        <ele>44</ele>
        <time>2017-10-29T15:32:38Z</time>
      </trkpt>
      <trkpt lat="43.42679" lon="6.52475">
        <ele>44</ele>
        <time>2017-10-29T15:32:40Z</time>
      </trkpt>
      <trkpt lat="43.42677" lon="6.52492">
        <ele>43</ele>
        <time>2017-10-29T15:32:44Z</time>
      </trkpt>
      <trkpt lat="43.42673" lon="6.52506">
        <ele>43</ele>
        <time>2017-10-29T15:32:48Z</time>
      </trkpt>
      <trkpt lat="43.42668" lon="6.52517">
        <ele>43</ele>
        <time>2017-10-29T15:32:52Z</time>
      </trkpt>
      <trkpt lat="43.42661" lon="6.52527">
        <ele>44</ele>
        <time>2017-10-29T15:32:56Z</time>
      </trkpt>
      <trkpt lat="43.42653" lon="6.52536">
        <ele>44</ele>
        <time>2017-10-29T15:33:00Z</time>
      </trkpt>
      <trkpt lat="43.42644" lon="6.52543">
        <ele>44</ele>
        <time>2017-10-29T15:33:04Z</time>
      </trkpt>
      <trkpt lat="43.42632" lon="6.52549">
        <ele>45</ele>
        <time>2017-10-29T15:33:09Z</time>
      </trkpt>
      <trkpt lat="43.42622" lon="6.52555">
        <ele>45</ele>
        <time>2017-10-29T15:33:13Z</time>
      </trkpt>
      <trkpt lat="43.4261" lon="6.52561">
        <ele>45</ele>
        <time>2017-10-29T15:33:18Z</time>
      </trkpt>
      <trkpt lat="43.42597" lon="6.52561">
        <ele>46</ele>
        <time>2017-10-29T15:33:22Z</time>
      </trkpt>
      <trkpt lat="43.42586" lon="6.52557">
        <ele>46</ele>
        <time>2017-10-29T15:33:24Z</time>
      </trkpt>
      <trkpt lat="43.42571" lon="6.52549">
        <ele>48</ele>
        <time>2017-10-29T15:33:28Z</time>
      </trkpt>
      <trkpt lat="43.42555" lon="6.52541">
        <ele>49</ele>
        <time>2017-10-29T15:33:32Z</time>
      </trkpt>
      <trkpt lat="43.42541" lon="6.52533">
        <ele>49</ele>
        <time>2017-10-29T15:33:36Z</time>
      </trkpt>
      <trkpt lat="43.42527" lon="6.52527">
        <ele>49</ele>
        <time>2017-10-29T15:33:40Z</time>
      </trkpt>
      <trkpt lat="43.42512" lon="6.52529">
        <ele>49</ele>
        <time>2017-10-29T15:33:44Z</time>
      </trkpt>
      <trkpt lat="43.42494" lon="6.52541">
        <ele>48</ele>
        <time>2017-10-29T15:33:49Z</time>
      </trkpt>
      <trkpt lat="43.42484" lon="6.52549">
        <ele>48</ele>
        <time>2017-10-29T15:33:53Z</time>
      </trkpt>
      <trkpt lat="43.42474" lon="6.52555">
        <ele>48</ele>
        <time>2017-10-29T15:33:58Z</time>
      </trkpt>
      <trkpt lat="43.42464" lon="6.52563">
        <ele>48</ele>
        <time>2017-10-29T15:34:02Z</time>
      </trkpt>
      <trkpt lat="43.42454" lon="6.52571">
        <ele>48</ele>
        <time>2017-10-29T15:34:06Z</time>
      </trkpt>
      <trkpt lat="43.42444" lon="6.52579">
        <ele>48</ele>
        <time>2017-10-29T15:34:10Z</time>
      </trkpt>
      <trkpt lat="43.42434" lon="6.52581">
        <ele>48</ele>
        <time>2017-10-29T15:34:14Z</time>
      </trkpt>
      <trkpt lat="43.4242" lon="6.52577">
        <ele>47</ele>
        <time>2017-10-29T15:34:20Z</time>
      </trkpt>
      <trkpt lat="43.4241" lon="6.52576">
        <ele>48</ele>
        <time>2017-10-29T15:34:24Z</time>
      </trkpt>
      <trkpt lat="43.42399" lon="6.52577">
        <ele>49</ele>
        <time>2017-10-29T15:34:27Z</time>
      </trkpt>
      <trkpt lat="43.42385" lon="6.52574">
        <ele>50</ele>
        <time>2017-10-29T15:34:31Z</time>
      </trkpt>
      <trkpt lat="43.42372" lon="6.52569">
        <ele>51</ele>
        <time>2017-10-29T15:34:36Z</time>
      </trkpt>
      <trkpt lat="43.42359" lon="6.52562">
        <ele>51</ele>
        <time>2017-10-29T15:34:40Z</time>
      </trkpt>
      <trkpt lat="43.42347" lon="6.52553">
        <ele>51</ele>
        <time>2017-10-29T15:34:44Z</time>
      </trkpt>
      <trkpt lat="43.42336" lon="6.52546">
        <ele>51</ele>
        <time>2017-10-29T15:34:48Z</time>
      </trkpt>
      <trkpt lat="43.42323" lon="6.5254">
        <ele>55</ele>
        <time>2017-10-29T15:34:52Z</time>
      </trkpt>
      <trkpt lat="43.42311" lon="6.5253">
        <ele>55</ele>
        <time>2017-10-29T15:34:56Z</time>
      </trkpt>
      <trkpt lat="43.42301" lon="6.52518">
        <ele>55</ele>
        <time>2017-10-29T15:35:00Z</time>
      </trkpt>
      <trkpt lat="43.42293" lon="6.52509">
        <ele>55</ele>
        <time>2017-10-29T15:35:03Z</time>
      </trkpt>
      <trkpt lat="43.42283" lon="6.52497">
        <ele>53</ele>
        <time>2017-10-29T15:35:07Z</time>
      </trkpt>
      <trkpt lat="43.42272" lon="6.52484">
        <ele>54</ele>
        <time>2017-10-29T15:35:11Z</time>
      </trkpt>
      <trkpt lat="43.42254" lon="6.52474">
        <ele>54</ele>
        <time>2017-10-29T15:35:16Z</time>
      </trkpt>
      <trkpt lat="43.4224" lon="6.5247">
        <ele>56</ele>
        <time>2017-10-29T15:35:20Z</time>
      </trkpt>
      <trkpt lat="43.42226" lon="6.52463">
        <ele>56</ele>
        <time>2017-10-29T15:35:24Z</time>
      </trkpt>
      <trkpt lat="43.42215" lon="6.52457">
        <ele>56</ele>
        <time>2017-10-29T15:35:28Z</time>
      </trkpt>
      <trkpt lat="43.42205" lon="6.52456">
        <ele>56</ele>
        <time>2017-10-29T15:35:32Z</time>
      </trkpt>
      <trkpt lat="43.42193" lon="6.52462">
        <ele>56</ele>
        <time>2017-10-29T15:35:37Z</time>
      </trkpt>
      <trkpt lat="43.42184" lon="6.52469">
        <ele>57</ele>
        <time>2017-10-29T15:35:41Z</time>
      </trkpt>
      <trkpt lat="43.42174" lon="6.52479">
        <ele>57</ele>
        <time>2017-10-29T15:35:46Z</time>
      </trkpt>
      <trkpt lat="43.42162" lon="6.52485">
        <ele>59</ele>
        <time>2017-10-29T15:35:50Z</time>
      </trkpt>
      <trkpt lat="43.42149" lon="6.52482">
        <ele>60</ele>
        <time>2017-10-29T15:35:54Z</time>
      </trkpt>
      <trkpt lat="43.42139" lon="6.52486">
        <ele>60</ele>
        <time>2017-10-29T15:35:58Z</time>
      </trkpt>
      <trkpt lat="43.42129" lon="6.52491">
        <ele>61</ele>
        <time>2017-10-29T15:36:02Z</time>
      </trkpt>
      <trkpt lat="43.42118" lon="6.525">
        <ele>65</ele>
        <time>2017-10-29T15:36:06Z</time>
      </trkpt>
      <trkpt lat="43.42107" lon="6.52506">
        <ele>65</ele>
        <time>2017-10-29T15:36:10Z</time>
      </trkpt>
      <trkpt lat="43.42098" lon="6.52511">
        <ele>65</ele>
        <time>2017-10-29T15:36:14Z</time>
      </trkpt>
      <trkpt lat="43.42087" lon="6.52514">
        <ele>65</ele>
        <time>2017-10-29T15:36:19Z</time>
      </trkpt>
      <trkpt lat="43.42076" lon="6.52517">
        <ele>66</ele>
        <time>2017-10-29T15:36:23Z</time>
      </trkpt>
      <trkpt lat="43.42067" lon="6.52515">
        <ele>66</ele>
        <time>2017-10-29T15:36:28Z</time>
      </trkpt>
      <trkpt lat="43.42054" lon="6.52517">
        <ele>67</ele>
        <time>2017-10-29T15:36:32Z</time>
      </trkpt>
      <trkpt lat="43.42042" lon="6.5252">
        <ele>67</ele>
        <time>2017-10-29T15:36:36Z</time>
      </trkpt>
      <trkpt lat="43.4203" lon="6.52523">
        <ele>67</ele>
        <time>2017-10-29T15:36:40Z</time>
      </trkpt>
      <trkpt lat="43.42018" lon="6.52527">
        <ele>67</ele>
        <time>2017-10-29T15:36:44Z</time>
      </trkpt>
      <trkpt lat="43.42005" lon="6.52532">
        <ele>67</ele>
        <time>2017-10-29T15:36:48Z</time>
      </trkpt>
      <trkpt lat="43.41994" lon="6.52539">
        <ele>70</ele>
        <time>2017-10-29T15:36:52Z</time>
      </trkpt>
      <trkpt lat="43.41983" lon="6.52552">
        <ele>71</ele>
        <time>2017-10-29T15:36:57Z</time>
      </trkpt>
      <trkpt lat="43.41974" lon="6.52562">
        <ele>71</ele>
        <time>2017-10-29T15:37:01Z</time>
      </trkpt>
      <trkpt lat="43.41966" lon="6.52571">
        <ele>71</ele>
        <time>2017-10-29T15:37:06Z</time>
      </trkpt>
      <trkpt lat="43.41956" lon="6.52581">
        <ele>71</ele>
        <time>2017-10-29T15:37:10Z</time>
      </trkpt>
      <trkpt lat="43.41948" lon="6.52587">
        <ele>76</ele>
        <time>2017-10-29T15:37:14Z</time>
      </trkpt>
      <trkpt lat="43.41938" lon="6.52592">
        <ele>76</ele>
        <time>2017-10-29T15:37:18Z</time>
      </trkpt>
      <trkpt lat="43.4193" lon="6.52598">
        <ele>75</ele>
        <time>2017-10-29T15:37:22Z</time>
      </trkpt>
      <trkpt lat="43.41923" lon="6.52607">
        <ele>76</ele>
        <time>2017-10-29T15:37:26Z</time>
      </trkpt>
      <trkpt lat="43.41915" lon="6.52616">
        <ele>78</ele>
        <time>2017-10-29T15:37:31Z</time>
      </trkpt>
      <trkpt lat="43.41906" lon="6.52627">
        <ele>79</ele>
        <time>2017-10-29T15:37:37Z</time>
      </trkpt>
      <trkpt lat="43.41894" lon="6.52622">
        <ele>79</ele>
        <time>2017-10-29T15:37:44Z</time>
      </trkpt>
      <trkpt lat="43.41882" lon="6.52613">
        <ele>79</ele>
        <time>2017-10-29T15:37:50Z</time>
      </trkpt>
      <trkpt lat="43.41871" lon="6.52611">
        <ele>79</ele>
        <time>2017-10-29T15:37:56Z</time>
      </trkpt>
      <trkpt lat="43.41861" lon="6.52612">
        <ele>80</ele>
        <time>2017-10-29T15:38:02Z</time>
      </trkpt>
      <trkpt lat="43.4185" lon="6.52614">
        <ele>80</ele>
        <time>2017-10-29T15:38:08Z</time>
      </trkpt>
      <trkpt lat="43.4184" lon="6.52617">
        <ele>80</ele>
        <time>2017-10-29T15:38:13Z</time>
      </trkpt>
      <trkpt lat="43.41828" lon="6.52621">
        <ele>87</ele>
        <time>2017-10-29T15:38:20Z</time>
      </trkpt>
      <trkpt lat="43.4182" lon="6.52615">
        <ele>86</ele>
        <time>2017-10-29T15:38:26Z</time>
      </trkpt>
      <trkpt lat="43.41814" lon="6.52606">
        <ele>85</ele>
        <time>2017-10-29T15:38:38Z</time>
      </trkpt>
      <trkpt lat="43.41803" lon="6.52602">
        <ele>86</ele>
        <time>2017-10-29T15:38:49Z</time>
      </trkpt>
      <trkpt lat="43.41794" lon="6.52597">
        <ele>86</ele>
        <time>2017-10-29T15:38:59Z</time>
      </trkpt>
      <trkpt lat="43.41783" lon="6.526">
        <ele>87</ele>
        <time>2017-10-29T15:39:06Z</time>
      </trkpt>
      <trkpt lat="43.41771" lon="6.52604">
        <ele>88</ele>
        <time>2017-10-29T15:39:12Z</time>
      </trkpt>
      <trkpt lat="43.41763" lon="6.52597">
        <ele>87</ele>
        <time>2017-10-29T15:39:18Z</time>
      </trkpt>
      <trkpt lat="43.41753" lon="6.52591">
        <ele>86</ele>
        <time>2017-10-29T15:39:24Z</time>
      </trkpt>
      <trkpt lat="43.41743" lon="6.52584">
        <ele>87</ele>
        <time>2017-10-29T15:39:31Z</time>
      </trkpt>
      <trkpt lat="43.41734" lon="6.52577">
        <ele>84</ele>
        <time>2017-10-29T15:39:37Z</time>
      </trkpt>
      <trkpt lat="43.41725" lon="6.52572">
        <ele>83</ele>
        <time>2017-10-29T15:39:44Z</time>
      </trkpt>
      <trkpt lat="43.41713" lon="6.52568">
        <ele>83</ele>
        <time>2017-10-29T15:39:50Z</time>
      </trkpt>
      <trkpt lat="43.41701" lon="6.52571">
        <ele>83</ele>
        <time>2017-10-29T15:39:56Z</time>
      </trkpt>
      <trkpt lat="43.4169" lon="6.52579">
        <ele>82</ele>
        <time>2017-10-29T15:40:02Z</time>
      </trkpt>
      <trkpt lat="43.4168" lon="6.52585">
        <ele>86</ele>
        <time>2017-10-29T15:40:06Z</time>
      </trkpt>
      <trkpt lat="43.41671" lon="6.52596">
        <ele>87</ele>
        <time>2017-10-29T15:40:11Z</time>
      </trkpt>
      <trkpt lat="43.41664" lon="6.52608">
        <ele>88</ele>
        <time>2017-10-29T15:40:15Z</time>
      </trkpt>
      <trkpt lat="43.41653" lon="6.52621">
        <ele>91</ele>
        <time>2017-10-29T15:40:19Z</time>
      </trkpt>
      <trkpt lat="43.41642" lon="6.52631">
        <ele>92</ele>
        <time>2017-10-29T15:40:24Z</time>
      </trkpt>
      <trkpt lat="43.41635" lon="6.52641">
        <ele>93</ele>
        <time>2017-10-29T15:40:26Z</time>
      </trkpt>
      <trkpt lat="43.41631" lon="6.52656">
        <ele>94</ele>
        <time>2017-10-29T15:40:30Z</time>
      </trkpt>
      <trkpt lat="43.41625" lon="6.52667">
        <ele>94</ele>
        <time>2017-10-29T15:40:34Z</time>
      </trkpt>
      <trkpt lat="43.41611" lon="6.52665">
        <ele>94</ele>
        <time>2017-10-29T15:40:38Z</time>
      </trkpt>
      <trkpt lat="43.41602" lon="6.52661">
        <ele>94</ele>
        <time>2017-10-29T15:40:40Z</time>
      </trkpt>
      <trkpt lat="43.41592" lon="6.52657">
        <ele>95</ele>
        <time>2017-10-29T15:40:42Z</time>
      </trkpt>
      <trkpt lat="43.41581" lon="6.52654">
        <ele>95</ele>
        <time>2017-10-29T15:40:44Z</time>
      </trkpt>
      <trkpt lat="43.41565" lon="6.52643">
        <ele>93</ele>
        <time>2017-10-29T15:40:47Z</time>
      </trkpt>
      <trkpt lat="43.41555" lon="6.52636">
        <ele>92</ele>
        <time>2017-10-29T15:40:49Z</time>
      </trkpt>
      <trkpt lat="43.41545" lon="6.52632">
        <ele>92</ele>
        <time>2017-10-29T15:40:51Z</time>
      </trkpt>
      <trkpt lat="43.41535" lon="6.52627">
        <ele>92</ele>
        <time>2017-10-29T15:40:53Z</time>
      </trkpt>
      <trkpt lat="43.41525" lon="6.52627">
        <ele>92</ele>
        <time>2017-10-29T15:40:55Z</time>
      </trkpt>
      <trkpt lat="43.41515" lon="6.52631">
        <ele>92</ele>
        <time>2017-10-29T15:40:58Z</time>
      </trkpt>
      <trkpt lat="43.41505" lon="6.52633">
        <ele>92</ele>
        <time>2017-10-29T15:41:00Z</time>
      </trkpt>
      <trkpt lat="43.4149" lon="6.52639">
        <ele>92</ele>
        <time>2017-10-29T15:41:02Z</time>
      </trkpt>
      <trkpt lat="43.41474" lon="6.52651">
        <ele>92</ele>
        <time>2017-10-29T15:41:06Z</time>
      </trkpt>
      <trkpt lat="43.41466" lon="6.52661">
        <ele>92</ele>
        <time>2017-10-29T15:41:08Z</time>
      </trkpt>
      <trkpt lat="43.41456" lon="6.52668">
        <ele>96</ele>
        <time>2017-10-29T15:41:10Z</time>
      </trkpt>
      <trkpt lat="43.41447" lon="6.5267">
        <ele>95</ele>
        <time>2017-10-29T15:41:12Z</time>
      </trkpt>
      <trkpt lat="43.41436" lon="6.52674">
        <ele>94</ele>
        <time>2017-10-29T15:41:14Z</time>
      </trkpt>
      <trkpt lat="43.4142" lon="6.52668">
        <ele>90</ele>
        <time>2017-10-29T15:41:18Z</time>
      </trkpt>
      <trkpt lat="43.41409" lon="6.52662">
        <ele>90</ele>
        <time>2017-10-29T15:41:21Z</time>
      </trkpt>
      <trkpt lat="43.41392" lon="6.52651">
        <ele>92</ele>
        <time>2017-10-29T15:41:25Z</time>
      </trkpt>
      <trkpt lat="43.41377" lon="6.52645">
        <ele>92</ele>
        <time>2017-10-29T15:41:29Z</time>
      </trkpt>
      <trkpt lat="43.41363" lon="6.52639">
        <ele>93</ele>
        <time>2017-10-29T15:41:34Z</time>
      </trkpt>
      <trkpt lat="43.41354" lon="6.52633">
        <ele>93</ele>
        <time>2017-10-29T15:41:36Z</time>
      </trkpt>
      <trkpt lat="43.41341" lon="6.52629">
        <ele>93</ele>
        <time>2017-10-29T15:41:40Z</time>
      </trkpt>
      <trkpt lat="43.41328" lon="6.52625">
        <ele>92</ele>
        <time>2017-10-29T15:41:44Z</time>
      </trkpt>
      <trkpt lat="43.41313" lon="6.52623">
        <ele>92</ele>
        <time>2017-10-29T15:41:48Z</time>
      </trkpt>
      <trkpt lat="43.41299" lon="6.52627">
        <ele>92</ele>
        <time>2017-10-29T15:41:52Z</time>
      </trkpt>
      <trkpt lat="43.41285" lon="6.52636">
        <ele>92</ele>
        <time>2017-10-29T15:41:56Z</time>
      </trkpt>
      <trkpt lat="43.41271" lon="6.52634">
        <ele>92</ele>
        <time>2017-10-29T15:41:59Z</time>
      </trkpt>
      <trkpt lat="43.41257" lon="6.52634">
        <ele>91</ele>
        <time>2017-10-29T15:42:03Z</time>
      </trkpt>
      <trkpt lat="43.41242" lon="6.52632">
        <ele>92</ele>
        <time>2017-10-29T15:42:07Z</time>
      </trkpt>
      <trkpt lat="43.41229" lon="6.5263">
        <ele>93</ele>
        <time>2017-10-29T15:42:12Z</time>
      </trkpt>
      <trkpt lat="43.41215" lon="6.52629">
        <ele>93</ele>
        <time>2017-10-29T15:42:16Z</time>
      </trkpt>
      <trkpt lat="43.41202" lon="6.52632">
        <ele>94</ele>
        <time>2017-10-29T15:42:20Z</time>
      </trkpt>
      <trkpt lat="43.41189" lon="6.52635">
        <ele>94</ele>
        <time>2017-10-29T15:42:24Z</time>
      </trkpt>
      <trkpt lat="43.41175" lon="6.52637">
        <ele>94</ele>
        <time>2017-10-29T15:42:28Z</time>
      </trkpt>
      <trkpt lat="43.41159" lon="6.5264">
        <ele>98</ele>
        <time>2017-10-29T15:42:32Z</time>
      </trkpt>
      <trkpt lat="43.4115" lon="6.52643">
        <ele>98</ele>
        <time>2017-10-29T15:42:36Z</time>
      </trkpt>
      <trkpt lat="43.4114" lon="6.52648">
        <ele>98</ele>
        <time>2017-10-29T15:42:40Z</time>
      </trkpt>
      <trkpt lat="43.4113" lon="6.52654">
        <ele>98</ele>
        <time>2017-10-29T15:42:45Z</time>
      </trkpt>
      <trkpt lat="43.41121" lon="6.52658">
        <ele>98</ele>
        <time>2017-10-29T15:42:49Z</time>
      </trkpt>
      <trkpt lat="43.41113" lon="6.52665">
        <ele>98</ele>
        <time>2017-10-29T15:42:54Z</time>
      </trkpt>
      <trkpt lat="43.41098" lon="6.52673">
        <ele>99</ele>
        <time>2017-10-29T15:43:00Z</time>
      </trkpt>
      <trkpt lat="43.4109" lon="6.52679">
        <ele>99</ele>
        <time>2017-10-29T15:43:04Z</time>
      </trkpt>
      <trkpt lat="43.4108" lon="6.52685">
        <ele>101</ele>
        <time>2017-10-29T15:43:08Z</time>
      </trkpt>
      <trkpt lat="43.41067" lon="6.52691">
        <ele>102</ele>
        <time>2017-10-29T15:43:12Z</time>
      </trkpt>
      <trkpt lat="43.41051" lon="6.52691">
        <ele>102</ele>
        <time>2017-10-29T15:43:16Z</time>
      </trkpt>
      <trkpt lat="43.41034" lon="6.52691">
        <ele>103</ele>
        <time>2017-10-29T15:43:20Z</time>
      </trkpt>
      <trkpt lat="43.41024" lon="6.52693">
        <ele>103</ele>
        <time>2017-10-29T15:43:23Z</time>
      </trkpt>
      <trkpt lat="43.41014" lon="6.52699">
        <ele>103</ele>
        <time>2017-10-29T15:43:29Z</time>
      </trkpt>
      <trkpt lat="43.41004" lon="6.52703">
        <ele>104</ele>
        <time>2017-10-29T15:43:36Z</time>
      </trkpt>
      <trkpt lat="43.40993" lon="6.52704">
        <ele>104</ele>
        <time>2017-10-29T15:43:40Z</time>
      </trkpt>
      <trkpt lat="43.40981" lon="6.52697">
        <ele>104</ele>
        <time>2017-10-29T15:43:44Z</time>
      </trkpt>
      <trkpt lat="43.40969" lon="6.52689">
        <ele>104</ele>
        <time>2017-10-29T15:43:48Z</time>
      </trkpt>
      <trkpt lat="43.40958" lon="6.52689">
        <ele>104</ele>
        <time>2017-10-29T15:43:54Z</time>
      </trkpt>
      <trkpt lat="43.40948" lon="6.52692">
        <ele>104</ele>
        <time>2017-10-29T15:43:59Z</time>
      </trkpt>
      <trkpt lat="43.40938" lon="6.52698">
        <ele>104</ele>
        <time>2017-10-29T15:44:03Z</time>
      </trkpt>
      <trkpt lat="43.40925" lon="6.52698">
        <ele>105</ele>
        <time>2017-10-29T15:44:09Z</time>
      </trkpt>
      <trkpt lat="43.40916" lon="6.527">
        <ele>106</ele>
        <time>2017-10-29T15:44:14Z</time>
      </trkpt>
      <trkpt lat="43.40904" lon="6.52705">
        <ele>106</ele>
        <time>2017-10-29T15:44:18Z</time>
      </trkpt>
      <trkpt lat="43.40894" lon="6.52709">
        <ele>106</ele>
        <time>2017-10-29T15:44:22Z</time>
      </trkpt>
      <trkpt lat="43.40883" lon="6.52713">
        <ele>106</ele>
        <time>2017-10-29T15:44:26Z</time>
      </trkpt>
      <trkpt lat="43.40872" lon="6.52717">
        <ele>107</ele>
        <time>2017-10-29T15:44:30Z</time>
      </trkpt>
      <trkpt lat="43.40862" lon="6.5272">
        <ele>107</ele>
        <time>2017-10-29T15:44:34Z</time>
      </trkpt>
      <trkpt lat="43.40852" lon="6.52719">
        <ele>107</ele>
        <time>2017-10-29T15:44:38Z</time>
      </trkpt>
      <trkpt lat="43.40843" lon="6.52715">
        <ele>107</ele>
        <time>2017-10-29T15:44:42Z</time>
      </trkpt>
      <trkpt lat="43.40833" lon="6.52706">
        <ele>109</ele>
        <time>2017-10-29T15:44:47Z</time>
      </trkpt>
      <trkpt lat="43.4082" lon="6.52698">
        <ele>109</ele>
        <time>2017-10-29T15:44:53Z</time>
      </trkpt>
      <trkpt lat="43.4081" lon="6.52695">
        <ele>109</ele>
        <time>2017-10-29T15:44:58Z</time>
      </trkpt>
      <trkpt lat="43.40798" lon="6.52691">
        <ele>109</ele>
        <time>2017-10-29T15:45:02Z</time>
      </trkpt>
      <trkpt lat="43.40785" lon="6.52689">
        <ele>109</ele>
        <time>2017-10-29T15:45:06Z</time>
      </trkpt>
      <trkpt lat="43.40773" lon="6.52689">
        <ele>109</ele>
        <time>2017-10-29T15:45:08Z</time>
      </trkpt>
      <trkpt lat="43.40759" lon="6.52688">
        <ele>109</ele>
        <time>2017-10-29T15:45:12Z</time>
      </trkpt>
      <trkpt lat="43.40748" lon="6.52684">
        <ele>110</ele>
        <time>2017-10-29T15:45:16Z</time>
      </trkpt>
      <trkpt lat="43.40736" lon="6.5268">
        <ele>110</ele>
        <time>2017-10-29T15:45:20Z</time>
      </trkpt>
      <trkpt lat="43.40725" lon="6.52678">
        <ele>110</ele>
        <time>2017-10-29T15:45:24Z</time>
      </trkpt>
      <trkpt lat="43.40715" lon="6.52676">
        <ele>111</ele>
        <time>2017-10-29T15:45:28Z</time>
      </trkpt>
      <trkpt lat="43.407" lon="6.52671">
        <ele>111</ele>
        <time>2017-10-29T15:45:33Z</time>
      </trkpt>
      <trkpt lat="43.40687" lon="6.52668">
        <ele>111</ele>
        <time>2017-10-29T15:45:37Z</time>
      </trkpt>
      <trkpt lat="43.40674" lon="6.52668">
        <ele>110</ele>
        <time>2017-10-29T15:45:41Z</time>
      </trkpt>
      <trkpt lat="43.40663" lon="6.5267">
        <ele>113</ele>
        <time>2017-10-29T15:45:46Z</time>
      </trkpt>
      <trkpt lat="43.40649" lon="6.52672">
        <ele>117</ele>
        <time>2017-10-29T15:45:52Z</time>
      </trkpt>
      <trkpt lat="43.40639" lon="6.52665">
        <ele>115</ele>
        <time>2017-10-29T15:45:58Z</time>
      </trkpt>
      <trkpt lat="43.40631" lon="6.52656">
        <ele>116</ele>
        <time>2017-10-29T15:46:04Z</time>
      </trkpt>
      <trkpt lat="43.40621" lon="6.52648">
        <ele>117</ele>
        <time>2017-10-29T15:46:10Z</time>
      </trkpt>
      <trkpt lat="43.40613" lon="6.52643">
        <ele>117</ele>
        <time>2017-10-29T15:46:14Z</time>
      </trkpt>
      <trkpt lat="43.40602" lon="6.52638">
        <ele>118</ele>
        <time>2017-10-29T15:46:19Z</time>
      </trkpt>
      <trkpt lat="43.40593" lon="6.52634">
        <ele>118</ele>
        <time>2017-10-29T15:46:23Z</time>
      </trkpt>
      <trkpt lat="43.40583" lon="6.52632">
        <ele>122</ele>
        <time>2017-10-29T15:46:28Z</time>
      </trkpt>
      <trkpt lat="43.40573" lon="6.52631">
        <ele>122</ele>
        <time>2017-10-29T15:46:32Z</time>
      </trkpt>
      <trkpt lat="43.4056" lon="6.52628">
        <ele>122</ele>
        <time>2017-10-29T15:46:36Z</time>
      </trkpt>
      <trkpt lat="43.40551" lon="6.52625">
        <ele>123</ele>
        <time>2017-10-29T15:46:40Z</time>
      </trkpt>
      <trkpt lat="43.40542" lon="6.5262">
        <ele>123</ele>
        <time>2017-10-29T15:46:44Z</time>
      </trkpt>
      <trkpt lat="43.40533" lon="6.52614">
        <ele>123</ele>
        <time>2017-10-29T15:46:48Z</time>
      </trkpt>
      <trkpt lat="43.40524" lon="6.5261">
        <ele>123</ele>
        <time>2017-10-29T15:46:52Z</time>
      </trkpt>
      <trkpt lat="43.40515" lon="6.52604">
        <ele>123</ele>
        <time>2017-10-29T15:46:58Z</time>
      </trkpt>
      <trkpt lat="43.40503" lon="6.52599">
        <ele>122</ele>
        <time>2017-10-29T15:47:03Z</time>
      </trkpt>
      <trkpt lat="43.40492" lon="6.52595">
        <ele>125</ele>
        <time>2017-10-29T15:47:07Z</time>
      </trkpt>
      <trkpt lat="43.40482" lon="6.52593">
        <ele>126</ele>
        <time>2017-10-29T15:47:11Z</time>
      </trkpt>
      <trkpt lat="43.40473" lon="6.5259">
        <ele>127</ele>
        <time>2017-10-29T15:47:16Z</time>
      </trkpt>
      <trkpt lat="43.4046" lon="6.52588">
        <ele>127</ele>
        <time>2017-10-29T15:47:20Z</time>
      </trkpt>
      <trkpt lat="43.40449" lon="6.52585">
        <ele>127</ele>
        <time>2017-10-29T15:47:24Z</time>
      </trkpt>
      <trkpt lat="43.4044" lon="6.52583">
        <ele>125</ele>
        <time>2017-10-29T15:47:28Z</time>
      </trkpt>
      <trkpt lat="43.40429" lon="6.52577">
        <ele>125</ele>
        <time>2017-10-29T15:47:34Z</time>
      </trkpt>
      <trkpt lat="43.40419" lon="6.52567">
        <ele>125</ele>
        <time>2017-10-29T15:47:41Z</time>
      </trkpt>
      <trkpt lat="43.40411" lon="6.52558">
        <ele>128</ele>
        <time>2017-10-29T15:47:47Z</time>
      </trkpt>
      <trkpt lat="43.40404" lon="6.52545">
        <ele>129</ele>
        <time>2017-10-29T15:47:54Z</time>
      </trkpt>
      <trkpt lat="43.40399" lon="6.52532">
        <ele>129</ele>
        <time>2017-10-29T15:47:58Z</time>
      </trkpt>
      <trkpt lat="43.40396" lon="6.52519">
        <ele>129</ele>
        <time>2017-10-29T15:48:02Z</time>
      </trkpt>
      <trkpt lat="43.40393" lon="6.52505">
        <ele>129</ele>
        <time>2017-10-29T15:48:06Z</time>
      </trkpt>
      <trkpt lat="43.40386" lon="6.5249">
        <ele>132</ele>
        <time>2017-10-29T15:48:10Z</time>
      </trkpt>
      <trkpt lat="43.40376" lon="6.52482">
        <ele>133</ele>
        <time>2017-10-29T15:48:14Z</time>
      </trkpt>
      <trkpt lat="43.40362" lon="6.52479">
        <ele>133</ele>
        <time>2017-10-29T15:48:19Z</time>
      </trkpt>
      <trkpt lat="43.40351" lon="6.52482">
        <ele>133</ele>
        <time>2017-10-29T15:48:23Z</time>
      </trkpt>
      <trkpt lat="43.40339" lon="6.52488">
        <ele>132</ele>
        <time>2017-10-29T15:48:28Z</time>
      </trkpt>
      <trkpt lat="43.40327" lon="6.52497">
        <ele>132</ele>
        <time>2017-10-29T15:48:32Z</time>
      </trkpt>
      <trkpt lat="43.40316" lon="6.52508">
        <ele>134</ele>
        <time>2017-10-29T15:48:38Z</time>
      </trkpt>
      <trkpt lat="43.40307" lon="6.52518">
        <ele>135</ele>
        <time>2017-10-29T15:48:44Z</time>
      </trkpt>
      <trkpt lat="43.40296" lon="6.52521">
        <ele>136</ele>
        <time>2017-10-29T15:48:50Z</time>
      </trkpt>
      <trkpt lat="43.40281" lon="6.52516">
        <ele>136</ele>
        <time>2017-10-29T15:48:57Z</time>
      </trkpt>
      <trkpt lat="43.4027" lon="6.52508">
        <ele>136</ele>
        <time>2017-10-29T15:49:03Z</time>
      </trkpt>
      <trkpt lat="43.40258" lon="6.52504">
        <ele>134</ele>
        <time>2017-10-29T15:49:10Z</time>
      </trkpt>
      <trkpt lat="43.40249" lon="6.52503">
        <ele>134</ele>
        <time>2017-10-29T15:49:16Z</time>
      </trkpt>
      <trkpt lat="43.40251" lon="6.52503">
        <ele>134</ele>
        <time>2017-10-29T15:49:21Z</time>
      </trkpt>
      <trkpt lat="43.40395" lon="6.52521">
        <ele>129</ele>
        <time>2017-10-29T15:52:02Z</time>
      </trkpt>
      <trkpt lat="43.40405" lon="6.52545">
        <ele>129</ele>
        <time>2017-10-29T15:52:06Z</time>
      </trkpt>
      <trkpt lat="43.40413" lon="6.52556">
        <ele>128</ele>
        <time>2017-10-29T15:52:08Z</time>
      </trkpt>
      <trkpt lat="43.40422" lon="6.52565">
        <ele>125</ele>
        <time>2017-10-29T15:52:10Z</time>
      </trkpt>
      <trkpt lat="43.40435" lon="6.52575">
        <ele>125</ele>
        <time>2017-10-29T15:52:12Z</time>
      </trkpt>
      <trkpt lat="43.40446" lon="6.52581">
        <ele>125</ele>
        <time>2017-10-29T15:52:14Z</time>
      </trkpt>
      <trkpt lat="43.40457" lon="6.52584">
        <ele>127</ele>
        <time>2017-10-29T15:52:16Z</time>
      </trkpt>
      <trkpt lat="43.4047" lon="6.52588">
        <ele>127</ele>
        <time>2017-10-29T15:52:18Z</time>
      </trkpt>
      <trkpt lat="43.40482" lon="6.52592">
        <ele>126</ele>
        <time>2017-10-29T15:52:20Z</time>
      </trkpt>
      <trkpt lat="43.40496" lon="6.52595">
        <ele>124</ele>
        <time>2017-10-29T15:52:22Z</time>
      </trkpt>
      <trkpt lat="43.40516" lon="6.52602">
        <ele>123</ele>
        <time>2017-10-29T15:52:25Z</time>
      </trkpt>
      <trkpt lat="43.40529" lon="6.52608">
        <ele>123</ele>
        <time>2017-10-29T15:52:27Z</time>
      </trkpt>
      <trkpt lat="43.40566" lon="6.52625">
        <ele>122</ele>
        <time>2017-10-29T15:52:33Z</time>
      </trkpt>
      <trkpt lat="43.40578" lon="6.52628">
        <ele>122</ele>
        <time>2017-10-29T15:52:35Z</time>
      </trkpt>
      <trkpt lat="43.40589" lon="6.5263">
        <ele>118</ele>
        <time>2017-10-29T15:52:37Z</time>
      </trkpt>
      <trkpt lat="43.40598" lon="6.52633">
        <ele>118</ele>
        <time>2017-10-29T15:52:39Z</time>
      </trkpt>
      <trkpt lat="43.40608" lon="6.52639">
        <ele>117</ele>
        <time>2017-10-29T15:52:41Z</time>
      </trkpt>
      <trkpt lat="43.40617" lon="6.52645">
        <ele>117</ele>
        <time>2017-10-29T15:52:43Z</time>
      </trkpt>
      <trkpt lat="43.40627" lon="6.52651">
        <ele>116</ele>
        <time>2017-10-29T15:52:46Z</time>
      </trkpt>
      <trkpt lat="43.40635" lon="6.52658">
        <ele>115</ele>
        <time>2017-10-29T15:52:48Z</time>
      </trkpt>
      <trkpt lat="43.40645" lon="6.52665">
        <ele>114</ele>
        <time>2017-10-29T15:52:50Z</time>
      </trkpt>
      <trkpt lat="43.40662" lon="6.52668">
        <ele>112</ele>
        <time>2017-10-29T15:52:52Z</time>
      </trkpt>
      <trkpt lat="43.40674" lon="6.52666">
        <ele>112</ele>
        <time>2017-10-29T15:52:54Z</time>
      </trkpt>
      <trkpt lat="43.40687" lon="6.52667">
        <ele>113</ele>
        <time>2017-10-29T15:52:56Z</time>
      </trkpt>
      <trkpt lat="43.40698" lon="6.52669">
        <ele>111</ele>
        <time>2017-10-29T15:52:58Z</time>
      </trkpt>
      <trkpt lat="43.40709" lon="6.52675">
        <ele>111</ele>
        <time>2017-10-29T15:53:00Z</time>
      </trkpt>
      <trkpt lat="43.40719" lon="6.52678">
        <ele>111</ele>
        <time>2017-10-29T15:53:02Z</time>
      </trkpt>
      <trkpt lat="43.4073" lon="6.52681">
        <ele>110</ele>
        <time>2017-10-29T15:53:04Z</time>
      </trkpt>
      <trkpt lat="43.40742" lon="6.52684">
        <ele>110</ele>
        <time>2017-10-29T15:53:06Z</time>
      </trkpt>
      <trkpt lat="43.40762" lon="6.52687">
        <ele>109</ele>
        <time>2017-10-29T15:53:09Z</time>
      </trkpt>
      <trkpt lat="43.40775" lon="6.52689">
        <ele>109</ele>
        <time>2017-10-29T15:53:11Z</time>
      </trkpt>
      <trkpt lat="43.40788" lon="6.52689">
        <ele>109</ele>
        <time>2017-10-29T15:53:13Z</time>
      </trkpt>
      <trkpt lat="43.40799" lon="6.52692">
        <ele>109</ele>
        <time>2017-10-29T15:53:15Z</time>
      </trkpt>
      <trkpt lat="43.4081" lon="6.52696">
        <ele>109</ele>
        <time>2017-10-29T15:53:17Z</time>
      </trkpt>
      <trkpt lat="43.40821" lon="6.527">
        <ele>109</ele>
        <time>2017-10-29T15:53:19Z</time>
      </trkpt>
      <trkpt lat="43.40832" lon="6.52708">
        <ele>109</ele>
        <time>2017-10-29T15:53:21Z</time>
      </trkpt>
      <trkpt lat="43.40841" lon="6.52713">
        <ele>107</ele>
        <time>2017-10-29T15:53:23Z</time>
      </trkpt>
      <trkpt lat="43.4085" lon="6.52717">
        <ele>107</ele>
        <time>2017-10-29T15:53:26Z</time>
      </trkpt>
      <trkpt lat="43.40864" lon="6.52719">
        <ele>107</ele>
        <time>2017-10-29T15:53:28Z</time>
      </trkpt>
      <trkpt lat="43.40875" lon="6.52717">
        <ele>107</ele>
        <time>2017-10-29T15:53:30Z</time>
      </trkpt>
      <trkpt lat="43.40885" lon="6.52714">
        <ele>106</ele>
        <time>2017-10-29T15:53:32Z</time>
      </trkpt>
      <trkpt lat="43.40895" lon="6.52709">
        <ele>106</ele>
        <time>2017-10-29T15:53:34Z</time>
      </trkpt>
      <trkpt lat="43.40905" lon="6.52704">
        <ele>106</ele>
        <time>2017-10-29T15:53:36Z</time>
      </trkpt>
      <trkpt lat="43.40916" lon="6.527">
        <ele>106</ele>
        <time>2017-10-29T15:53:38Z</time>
      </trkpt>
      <trkpt lat="43.40928" lon="6.52696">
        <ele>105</ele>
        <time>2017-10-29T15:53:40Z</time>
      </trkpt>
      <trkpt lat="43.40938" lon="6.52693">
        <ele>104</ele>
        <time>2017-10-29T15:53:42Z</time>
      </trkpt>
      <trkpt lat="43.40949" lon="6.52691">
        <ele>104</ele>
        <time>2017-10-29T15:53:44Z</time>
      </trkpt>
      <trkpt lat="43.40965" lon="6.52688">
        <ele>104</ele>
        <time>2017-10-29T15:53:47Z</time>
      </trkpt>
      <trkpt lat="43.40974" lon="6.5269">
        <ele>104</ele>
        <time>2017-10-29T15:53:49Z</time>
      </trkpt>
      <trkpt lat="43.40983" lon="6.52695">
        <ele>104</ele>
        <time>2017-10-29T15:53:51Z</time>
      </trkpt>
      <trkpt lat="43.40996" lon="6.527">
        <ele>104</ele>
        <time>2017-10-29T15:53:57Z</time>
      </trkpt>
      <trkpt lat="43.4101" lon="6.52697">
        <ele>103</ele>
        <time>2017-10-29T15:54:01Z</time>
      </trkpt>
      <trkpt lat="43.41027" lon="6.52691">
        <ele>103</ele>
        <time>2017-10-29T15:54:06Z</time>
      </trkpt>
      <trkpt lat="43.41041" lon="6.52688">
        <ele>103</ele>
        <time>2017-10-29T15:54:08Z</time>
      </trkpt>
      <trkpt lat="43.41055" lon="6.52689">
        <ele>102</ele>
        <time>2017-10-29T15:54:12Z</time>
      </trkpt>
      <trkpt lat="43.41069" lon="6.52689">
        <ele>102</ele>
        <time>2017-10-29T15:54:16Z</time>
      </trkpt>
      <trkpt lat="43.41082" lon="6.52682">
        <ele>100</ele>
        <time>2017-10-29T15:54:20Z</time>
      </trkpt>
      <trkpt lat="43.41102" lon="6.52672">
        <ele>99</ele>
        <time>2017-10-29T15:54:25Z</time>
      </trkpt>
      <trkpt lat="43.41111" lon="6.52667">
        <ele>99</ele>
        <time>2017-10-29T15:54:27Z</time>
      </trkpt>
      <trkpt lat="43.4112" lon="6.52661">
        <ele>98</ele>
        <time>2017-10-29T15:54:29Z</time>
      </trkpt>
      <trkpt lat="43.4113" lon="6.52657">
        <ele>98</ele>
        <time>2017-10-29T15:54:31Z</time>
      </trkpt>
      <trkpt lat="43.41139" lon="6.52653">
        <ele>98</ele>
        <time>2017-10-29T15:54:33Z</time>
      </trkpt>
      <trkpt lat="43.41156" lon="6.52644">
        <ele>97</ele>
        <time>2017-10-29T15:54:37Z</time>
      </trkpt>
      <trkpt lat="43.4117" lon="6.5264">
        <ele>94</ele>
        <time>2017-10-29T15:54:41Z</time>
      </trkpt>
      <trkpt lat="43.41184" lon="6.52639">
        <ele>94</ele>
        <time>2017-10-29T15:54:46Z</time>
      </trkpt>
      <trkpt lat="43.41201" lon="6.52637">
        <ele>93</ele>
        <time>2017-10-29T15:54:50Z</time>
      </trkpt>
      <trkpt lat="43.41222" lon="6.52635">
        <ele>93</ele>
        <time>2017-10-29T15:54:54Z</time>
      </trkpt>
      <trkpt lat="43.41231" lon="6.52633">
        <ele>93</ele>
        <time>2017-10-29T15:54:56Z</time>
      </trkpt>
      <trkpt lat="43.41241" lon="6.52634">
        <ele>92</ele>
        <time>2017-10-29T15:54:58Z</time>
      </trkpt>
      <trkpt lat="43.41251" lon="6.52636">
        <ele>91</ele>
        <time>2017-10-29T15:55:00Z</time>
      </trkpt>
      <trkpt lat="43.41263" lon="6.52638">
        <ele>91</ele>
        <time>2017-10-29T15:55:02Z</time>
      </trkpt>
      <trkpt lat="43.41277" lon="6.52639">
        <ele>92</ele>
        <time>2017-10-29T15:55:05Z</time>
      </trkpt>
      <trkpt lat="43.41287" lon="6.52639">
        <ele>92</ele>
        <time>2017-10-29T15:55:07Z</time>
      </trkpt>
      <trkpt lat="43.41296" lon="6.52637">
        <ele>92</ele>
        <time>2017-10-29T15:55:09Z</time>
      </trkpt>
      <trkpt lat="43.4131" lon="6.52626">
        <ele>92</ele>
        <time>2017-10-29T15:55:13Z</time>
      </trkpt>
      <trkpt lat="43.4132" lon="6.52624">
        <ele>92</ele>
        <time>2017-10-29T15:55:15Z</time>
      </trkpt>
      <trkpt lat="43.4133" lon="6.52627">
        <ele>92</ele>
        <time>2017-10-29T15:55:17Z</time>
      </trkpt>
      <trkpt lat="43.4134" lon="6.5263">
        <ele>93</ele>
        <time>2017-10-29T15:55:19Z</time>
      </trkpt>
      <trkpt lat="43.4135" lon="6.52634">
        <ele>93</ele>
        <time>2017-10-29T15:55:22Z</time>
      </trkpt>
      <trkpt lat="43.41361" lon="6.52637">
        <ele>93</ele>
        <time>2017-10-29T15:55:24Z</time>
      </trkpt>
      <trkpt lat="43.41377" lon="6.52644">
        <ele>92</ele>
        <time>2017-10-29T15:55:26Z</time>
      </trkpt>
      <trkpt lat="43.41387" lon="6.52648">
        <ele>92</ele>
        <time>2017-10-29T15:55:28Z</time>
      </trkpt>
      <trkpt lat="43.41398" lon="6.52652">
        <ele>91</ele>
        <time>2017-10-29T15:55:30Z</time>
      </trkpt>
      <trkpt lat="43.41409" lon="6.52656">
        <ele>91</ele>
        <time>2017-10-29T15:55:32Z</time>
      </trkpt>
      <trkpt lat="43.4142" lon="6.52661">
        <ele>90</ele>
        <time>2017-10-29T15:55:34Z</time>
      </trkpt>
      <trkpt lat="43.41431" lon="6.52666">
        <ele>91</ele>
        <time>2017-10-29T15:55:36Z</time>
      </trkpt>
      <trkpt lat="43.41442" lon="6.52667">
        <ele>91</ele>
        <time>2017-10-29T15:55:38Z</time>
      </trkpt>
      <trkpt lat="43.41458" lon="6.52663">
        <ele>92</ele>
        <time>2017-10-29T15:55:41Z</time>
      </trkpt>
      <trkpt lat="43.41466" lon="6.52655">
        <ele>92</ele>
        <time>2017-10-29T15:55:43Z</time>
      </trkpt>
      <trkpt lat="43.41474" lon="6.52647">
        <ele>92</ele>
        <time>2017-10-29T15:55:45Z</time>
      </trkpt>
      <trkpt lat="43.41489" lon="6.52636">
        <ele>92</ele>
        <time>2017-10-29T15:55:49Z</time>
      </trkpt>
      <trkpt lat="43.41506" lon="6.52629">
        <ele>92</ele>
        <time>2017-10-29T15:55:53Z</time>
      </trkpt>
      <trkpt lat="43.41522" lon="6.52624">
        <ele>92</ele>
        <time>2017-10-29T15:55:58Z</time>
      </trkpt>
      <trkpt lat="43.41539" lon="6.52623">
        <ele>91</ele>
        <time>2017-10-29T15:56:02Z</time>
      </trkpt>
      <trkpt lat="43.41549" lon="6.52626">
        <ele>92</ele>
        <time>2017-10-29T15:56:04Z</time>
      </trkpt>
      <trkpt lat="43.4156" lon="6.52634">
        <ele>92</ele>
        <time>2017-10-29T15:56:08Z</time>
      </trkpt>
      <trkpt lat="43.41569" lon="6.52643">
        <ele>93</ele>
        <time>2017-10-29T15:56:12Z</time>
      </trkpt>
      <trkpt lat="43.41578" lon="6.5265">
        <ele>94</ele>
        <time>2017-10-29T15:56:16Z</time>
      </trkpt>
      <trkpt lat="43.41587" lon="6.52655">
        <ele>95</ele>
        <time>2017-10-29T15:56:20Z</time>
      </trkpt>
      <trkpt lat="43.41596" lon="6.52659">
        <ele>95</ele>
        <time>2017-10-29T15:56:24Z</time>
      </trkpt>
      <trkpt lat="43.41607" lon="6.52661">
        <ele>94</ele>
        <time>2017-10-29T15:56:29Z</time>
      </trkpt>
      <trkpt lat="43.41621" lon="6.52661">
        <ele>94</ele>
        <time>2017-10-29T15:56:35Z</time>
      </trkpt>
      <trkpt lat="43.41631" lon="6.5266">
        <ele>94</ele>
        <time>2017-10-29T15:56:39Z</time>
      </trkpt>
      <trkpt lat="43.41637" lon="6.52644">
        <ele>93</ele>
        <time>2017-10-29T15:56:46Z</time>
      </trkpt>
      <trkpt lat="43.41653" lon="6.52621">
        <ele>91</ele>
        <time>2017-10-29T15:56:50Z</time>
      </trkpt>
      <trkpt lat="43.4166" lon="6.52613">
        <ele>89</ele>
        <time>2017-10-29T15:56:52Z</time>
      </trkpt>
      <trkpt lat="43.41666" lon="6.52604">
        <ele>88</ele>
        <time>2017-10-29T15:56:54Z</time>
      </trkpt>
      <trkpt lat="43.4168" lon="6.52587">
        <ele>86</ele>
        <time>2017-10-29T15:56:58Z</time>
      </trkpt>
      <trkpt lat="43.41688" lon="6.5258">
        <ele>82</ele>
        <time>2017-10-29T15:57:00Z</time>
      </trkpt>
      <trkpt lat="43.41696" lon="6.52575">
        <ele>82</ele>
        <time>2017-10-29T15:57:02Z</time>
      </trkpt>
      <trkpt lat="43.41713" lon="6.52569">
        <ele>83</ele>
        <time>2017-10-29T15:57:05Z</time>
      </trkpt>
      <trkpt lat="43.41725" lon="6.52572">
        <ele>83</ele>
        <time>2017-10-29T15:57:07Z</time>
      </trkpt>
      <trkpt lat="43.41736" lon="6.52578">
        <ele>84</ele>
        <time>2017-10-29T15:57:09Z</time>
      </trkpt>
      <trkpt lat="43.41745" lon="6.52584">
        <ele>86</ele>
        <time>2017-10-29T15:57:11Z</time>
      </trkpt>
      <trkpt lat="43.41754" lon="6.5259">
        <ele>86</ele>
        <time>2017-10-29T15:57:13Z</time>
      </trkpt>
      <trkpt lat="43.41763" lon="6.52595">
        <ele>87</ele>
        <time>2017-10-29T15:57:15Z</time>
      </trkpt>
      <trkpt lat="43.41773" lon="6.52599">
        <ele>88</ele>
        <time>2017-10-29T15:57:17Z</time>
      </trkpt>
      <trkpt lat="43.41784" lon="6.52601">
        <ele>87</ele>
        <time>2017-10-29T15:57:19Z</time>
      </trkpt>
      <trkpt lat="43.41794" lon="6.52599">
        <ele>87</ele>
        <time>2017-10-29T15:57:21Z</time>
      </trkpt>
      <trkpt lat="43.41805" lon="6.52599">
        <ele>86</ele>
        <time>2017-10-29T15:57:24Z</time>
      </trkpt>
      <trkpt lat="43.41816" lon="6.52605">
        <ele>85</ele>
        <time>2017-10-29T15:57:26Z</time>
      </trkpt>
      <trkpt lat="43.41826" lon="6.52613">
        <ele>85</ele>
        <time>2017-10-29T15:57:28Z</time>
      </trkpt>
      <trkpt lat="43.41839" lon="6.52616">
        <ele>80</ele>
        <time>2017-10-29T15:57:30Z</time>
      </trkpt>
      <trkpt lat="43.41857" lon="6.52612">
        <ele>80</ele>
        <time>2017-10-29T15:57:34Z</time>
      </trkpt>
      <trkpt lat="43.41868" lon="6.52611">
        <ele>79</ele>
        <time>2017-10-29T15:57:36Z</time>
      </trkpt>
      <trkpt lat="43.41879" lon="6.52611">
        <ele>79</ele>
        <time>2017-10-29T15:57:38Z</time>
      </trkpt>
      <trkpt lat="43.41888" lon="6.52615">
        <ele>79</ele>
        <time>2017-10-29T15:57:40Z</time>
      </trkpt>
      <trkpt lat="43.41898" lon="6.52621">
        <ele>79</ele>
        <time>2017-10-29T15:57:42Z</time>
      </trkpt>
      <trkpt lat="43.41912" lon="6.52617">
        <ele>78</ele>
        <time>2017-10-29T15:57:46Z</time>
      </trkpt>
      <trkpt lat="43.41923" lon="6.52602">
        <ele>75</ele>
        <time>2017-10-29T15:57:49Z</time>
      </trkpt>
      <trkpt lat="43.41932" lon="6.52594">
        <ele>75</ele>
        <time>2017-10-29T15:57:51Z</time>
      </trkpt>
      <trkpt lat="43.41943" lon="6.52587">
        <ele>76</ele>
        <time>2017-10-29T15:57:53Z</time>
      </trkpt>
      <trkpt lat="43.41953" lon="6.52578">
        <ele>71</ele>
        <time>2017-10-29T15:57:55Z</time>
      </trkpt>
      <trkpt lat="43.41963" lon="6.52568">
        <ele>71</ele>
        <time>2017-10-29T15:57:57Z</time>
      </trkpt>
      <trkpt lat="43.41972" lon="6.52559">
        <ele>71</ele>
        <time>2017-10-29T15:57:59Z</time>
      </trkpt>
      <trkpt lat="43.41981" lon="6.52548">
        <ele>71</ele>
        <time>2017-10-29T15:58:01Z</time>
      </trkpt>
      <trkpt lat="43.41992" lon="6.52541">
        <ele>70</ele>
        <time>2017-10-29T15:58:03Z</time>
      </trkpt>
      <trkpt lat="43.42002" lon="6.52533">
        <ele>67</ele>
        <time>2017-10-29T15:58:06Z</time>
      </trkpt>
      <trkpt lat="43.42012" lon="6.52527">
        <ele>67</ele>
        <time>2017-10-29T15:58:08Z</time>
      </trkpt>
      <trkpt lat="43.42031" lon="6.52519">
        <ele>67</ele>
        <time>2017-10-29T15:58:10Z</time>
      </trkpt>
      <trkpt lat="43.42043" lon="6.52514">
        <ele>67</ele>
        <time>2017-10-29T15:58:12Z</time>
      </trkpt>
      <trkpt lat="43.42068" lon="6.52511">
        <ele>66</ele>
        <time>2017-10-29T15:58:16Z</time>
      </trkpt>
      <trkpt lat="43.4208" lon="6.52507">
        <ele>64</ele>
        <time>2017-10-29T15:58:18Z</time>
      </trkpt>
      <trkpt lat="43.42092" lon="6.52503">
        <ele>64</ele>
        <time>2017-10-29T15:58:20Z</time>
      </trkpt>
      <trkpt lat="43.42105" lon="6.52499">
        <ele>62</ele>
        <time>2017-10-29T15:58:22Z</time>
      </trkpt>
      <trkpt lat="43.42117" lon="6.52495">
        <ele>61</ele>
        <time>2017-10-29T15:58:24Z</time>
      </trkpt>
      <trkpt lat="43.4213" lon="6.5249">
        <ele>61</ele>
        <time>2017-10-29T15:58:26Z</time>
      </trkpt>
      <trkpt lat="43.42144" lon="6.52485">
        <ele>60</ele>
        <time>2017-10-29T15:58:28Z</time>
      </trkpt>
      <trkpt lat="43.42159" lon="6.5248">
        <ele>59</ele>
        <time>2017-10-29T15:58:30Z</time>
      </trkpt>
      <trkpt lat="43.42177" lon="6.5247">
        <ele>57</ele>
        <time>2017-10-29T15:58:33Z</time>
      </trkpt>
      <trkpt lat="43.42188" lon="6.52462">
        <ele>57</ele>
        <time>2017-10-29T15:58:35Z</time>
      </trkpt>
      <trkpt lat="43.42199" lon="6.52456">
        <ele>56</ele>
        <time>2017-10-29T15:58:37Z</time>
      </trkpt>
      <trkpt lat="43.42211" lon="6.52453">
        <ele>56</ele>
        <time>2017-10-29T15:58:39Z</time>
      </trkpt>
      <trkpt lat="43.42223" lon="6.52456">
        <ele>56</ele>
        <time>2017-10-29T15:58:41Z</time>
      </trkpt>
      <trkpt lat="43.42235" lon="6.52468">
        <ele>56</ele>
        <time>2017-10-29T15:58:45Z</time>
      </trkpt>
      <trkpt lat="43.42248" lon="6.52474">
        <ele>55</ele>
        <time>2017-10-29T15:58:50Z</time>
      </trkpt>
      <trkpt lat="43.42256" lon="6.52479">
        <ele>54</ele>
        <time>2017-10-29T15:58:52Z</time>
      </trkpt>
      <trkpt lat="43.42268" lon="6.52487">
        <ele>54</ele>
        <time>2017-10-29T15:58:54Z</time>
      </trkpt>
      <trkpt lat="43.42276" lon="6.52493">
        <ele>53</ele>
        <time>2017-10-29T15:58:56Z</time>
      </trkpt>
      <trkpt lat="43.42283" lon="6.52501">
        <ele>55</ele>
        <time>2017-10-29T15:58:58Z</time>
      </trkpt>
      <trkpt lat="43.42289" lon="6.5251">
        <ele>55</ele>
        <time>2017-10-29T15:59:00Z</time>
      </trkpt>
      <trkpt lat="43.42297" lon="6.52518">
        <ele>55</ele>
        <time>2017-10-29T15:59:02Z</time>
      </trkpt>
      <trkpt lat="43.42306" lon="6.52526">
        <ele>55</ele>
        <time>2017-10-29T15:59:04Z</time>
      </trkpt>
      <trkpt lat="43.42314" lon="6.52534">
        <ele>55</ele>
        <time>2017-10-29T15:59:06Z</time>
      </trkpt>
      <trkpt lat="43.42322" lon="6.52544">
        <ele>55</ele>
        <time>2017-10-29T15:59:08Z</time>
      </trkpt>
      <trkpt lat="43.42331" lon="6.52547">
        <ele>55</ele>
        <time>2017-10-29T15:59:10Z</time>
      </trkpt>
      <trkpt lat="43.42341" lon="6.52554">
        <ele>52</ele>
        <time>2017-10-29T15:59:12Z</time>
      </trkpt>
      <trkpt lat="43.42364" lon="6.52564">
        <ele>51</ele>
        <time>2017-10-29T15:59:17Z</time>
      </trkpt>
      <trkpt lat="43.42379" lon="6.52569">
        <ele>50</ele>
        <time>2017-10-29T15:59:21Z</time>
      </trkpt>
      <trkpt lat="43.42388" lon="6.52572">
        <ele>50</ele>
        <time>2017-10-29T15:59:23Z</time>
      </trkpt>
      <trkpt lat="43.42405" lon="6.52573">
        <ele>49</ele>
        <time>2017-10-29T15:59:27Z</time>
      </trkpt>
      <trkpt lat="43.42421" lon="6.52573">
        <ele>48</ele>
        <time>2017-10-29T15:59:31Z</time>
      </trkpt>
      <trkpt lat="43.4244" lon="6.52574">
        <ele>48</ele>
        <time>2017-10-29T15:59:36Z</time>
      </trkpt>
      <trkpt lat="43.42453" lon="6.52569">
        <ele>48</ele>
        <time>2017-10-29T15:59:38Z</time>
      </trkpt>
      <trkpt lat="43.42463" lon="6.52563">
        <ele>48</ele>
        <time>2017-10-29T15:59:40Z</time>
      </trkpt>
      <trkpt lat="43.42472" lon="6.52557">
        <ele>48</ele>
        <time>2017-10-29T15:59:42Z</time>
      </trkpt>
      <trkpt lat="43.42483" lon="6.52556">
        <ele>48</ele>
        <time>2017-10-29T15:59:44Z</time>
      </trkpt>
      <trkpt lat="43.42493" lon="6.52552">
        <ele>48</ele>
        <time>2017-10-29T15:59:46Z</time>
      </trkpt>
      <trkpt lat="43.42502" lon="6.52549">
        <ele>48</ele>
        <time>2017-10-29T15:59:48Z</time>
      </trkpt>
      <trkpt lat="43.42512" lon="6.52545">
        <ele>48</ele>
        <time>2017-10-29T15:59:50Z</time>
      </trkpt>
      <trkpt lat="43.42524" lon="6.52536">
        <ele>49</ele>
        <time>2017-10-29T15:59:53Z</time>
      </trkpt>
      <trkpt lat="43.42542" lon="6.52537">
        <ele>49</ele>
        <time>2017-10-29T15:59:57Z</time>
      </trkpt>
      <trkpt lat="43.42551" lon="6.52541">
        <ele>49</ele>
        <time>2017-10-29T15:59:59Z</time>
      </trkpt>
      <trkpt lat="43.42559" lon="6.52548">
        <ele>48</ele>
        <time>2017-10-29T16:00:01Z</time>
      </trkpt>
      <trkpt lat="43.4257" lon="6.52553">
        <ele>48</ele>
        <time>2017-10-29T16:00:03Z</time>
      </trkpt>
      <trkpt lat="43.42578" lon="6.52558">
        <ele>48</ele>
        <time>2017-10-29T16:00:05Z</time>
      </trkpt>
      <trkpt lat="43.42588" lon="6.52564">
        <ele>46</ele>
        <time>2017-10-29T16:00:07Z</time>
      </trkpt>
      <trkpt lat="43.42602" lon="6.52566">
        <ele>45</ele>
        <time>2017-10-29T16:00:11Z</time>
      </trkpt>
      <trkpt lat="43.42624" lon="6.5256">
        <ele>45</ele>
        <time>2017-10-29T16:00:16Z</time>
      </trkpt>
      <trkpt lat="43.42632" lon="6.52555">
        <ele>45</ele>
        <time>2017-10-29T16:00:18Z</time>
      </trkpt>
      <trkpt lat="43.42641" lon="6.52547">
        <ele>44</ele>
        <time>2017-10-29T16:00:20Z</time>
      </trkpt>
      <trkpt lat="43.42649" lon="6.52539">
        <ele>44</ele>
        <time>2017-10-29T16:00:22Z</time>
      </trkpt>
      <trkpt lat="43.42656" lon="6.52532">
        <ele>44</ele>
        <time>2017-10-29T16:00:24Z</time>
      </trkpt>
      <trkpt lat="43.42664" lon="6.52523">
        <ele>44</ele>
        <time>2017-10-29T16:00:26Z</time>
      </trkpt>
      <trkpt lat="43.4267" lon="6.52512">
        <ele>43</ele>
        <time>2017-10-29T16:00:28Z</time>
      </trkpt>
      <trkpt lat="43.42675" lon="6.52498">
        <ele>43</ele>
        <time>2017-10-29T16:00:30Z</time>
      </trkpt>
      <trkpt lat="43.42678" lon="6.52483">
        <ele>43</ele>
        <time>2017-10-29T16:00:32Z</time>
      </trkpt>
      <trkpt lat="43.42681" lon="6.52468">
        <ele>44</ele>
        <time>2017-10-29T16:00:34Z</time>
      </trkpt>
      <trkpt lat="43.4269" lon="6.52451">
        <ele>45</ele>
        <time>2017-10-29T16:00:37Z</time>
      </trkpt>
      <trkpt lat="43.42698" lon="6.52443">
        <ele>45</ele>
        <time>2017-10-29T16:00:39Z</time>
      </trkpt>
      <trkpt lat="43.42706" lon="6.52435">
        <ele>44</ele>
        <time>2017-10-29T16:00:41Z</time>
      </trkpt>
      <trkpt lat="43.42716" lon="6.52432">
        <ele>43</ele>
        <time>2017-10-29T16:00:43Z</time>
      </trkpt>
      <trkpt lat="43.42726" lon="6.52433">
        <ele>42</ele>
        <time>2017-10-29T16:00:45Z</time>
      </trkpt>
      <trkpt lat="43.42736" lon="6.52436">
        <ele>41</ele>
        <time>2017-10-29T16:00:47Z</time>
      </trkpt>
      <trkpt lat="43.42747" lon="6.52437">
        <ele>41</ele>
        <time>2017-10-29T16:00:49Z</time>
      </trkpt>
      <trkpt lat="43.42757" lon="6.52433">
        <ele>38</ele>
        <time>2017-10-29T16:00:51Z</time>
      </trkpt>
      <trkpt lat="43.42766" lon="6.52429">
        <ele>38</ele>
        <time>2017-10-29T16:00:54Z</time>
      </trkpt>
      <trkpt lat="43.42783" lon="6.52424">
        <ele>38</ele>
        <time>2017-10-29T16:00:58Z</time>
      </trkpt>
      <trkpt lat="43.42792" lon="6.52417">
        <ele>38</ele>
        <time>2017-10-29T16:01:00Z</time>
      </trkpt>
      <trkpt lat="43.428" lon="6.52401">
        <ele>40</ele>
        <time>2017-10-29T16:01:02Z</time>
      </trkpt>
      <trkpt lat="43.42804" lon="6.52389">
        <ele>40</ele>
        <time>2017-10-29T16:01:04Z</time>
      </trkpt>
      <trkpt lat="43.42816" lon="6.52371">
        <ele>41</ele>
        <time>2017-10-29T16:01:08Z</time>
      </trkpt>
      <trkpt lat="43.42831" lon="6.52363">
        <ele>40</ele>
        <time>2017-10-29T16:01:12Z</time>
      </trkpt>
      <trkpt lat="43.42848" lon="6.52355">
        <ele>38</ele>
        <time>2017-10-29T16:01:16Z</time>
      </trkpt>
      <trkpt lat="43.42861" lon="6.52347">
        <ele>38</ele>
        <time>2017-10-29T16:01:20Z</time>
      </trkpt>
      <trkpt lat="43.42872" lon="6.52342">
        <ele>38</ele>
        <time>2017-10-29T16:01:23Z</time>
      </trkpt>
      <trkpt lat="43.42885" lon="6.52334">
        <ele>38</ele>
        <time>2017-10-29T16:01:27Z</time>
      </trkpt>
      <trkpt lat="43.42896" lon="6.52321">
        <ele>44</ele>
        <time>2017-10-29T16:01:31Z</time>
      </trkpt>
      <trkpt lat="43.42911" lon="6.52319">
        <ele>42</ele>
        <time>2017-10-29T16:01:35Z</time>
      </trkpt>
      <trkpt lat="43.42927" lon="6.52326">
        <ele>38</ele>
        <time>2017-10-29T16:01:40Z</time>
      </trkpt>
      <trkpt lat="43.42946" lon="6.5232">
        <ele>39</ele>
        <time>2017-10-29T16:01:44Z</time>
      </trkpt>
      <trkpt lat="43.42957" lon="6.52301">
        <ele>39</ele>
        <time>2017-10-29T16:01:48Z</time>
      </trkpt>
      <trkpt lat="43.42967" lon="6.52279">
        <ele>39</ele>
        <time>2017-10-29T16:01:52Z</time>
      </trkpt>
      <trkpt lat="43.42973" lon="6.52268">
        <ele>38</ele>
        <time>2017-10-29T16:01:54Z</time>
      </trkpt>
      <trkpt lat="43.42978" lon="6.52256">
        <ele>37</ele>
        <time>2017-10-29T16:01:56Z</time>
      </trkpt>
      <trkpt lat="43.42978" lon="6.52215">
        <ele>41</ele>
        <time>2017-10-29T16:02:03Z</time>
      </trkpt>
      <trkpt lat="43.42975" lon="6.52202">
        <ele>41</ele>
        <time>2017-10-29T16:02:05Z</time>
      </trkpt>
      <trkpt lat="43.4297" lon="6.52191">
        <ele>42</ele>
        <time>2017-10-29T16:02:07Z</time>
      </trkpt>
      <trkpt lat="43.42965" lon="6.52167">
        <ele>43</ele>
        <time>2017-10-29T16:02:11Z</time>
      </trkpt>
      <trkpt lat="43.4296" lon="6.52156">
        <ele>44</ele>
        <time>2017-10-29T16:02:13Z</time>
      </trkpt>
      <trkpt lat="43.42956" lon="6.52133">
        <ele>44</ele>
        <time>2017-10-29T16:02:17Z</time>
      </trkpt>
      <trkpt lat="43.42954" lon="6.5212">
        <ele>44</ele>
        <time>2017-10-29T16:02:19Z</time>
      </trkpt>
      <trkpt lat="43.42944" lon="6.52098">
        <ele>46</ele>
        <time>2017-10-29T16:02:23Z</time>
      </trkpt>
      <trkpt lat="43.42942" lon="6.52083">
        <ele>43</ele>
        <time>2017-10-29T16:02:26Z</time>
      </trkpt>
      <trkpt lat="43.42938" lon="6.52072">
        <ele>44</ele>
        <time>2017-10-29T16:02:28Z</time>
      </trkpt>
      <trkpt lat="43.42935" lon="6.52055">
        <ele>42</ele>
        <time>2017-10-29T16:02:30Z</time>
      </trkpt>
      <trkpt lat="43.4293" lon="6.52031">
        <ele>40</ele>
        <time>2017-10-29T16:02:34Z</time>
      </trkpt>
      <trkpt lat="43.42928" lon="6.52018">
        <ele>40</ele>
        <time>2017-10-29T16:02:36Z</time>
      </trkpt>
      <trkpt lat="43.42923" lon="6.52001">
        <ele>41</ele>
        <time>2017-10-29T16:02:40Z</time>
      </trkpt>
      <trkpt lat="43.42917" lon="6.51987">
        <ele>51</ele>
        <time>2017-10-29T16:02:44Z</time>
      </trkpt>
      <trkpt lat="43.4291" lon="6.51968">
        <ele>57</ele>
        <time>2017-10-29T16:02:49Z</time>
      </trkpt>
      <trkpt lat="43.42905" lon="6.51952">
        <ele>58</ele>
        <time>2017-10-29T16:02:53Z</time>
      </trkpt>
      <trkpt lat="43.42901" lon="6.51935">
        <ele>55</ele>
        <time>2017-10-29T16:02:57Z</time>
      </trkpt>
      <trkpt lat="43.42899" lon="6.51919">
        <ele>53</ele>
        <time>2017-10-29T16:03:01Z</time>
      </trkpt>
      <trkpt lat="43.42896" lon="6.51904">
        <ele>52</ele>
        <time>2017-10-29T16:03:06Z</time>
      </trkpt>
      <trkpt lat="43.42893" lon="6.5189">
        <ele>55</ele>
        <time>2017-10-29T16:03:10Z</time>
      </trkpt>
      <trkpt lat="43.42891" lon="6.51876">
        <ele>55</ele>
        <time>2017-10-29T16:03:14Z</time>
      </trkpt>
      <trkpt lat="43.42889" lon="6.51862">
        <ele>55</ele>
        <time>2017-10-29T16:03:18Z</time>
      </trkpt>
      <trkpt lat="43.42889" lon="6.51846">
        <ele>53</ele>
        <time>2017-10-29T16:03:22Z</time>
      </trkpt>
      <trkpt lat="43.42888" lon="6.51833">
        <ele>49</ele>
        <time>2017-10-29T16:03:25Z</time>
      </trkpt>
      <trkpt lat="43.42889" lon="6.51814">
        <ele>49</ele>
        <time>2017-10-29T16:03:29Z</time>
      </trkpt>
      <trkpt lat="43.42888" lon="6.51791">
        <ele>49</ele>
        <time>2017-10-29T16:03:33Z</time>
      </trkpt>
      <trkpt lat="43.42887" lon="6.51777">
        <ele>49</ele>
        <time>2017-10-29T16:03:35Z</time>
      </trkpt>
      <trkpt lat="43.42884" lon="6.51764">
        <ele>49</ele>
        <time>2017-10-29T16:03:37Z</time>
      </trkpt>
      <trkpt lat="43.42881" lon="6.51742">
        <ele>45</ele>
        <time>2017-10-29T16:03:41Z</time>
      </trkpt>
      <trkpt lat="43.42873" lon="6.51719">
        <ele>47</ele>
        <time>2017-10-29T16:03:46Z</time>
      </trkpt>
      <trkpt lat="43.42864" lon="6.51702">
        <ele>47</ele>
        <time>2017-10-29T16:03:50Z</time>
      </trkpt>
      <trkpt lat="43.42855" lon="6.51687">
        <ele>49</ele>
        <time>2017-10-29T16:03:54Z</time>
      </trkpt>
      <trkpt lat="43.4285" lon="6.5167">
        <ele>50</ele>
        <time>2017-10-29T16:03:58Z</time>
      </trkpt>
      <trkpt lat="43.42851" lon="6.5165">
        <ele>50</ele>
        <time>2017-10-29T16:04:02Z</time>
      </trkpt>
      <trkpt lat="43.42854" lon="6.51636">
        <ele>49</ele>
        <time>2017-10-29T16:04:05Z</time>
      </trkpt>
      <trkpt lat="43.42861" lon="6.5162">
        <ele>49</ele>
        <time>2017-10-29T16:04:09Z</time>
      </trkpt>
      <trkpt lat="43.42873" lon="6.5161">
        <ele>48</ele>
        <time>2017-10-29T16:04:13Z</time>
      </trkpt>
      <trkpt lat="43.42883" lon="6.51596">
        <ele>47</ele>
        <time>2017-10-29T16:04:17Z</time>
      </trkpt>
      <trkpt lat="43.42891" lon="6.5158">
        <ele>50</ele>
        <time>2017-10-29T16:04:21Z</time>
      </trkpt>
      <trkpt lat="43.42896" lon="6.51565">
        <ele>50</ele>
        <time>2017-10-29T16:04:26Z</time>
      </trkpt>
      <trkpt lat="43.42905" lon="6.51549">
        <ele>51</ele>
        <time>2017-10-29T16:04:30Z</time>
      </trkpt>
      <trkpt lat="43.42913" lon="6.51535">
        <ele>51</ele>
        <time>2017-10-29T16:04:34Z</time>
      </trkpt>
      <trkpt lat="43.42917" lon="6.51517">
        <ele>43</ele>
        <time>2017-10-29T16:04:38Z</time>
      </trkpt>
      <trkpt lat="43.42918" lon="6.51498">
        <ele>47</ele>
        <time>2017-10-29T16:04:42Z</time>
      </trkpt>
      <trkpt lat="43.42918" lon="6.51486">
        <ele>46</ele>
        <time>2017-10-29T16:04:45Z</time>
      </trkpt>
      <trkpt lat="43.42915" lon="6.5147">
        <ele>58</ele>
        <time>2017-10-29T16:04:49Z</time>
      </trkpt>
      <trkpt lat="43.42911" lon="6.51455">
        <ele>60</ele>
        <time>2017-10-29T16:04:53Z</time>
      </trkpt>
      <trkpt lat="43.42906" lon="6.51441">
        <ele>60</ele>
        <time>2017-10-29T16:04:57Z</time>
      </trkpt>
      <trkpt lat="43.42902" lon="6.51425">
        <ele>59</ele>
        <time>2017-10-29T16:05:01Z</time>
      </trkpt>
      <trkpt lat="43.42909" lon="6.51403">
        <ele>63</ele>
        <time>2017-10-29T16:05:06Z</time>
      </trkpt>
      <trkpt lat="43.42921" lon="6.51389">
        <ele>51</ele>
        <time>2017-10-29T16:05:10Z</time>
      </trkpt>
      <trkpt lat="43.42927" lon="6.51369">
        <ele>52</ele>
        <time>2017-10-29T16:05:14Z</time>
      </trkpt>
      <trkpt lat="43.42934" lon="6.51351">
        <ele>53</ele>
        <time>2017-10-29T16:05:18Z</time>
      </trkpt>
      <trkpt lat="43.42942" lon="6.51334">
        <ele>53</ele>
        <time>2017-10-29T16:05:22Z</time>
      </trkpt>
      <trkpt lat="43.42948" lon="6.51311">
        <ele>56</ele>
        <time>2017-10-29T16:05:27Z</time>
      </trkpt>
      <trkpt lat="43.42954" lon="6.51292">
        <ele>56</ele>
        <time>2017-10-29T16:05:31Z</time>
      </trkpt>
      <trkpt lat="43.4296" lon="6.51274">
        <ele>55</ele>
        <time>2017-10-29T16:05:35Z</time>
      </trkpt>
      <trkpt lat="43.42962" lon="6.51253">
        <ele>56</ele>
        <time>2017-10-29T16:05:39Z</time>
      </trkpt>
      <trkpt lat="43.42966" lon="6.51232">
        <ele>61</ele>
        <time>2017-10-29T16:05:43Z</time>
      </trkpt>
      <trkpt lat="43.42975" lon="6.51214">
        <ele>60</ele>
        <time>2017-10-29T16:05:48Z</time>
      </trkpt>
      <trkpt lat="43.42984" lon="6.51201">
        <ele>60</ele>
        <time>2017-10-29T16:05:50Z</time>
      </trkpt>
      <trkpt lat="43.42989" lon="6.51191">
        <ele>59</ele>
        <time>2017-10-29T16:05:52Z</time>
      </trkpt>
      <trkpt lat="43.42995" lon="6.51171">
        <ele>54</ele>
        <time>2017-10-29T16:05:56Z</time>
      </trkpt>
      <trkpt lat="43.42996" lon="6.51169">
        <ele>53</ele>
        <time>2017-10-29T16:05:59Z</time>
      </trkpt>
      <trkpt lat="43.42993" lon="6.51156">
        <ele>60</ele>
        <time>2017-10-29T16:08:07Z</time>
      </trkpt>
      <trkpt lat="43.42996" lon="6.51139">
        <ele>65</ele>
        <time>2017-10-29T16:08:10Z</time>
      </trkpt>
      <trkpt lat="43.43001" lon="6.51127">
        <ele>55</ele>
        <time>2017-10-29T16:08:12Z</time>
      </trkpt>
      <trkpt lat="43.43005" lon="6.51114">
        <ele>56</ele>
        <time>2017-10-29T16:08:14Z</time>
      </trkpt>
      <trkpt lat="43.43017" lon="6.511">
        <ele>57</ele>
        <time>2017-10-29T16:08:17Z</time>
      </trkpt>
      <trkpt lat="43.43032" lon="6.51107">
        <ele>56</ele>
        <time>2017-10-29T16:08:21Z</time>
      </trkpt>
      <trkpt lat="43.43039" lon="6.51116">
        <ele>55</ele>
        <time>2017-10-29T16:08:23Z</time>
      </trkpt>
      <trkpt lat="43.43048" lon="6.51122">
        <ele>54</ele>
        <time>2017-10-29T16:08:25Z</time>
      </trkpt>
      <trkpt lat="43.43056" lon="6.51128">
        <ele>53</ele>
        <time>2017-10-29T16:08:27Z</time>
      </trkpt>
      <trkpt lat="43.43065" lon="6.51131">
        <ele>52</ele>
        <time>2017-10-29T16:08:29Z</time>
      </trkpt>
      <trkpt lat="43.43083" lon="6.51131">
        <ele>52</ele>
        <time>2017-10-29T16:08:33Z</time>
      </trkpt>
      <trkpt lat="43.431" lon="6.51129">
        <ele>44</ele>
        <time>2017-10-29T16:08:37Z</time>
      </trkpt>
      <trkpt lat="43.43109" lon="6.51125">
        <ele>44</ele>
        <time>2017-10-29T16:08:39Z</time>
      </trkpt>
      <trkpt lat="43.43119" lon="6.51119">
        <ele>44</ele>
        <time>2017-10-29T16:08:41Z</time>
      </trkpt>
      <trkpt lat="43.43129" lon="6.51113">
        <ele>43</ele>
        <time>2017-10-29T16:08:44Z</time>
      </trkpt>
      <trkpt lat="43.43141" lon="6.51101">
        <ele>42</ele>
        <time>2017-10-29T16:08:46Z</time>
      </trkpt>
      <trkpt lat="43.43152" lon="6.51092">
        <ele>41</ele>
        <time>2017-10-29T16:08:48Z</time>
      </trkpt>
      <trkpt lat="43.43166" lon="6.51073">
        <ele>44</ele>
        <time>2017-10-29T16:08:50Z</time>
      </trkpt>
      <trkpt lat="43.43172" lon="6.51058">
        <ele>38</ele>
        <time>2017-10-29T16:08:52Z</time>
      </trkpt>
      <trkpt lat="43.43187" lon="6.5104">
        <ele>38</ele>
        <time>2017-10-29T16:08:57Z</time>
      </trkpt>
      <trkpt lat="43.43198" lon="6.5104">
        <ele>38</ele>
        <time>2017-10-29T16:08:59Z</time>
      </trkpt>
      <trkpt lat="43.43208" lon="6.51041">
        <ele>37</ele>
        <time>2017-10-29T16:09:01Z</time>
      </trkpt>
      <trkpt lat="43.43218" lon="6.51043">
        <ele>37</ele>
        <time>2017-10-29T16:09:03Z</time>
      </trkpt>
      <trkpt lat="43.43227" lon="6.51045">
        <ele>36</ele>
        <time>2017-10-29T16:09:05Z</time>
      </trkpt>
      <trkpt lat="43.43238" lon="6.51047">
        <ele>36</ele>
        <time>2017-10-29T16:09:07Z</time>
      </trkpt>
      <trkpt lat="43.43249" lon="6.51048">
        <ele>35</ele>
        <time>2017-10-29T16:09:09Z</time>
      </trkpt>
      <trkpt lat="43.43258" lon="6.51047">
        <ele>34</ele>
        <time>2017-10-29T16:09:11Z</time>
      </trkpt>
      <trkpt lat="43.43268" lon="6.51044">
        <ele>34</ele>
        <time>2017-10-29T16:09:13Z</time>
      </trkpt>
      <trkpt lat="43.43278" lon="6.51041">
        <ele>35</ele>
        <time>2017-10-29T16:09:15Z</time>
      </trkpt>
      <trkpt lat="43.43288" lon="6.51035">
        <ele>35</ele>
        <time>2017-10-29T16:09:17Z</time>
      </trkpt>
      <trkpt lat="43.43298" lon="6.51032">
        <ele>36</ele>
        <time>2017-10-29T16:09:19Z</time>
      </trkpt>
      <trkpt lat="43.43316" lon="6.51026">
        <ele>37</ele>
        <time>2017-10-29T16:09:24Z</time>
      </trkpt>
      <trkpt lat="43.43332" lon="6.51019">
        <ele>39</ele>
        <time>2017-10-29T16:09:26Z</time>
      </trkpt>
      <trkpt lat="43.43342" lon="6.51016">
        <ele>43</ele>
        <time>2017-10-29T16:09:28Z</time>
      </trkpt>
      <trkpt lat="43.43355" lon="6.51017">
        <ele>42</ele>
        <time>2017-10-29T16:09:30Z</time>
      </trkpt>
      <trkpt lat="43.43363" lon="6.51022">
        <ele>42</ele>
        <time>2017-10-29T16:09:32Z</time>
      </trkpt>
      <trkpt lat="43.43372" lon="6.51027">
        <ele>42</ele>
        <time>2017-10-29T16:09:34Z</time>
      </trkpt>
      <trkpt lat="43.43387" lon="6.51029">
        <ele>43</ele>
        <time>2017-10-29T16:09:37Z</time>
      </trkpt>
      <trkpt lat="43.43397" lon="6.51033">
        <ele>43</ele>
        <time>2017-10-29T16:09:39Z</time>
      </trkpt>
      <trkpt lat="43.43405" lon="6.51038">
        <ele>42</ele>
        <time>2017-10-29T16:09:41Z</time>
      </trkpt>
      <trkpt lat="43.43422" lon="6.51048">
        <ele>44</ele>
        <time>2017-10-29T16:09:45Z</time>
      </trkpt>
      <trkpt lat="43.4343" lon="6.51055">
        <ele>43</ele>
        <time>2017-10-29T16:09:47Z</time>
      </trkpt>
      <trkpt lat="43.43447" lon="6.51059">
        <ele>43</ele>
        <time>2017-10-29T16:09:51Z</time>
      </trkpt>
      <trkpt lat="43.43457" lon="6.51061">
        <ele>43</ele>
        <time>2017-10-29T16:09:53Z</time>
      </trkpt>
      <trkpt lat="43.43465" lon="6.51067">
        <ele>43</ele>
        <time>2017-10-29T16:09:55Z</time>
      </trkpt>
      <trkpt lat="43.43474" lon="6.51072">
        <ele>42</ele>
        <time>2017-10-29T16:09:57Z</time>
      </trkpt>
      <trkpt lat="43.43483" lon="6.51076">
        <ele>41</ele>
        <time>2017-10-29T16:09:59Z</time>
      </trkpt>
      <trkpt lat="43.43493" lon="6.51078">
        <ele>39</ele>
        <time>2017-10-29T16:10:01Z</time>
      </trkpt>
      <trkpt lat="43.43501" lon="6.51082">
        <ele>38</ele>
        <time>2017-10-29T16:10:03Z</time>
      </trkpt>
      <trkpt lat="43.43519" lon="6.51076">
        <ele>42</ele>
        <time>2017-10-29T16:10:07Z</time>
      </trkpt>
      <trkpt lat="43.43528" lon="6.5106">
        <ele>44</ele>
        <time>2017-10-29T16:10:12Z</time>
      </trkpt>
      <trkpt lat="43.4354" lon="6.51047">
        <ele>45</ele>
        <time>2017-10-29T16:10:16Z</time>
      </trkpt>
      <trkpt lat="43.43551" lon="6.51038">
        <ele>46</ele>
        <time>2017-10-29T16:10:21Z</time>
      </trkpt>
      <trkpt lat="43.43559" lon="6.51031">
        <ele>47</ele>
        <time>2017-10-29T16:10:25Z</time>
      </trkpt>
      <trkpt lat="43.43568" lon="6.51025">
        <ele>48</ele>
        <time>2017-10-29T16:10:29Z</time>
      </trkpt>
      <trkpt lat="43.4358" lon="6.51018">
        <ele>49</ele>
        <time>2017-10-29T16:10:35Z</time>
      </trkpt>
      <trkpt lat="43.4359" lon="6.51016">
        <ele>49</ele>
        <time>2017-10-29T16:10:39Z</time>
      </trkpt>
      <trkpt lat="43.436" lon="6.51019">
        <ele>48</ele>
        <time>2017-10-29T16:10:43Z</time>
      </trkpt>
      <trkpt lat="43.43612" lon="6.51023">
        <ele>47</ele>
        <time>2017-10-29T16:10:49Z</time>
      </trkpt>
      <trkpt lat="43.43621" lon="6.51032">
        <ele>46</ele>
        <time>2017-10-29T16:10:56Z</time>
      </trkpt>
      <trkpt lat="43.4363" lon="6.51036">
        <ele>45</ele>
        <time>2017-10-29T16:11:00Z</time>
      </trkpt>
      <trkpt lat="43.43644" lon="6.5104">
        <ele>45</ele>
        <time>2017-10-29T16:11:07Z</time>
      </trkpt>
      <trkpt lat="43.43653" lon="6.51041">
        <ele>45</ele>
        <time>2017-10-29T16:11:13Z</time>
      </trkpt>
      <trkpt lat="43.43663" lon="6.51033">
        <ele>45</ele>
        <time>2017-10-29T16:11:19Z</time>
      </trkpt>
      <trkpt lat="43.43663" lon="6.51016">
        <ele>47</ele>
        <time>2017-10-29T16:11:25Z</time>
      </trkpt>
      <trkpt lat="43.43657" lon="6.51">
        <ele>48</ele>
        <time>2017-10-29T16:11:31Z</time>
      </trkpt>
      <trkpt lat="43.4365" lon="6.50983">
        <ele>53</ele>
        <time>2017-10-29T16:11:38Z</time>
      </trkpt>
      <trkpt lat="43.43646" lon="6.50967">
        <ele>55</ele>
        <time>2017-10-29T16:11:44Z</time>
      </trkpt>
      <trkpt lat="43.43644" lon="6.50953">
        <ele>55</ele>
        <time>2017-10-29T16:11:49Z</time>
      </trkpt>
      <trkpt lat="43.4364" lon="6.50936">
        <ele>56</ele>
        <time>2017-10-29T16:11:55Z</time>
      </trkpt>
      <trkpt lat="43.43636" lon="6.5092">
        <ele>57</ele>
        <time>2017-10-29T16:12:01Z</time>
      </trkpt>
      <trkpt lat="43.43643" lon="6.50904">
        <ele>60</ele>
        <time>2017-10-29T16:12:09Z</time>
      </trkpt>
      <trkpt lat="43.43655" lon="6.50885">
        <ele>61</ele>
        <time>2017-10-29T16:12:14Z</time>
      </trkpt>
      <trkpt lat="43.43659" lon="6.50861">
        <ele>61</ele>
        <time>2017-10-29T16:12:18Z</time>
      </trkpt>
      <trkpt lat="43.43657" lon="6.50843">
        <ele>59</ele>
        <time>2017-10-29T16:12:21Z</time>
      </trkpt>
      <trkpt lat="43.43663" lon="6.50823">
        <ele>60</ele>
        <time>2017-10-29T16:12:25Z</time>
      </trkpt>
      <trkpt lat="43.43675" lon="6.50808">
        <ele>51</ele>
        <time>2017-10-29T16:12:29Z</time>
      </trkpt>
      <trkpt lat="43.43682" lon="6.50798">
        <ele>51</ele>
        <time>2017-10-29T16:12:31Z</time>
      </trkpt>
      <trkpt lat="43.43687" lon="6.50786">
        <ele>51</ele>
        <time>2017-10-29T16:12:33Z</time>
      </trkpt>
      <trkpt lat="43.43696" lon="6.50766">
        <ele>51</ele>
        <time>2017-10-29T16:12:37Z</time>
      </trkpt>
      <trkpt lat="43.43697" lon="6.50745">
        <ele>55</ele>
        <time>2017-10-29T16:12:41Z</time>
      </trkpt>
      <trkpt lat="43.43701" lon="6.50727">
        <ele>54</ele>
        <time>2017-10-29T16:12:45Z</time>
      </trkpt>
      <trkpt lat="43.43706" lon="6.50706">
        <ele>54</ele>
        <time>2017-10-29T16:12:50Z</time>
      </trkpt>
      <trkpt lat="43.43708" lon="6.5069">
        <ele>54</ele>
        <time>2017-10-29T16:12:52Z</time>
      </trkpt>
      <trkpt lat="43.43714" lon="6.50663">
        <ele>56</ele>
        <time>2017-10-29T16:12:56Z</time>
      </trkpt>
      <trkpt lat="43.43716" lon="6.50647">
        <ele>56</ele>
        <time>2017-10-29T16:12:58Z</time>
      </trkpt>
      <trkpt lat="43.43718" lon="6.50629">
        <ele>57</ele>
        <time>2017-10-29T16:13:00Z</time>
      </trkpt>
      <trkpt lat="43.43722" lon="6.50613">
        <ele>56</ele>
        <time>2017-10-29T16:13:02Z</time>
      </trkpt>
      <trkpt lat="43.43723" lon="6.5059">
        <ele>55</ele>
        <time>2017-10-29T16:13:05Z</time>
      </trkpt>
      <trkpt lat="43.43726" lon="6.50576">
        <ele>57</ele>
        <time>2017-10-29T16:13:07Z</time>
      </trkpt>
      <trkpt lat="43.43726" lon="6.50563">
        <ele>58</ele>
        <time>2017-10-29T16:13:09Z</time>
      </trkpt>
      <trkpt lat="43.43727" lon="6.5054">
        <ele>59</ele>
        <time>2017-10-29T16:13:13Z</time>
      </trkpt>
      <trkpt lat="43.43729" lon="6.50517">
        <ele>58</ele>
        <time>2017-10-29T16:13:17Z</time>
      </trkpt>
      <trkpt lat="43.43729" lon="6.50505">
        <ele>56</ele>
        <time>2017-10-29T16:13:19Z</time>
      </trkpt>
      <trkpt lat="43.43729" lon="6.50483">
        <ele>56</ele>
        <time>2017-10-29T16:13:23Z</time>
      </trkpt>
      <trkpt lat="43.43731" lon="6.50458">
        <ele>57</ele>
        <time>2017-10-29T16:13:27Z</time>
      </trkpt>
      <trkpt lat="43.43732" lon="6.50445">
        <ele>56</ele>
        <time>2017-10-29T16:13:29Z</time>
      </trkpt>
      <trkpt lat="43.4373" lon="6.50433">
        <ele>55</ele>
        <time>2017-10-29T16:13:32Z</time>
      </trkpt>
      <trkpt lat="43.43723" lon="6.50414">
        <ele>52</ele>
        <time>2017-10-29T16:13:36Z</time>
      </trkpt>
      <trkpt lat="43.43717" lon="6.50402">
        <ele>55</ele>
        <time>2017-10-29T16:13:38Z</time>
      </trkpt>
      <trkpt lat="43.4371" lon="6.50384">
        <ele>56</ele>
        <time>2017-10-29T16:13:42Z</time>
      </trkpt>
      <trkpt lat="43.4371" lon="6.50357">
        <ele>55</ele>
        <time>2017-10-29T16:13:47Z</time>
      </trkpt>
      <trkpt lat="43.43705" lon="6.50335">
        <ele>56</ele>
        <time>2017-10-29T16:13:51Z</time>
      </trkpt>
      <trkpt lat="43.43699" lon="6.50313">
        <ele>54</ele>
        <time>2017-10-29T16:13:55Z</time>
      </trkpt>
      <trkpt lat="43.43694" lon="6.50294">
        <ele>54</ele>
        <time>2017-10-29T16:13:59Z</time>
      </trkpt>
      <trkpt lat="43.43688" lon="6.50275">
        <ele>55</ele>
        <time>2017-10-29T16:14:03Z</time>
      </trkpt>
      <trkpt lat="43.43683" lon="6.50255">
        <ele>57</ele>
        <time>2017-10-29T16:14:07Z</time>
      </trkpt>
      <trkpt lat="43.43678" lon="6.50236">
        <ele>56</ele>
        <time>2017-10-29T16:14:11Z</time>
      </trkpt>
      <trkpt lat="43.43671" lon="6.50219">
        <ele>55</ele>
        <time>2017-10-29T16:14:16Z</time>
      </trkpt>
      <trkpt lat="43.43665" lon="6.50204">
        <ele>72</ele>
        <time>2017-10-29T16:14:22Z</time>
      </trkpt>
      <trkpt lat="43.43667" lon="6.50184">
        <ele>55</ele>
        <time>2017-10-29T16:14:27Z</time>
      </trkpt>
      <trkpt lat="43.43666" lon="6.50163">
        <ele>61</ele>
        <time>2017-10-29T16:14:31Z</time>
      </trkpt>
      <trkpt lat="43.43664" lon="6.50141">
        <ele>67</ele>
        <time>2017-10-29T16:14:35Z</time>
      </trkpt>
      <trkpt lat="43.43664" lon="6.50119">
        <ele>67</ele>
        <time>2017-10-29T16:14:39Z</time>
      </trkpt>
      <trkpt lat="43.4366" lon="6.50102">
        <ele>64</ele>
        <time>2017-10-29T16:14:43Z</time>
      </trkpt>
      <trkpt lat="43.43655" lon="6.50087">
        <ele>62</ele>
        <time>2017-10-29T16:14:47Z</time>
      </trkpt>
      <trkpt lat="43.4365" lon="6.50072">
        <ele>62</ele>
        <time>2017-10-29T16:14:51Z</time>
      </trkpt>
      <trkpt lat="43.43642" lon="6.50063">
        <ele>65</ele>
        <time>2017-10-29T16:14:56Z</time>
      </trkpt>
      <trkpt lat="43.43632" lon="6.50057">
        <ele>67</ele>
        <time>2017-10-29T16:15:00Z</time>
      </trkpt>
      <trkpt lat="43.43621" lon="6.5005">
        <ele>69</ele>
        <time>2017-10-29T16:15:02Z</time>
      </trkpt>
      <trkpt lat="43.4362" lon="6.5003">
        <ele>69</ele>
        <time>2017-10-29T16:15:07Z</time>
      </trkpt>
      <trkpt lat="43.43628" lon="6.50016">
        <ele>67</ele>
        <time>2017-10-29T16:15:11Z</time>
      </trkpt>
      <trkpt lat="43.43632" lon="6.50002">
        <ele>65</ele>
        <time>2017-10-29T16:15:15Z</time>
      </trkpt>
      <trkpt lat="43.43631" lon="6.49984">
        <ele>60</ele>
        <time>2017-10-29T16:15:17Z</time>
      </trkpt>
      <trkpt lat="43.4363" lon="6.49964">
        <ele>60</ele>
        <time>2017-10-29T16:15:19Z</time>
      </trkpt>
      <trkpt lat="43.43628" lon="6.49946">
        <ele>59</ele>
        <time>2017-10-29T16:15:21Z</time>
      </trkpt>
      <trkpt lat="43.43625" lon="6.49931">
        <ele>58</ele>
        <time>2017-10-29T16:15:23Z</time>
      </trkpt>
      <trkpt lat="43.43623" lon="6.49919">
        <ele>58</ele>
        <time>2017-10-29T16:15:25Z</time>
      </trkpt>
      <trkpt lat="43.43619" lon="6.49907">
        <ele>55</ele>
        <time>2017-10-29T16:15:28Z</time>
      </trkpt>
      <trkpt lat="43.43608" lon="6.49896">
        <ele>56</ele>
        <time>2017-10-29T16:15:32Z</time>
      </trkpt>
      <trkpt lat="43.43597" lon="6.49889">
        <ele>57</ele>
        <time>2017-10-29T16:15:34Z</time>
      </trkpt>
      <trkpt lat="43.43602" lon="6.49867">
        <ele>56</ele>
        <time>2017-10-29T16:15:40Z</time>
      </trkpt>
      <trkpt lat="43.43611" lon="6.49862">
        <ele>55</ele>
        <time>2017-10-29T16:15:42Z</time>
      </trkpt>
      <trkpt lat="43.4362" lon="6.49853">
        <ele>53</ele>
        <time>2017-10-29T16:15:45Z</time>
      </trkpt>
      <trkpt lat="43.43618" lon="6.4983">
        <ele>53</ele>
        <time>2017-10-29T16:15:51Z</time>
      </trkpt>
      <trkpt lat="43.43617" lon="6.49816">
        <ele>54</ele>
        <time>2017-10-29T16:15:55Z</time>
      </trkpt>
      <trkpt lat="43.43616" lon="6.49796">
        <ele>54</ele>
        <time>2017-10-29T16:15:59Z</time>
      </trkpt>
      <trkpt lat="43.43614" lon="6.49777">
        <ele>54</ele>
        <time>2017-10-29T16:16:03Z</time>
      </trkpt>
      <trkpt lat="43.43614" lon="6.49759">
        <ele>55</ele>
        <time>2017-10-29T16:16:07Z</time>
      </trkpt>
      <trkpt lat="43.43611" lon="6.49747">
        <ele>57</ele>
        <time>2017-10-29T16:16:11Z</time>
      </trkpt>
      <trkpt lat="43.43609" lon="6.49734">
        <ele>57</ele>
        <time>2017-10-29T16:16:15Z</time>
      </trkpt>
      <trkpt lat="43.43606" lon="6.49717">
        <ele>57</ele>
        <time>2017-10-29T16:16:20Z</time>
      </trkpt>
      <trkpt lat="43.4361" lon="6.497">
        <ele>57</ele>
        <time>2017-10-29T16:16:24Z</time>
      </trkpt>
      <trkpt lat="43.43613" lon="6.49683">
        <ele>57</ele>
        <time>2017-10-29T16:16:28Z</time>
      </trkpt>
      <trkpt lat="43.43615" lon="6.49667">
        <ele>57</ele>
        <time>2017-10-29T16:16:35Z</time>
      </trkpt>
      <trkpt lat="43.43619" lon="6.49653">
        <ele>57</ele>
        <time>2017-10-29T16:16:41Z</time>
      </trkpt>
      <trkpt lat="43.43623" lon="6.49642">
        <ele>56</ele>
        <time>2017-10-29T16:16:45Z</time>
      </trkpt>
      <trkpt lat="43.43626" lon="6.49629">
        <ele>56</ele>
        <time>2017-10-29T16:16:49Z</time>
      </trkpt>
      <trkpt lat="43.43623" lon="6.49606">
        <ele>57</ele>
        <time>2017-10-29T16:16:53Z</time>
      </trkpt>
      <trkpt lat="43.43623" lon="6.49587">
        <ele>57</ele>
        <time>2017-10-29T16:16:55Z</time>
      </trkpt>
      <trkpt lat="43.43625" lon="6.4957">
        <ele>57</ele>
        <time>2017-10-29T16:16:57Z</time>
      </trkpt>
      <trkpt lat="43.4363" lon="6.49557">
        <ele>57</ele>
        <time>2017-10-29T16:16:59Z</time>
      </trkpt>
      <trkpt lat="43.43633" lon="6.49545">
        <ele>56</ele>
        <time>2017-10-29T16:17:02Z</time>
      </trkpt>
      <trkpt lat="43.43634" lon="6.49532">
        <ele>56</ele>
        <time>2017-10-29T16:17:04Z</time>
      </trkpt>
      <trkpt lat="43.43638" lon="6.49519">
        <ele>55</ele>
        <time>2017-10-29T16:17:06Z</time>
      </trkpt>
      <trkpt lat="43.43637" lon="6.49505">
        <ele>55</ele>
        <time>2017-10-29T16:17:08Z</time>
      </trkpt>
      <trkpt lat="43.43641" lon="6.49486">
        <ele>56</ele>
        <time>2017-10-29T16:17:12Z</time>
      </trkpt>
      <trkpt lat="43.43642" lon="6.49471">
        <ele>56</ele>
        <time>2017-10-29T16:17:15Z</time>
      </trkpt>
      <trkpt lat="43.43646" lon="6.49453">
        <ele>57</ele>
        <time>2017-10-29T16:17:19Z</time>
      </trkpt>
      <trkpt lat="43.43654" lon="6.49431">
        <ele>55</ele>
        <time>2017-10-29T16:17:23Z</time>
      </trkpt>
      <trkpt lat="43.43657" lon="6.49416">
        <ele>54</ele>
        <time>2017-10-29T16:17:25Z</time>
      </trkpt>
      <trkpt lat="43.43659" lon="6.49401">
        <ele>56</ele>
        <time>2017-10-29T16:17:27Z</time>
      </trkpt>
      <trkpt lat="43.43662" lon="6.4938">
        <ele>58</ele>
        <time>2017-10-29T16:17:31Z</time>
      </trkpt>
      <trkpt lat="43.43662" lon="6.49365">
        <ele>59</ele>
        <time>2017-10-29T16:17:35Z</time>
      </trkpt>
      <trkpt lat="43.43666" lon="6.49341">
        <ele>57</ele>
        <time>2017-10-29T16:17:39Z</time>
      </trkpt>
      <trkpt lat="43.43671" lon="6.4933">
        <ele>54</ele>
        <time>2017-10-29T16:17:41Z</time>
      </trkpt>
      <trkpt lat="43.4368" lon="6.49309">
        <ele>53</ele>
        <time>2017-10-29T16:17:46Z</time>
      </trkpt>
      <trkpt lat="43.43685" lon="6.49292">
        <ele>53</ele>
        <time>2017-10-29T16:17:48Z</time>
      </trkpt>
      <trkpt lat="43.4369" lon="6.49279">
        <ele>53</ele>
        <time>2017-10-29T16:17:50Z</time>
      </trkpt>
      <trkpt lat="43.43695" lon="6.49268">
        <ele>53</ele>
        <time>2017-10-29T16:17:52Z</time>
      </trkpt>
      <trkpt lat="43.43703" lon="6.49248">
        <ele>56</ele>
        <time>2017-10-29T16:17:54Z</time>
      </trkpt>
      <trkpt lat="43.43718" lon="6.49224">
        <ele>54</ele>
        <time>2017-10-29T16:17:57Z</time>
      </trkpt>
      <trkpt lat="43.43722" lon="6.49211">
        <ele>54</ele>
        <time>2017-10-29T16:17:59Z</time>
      </trkpt>
      <trkpt lat="43.43722" lon="6.49199">
        <ele>54</ele>
        <time>2017-10-29T16:18:01Z</time>
      </trkpt>
      <trkpt lat="43.43722" lon="6.49184">
        <ele>54</ele>
        <time>2017-10-29T16:18:03Z</time>
      </trkpt>
      <trkpt lat="43.43723" lon="6.49158">
        <ele>57</ele>
        <time>2017-10-29T16:18:07Z</time>
      </trkpt>
      <trkpt lat="43.43722" lon="6.49144">
        <ele>58</ele>
        <time>2017-10-29T16:18:09Z</time>
      </trkpt>
      <trkpt lat="43.43723" lon="6.49129">
        <ele>59</ele>
        <time>2017-10-29T16:18:11Z</time>
      </trkpt>
      <trkpt lat="43.43725" lon="6.49114">
        <ele>59</ele>
        <time>2017-10-29T16:18:13Z</time>
      </trkpt>
      <trkpt lat="43.43731" lon="6.49092">
        <ele>57</ele>
        <time>2017-10-29T16:18:17Z</time>
      </trkpt>
      <trkpt lat="43.43738" lon="6.49075">
        <ele>58</ele>
        <time>2017-10-29T16:18:22Z</time>
      </trkpt>
      <trkpt lat="43.43749" lon="6.49061">
        <ele>59</ele>
        <time>2017-10-29T16:18:26Z</time>
      </trkpt>
      <trkpt lat="43.43751" lon="6.49042">
        <ele>50</ele>
        <time>2017-10-29T16:18:28Z</time>
      </trkpt>
      <trkpt lat="43.43752" lon="6.49019">
        <ele>52</ele>
        <time>2017-10-29T16:18:33Z</time>
      </trkpt>
      <trkpt lat="43.43756" lon="6.49">
        <ele>56</ele>
        <time>2017-10-29T16:18:37Z</time>
      </trkpt>
      <trkpt lat="43.4376" lon="6.4898">
        <ele>54</ele>
        <time>2017-10-29T16:18:41Z</time>
      </trkpt>
      <trkpt lat="43.43763" lon="6.48958">
        <ele>53</ele>
        <time>2017-10-29T16:18:45Z</time>
      </trkpt>
      <trkpt lat="43.43765" lon="6.48946">
        <ele>54</ele>
        <time>2017-10-29T16:18:47Z</time>
      </trkpt>
      <trkpt lat="43.43767" lon="6.48924">
        <ele>56</ele>
        <time>2017-10-29T16:18:51Z</time>
      </trkpt>
      <trkpt lat="43.43771" lon="6.48904">
        <ele>55</ele>
        <time>2017-10-29T16:18:55Z</time>
      </trkpt>
      <trkpt lat="43.43781" lon="6.48888">
        <ele>52</ele>
        <time>2017-10-29T16:19:00Z</time>
      </trkpt>
      <trkpt lat="43.43786" lon="6.48876">
        <ele>51</ele>
        <time>2017-10-29T16:19:04Z</time>
      </trkpt>
      <trkpt lat="43.43788" lon="6.48864">
        <ele>51</ele>
        <time>2017-10-29T16:19:06Z</time>
      </trkpt>
      <trkpt lat="43.43789" lon="6.4885">
        <ele>51</ele>
        <time>2017-10-29T16:19:08Z</time>
      </trkpt>
      <trkpt lat="43.43787" lon="6.48821">
        <ele>49</ele>
        <time>2017-10-29T16:19:13Z</time>
      </trkpt>
      <trkpt lat="43.43782" lon="6.488">
        <ele>49</ele>
        <time>2017-10-29T16:19:17Z</time>
      </trkpt>
      <trkpt lat="43.43773" lon="6.48781">
        <ele>49</ele>
        <time>2017-10-29T16:19:21Z</time>
      </trkpt>
      <trkpt lat="43.43764" lon="6.48758">
        <ele>49</ele>
        <time>2017-10-29T16:19:25Z</time>
      </trkpt>
      <trkpt lat="43.43771" lon="6.48747">
        <ele>48</ele>
        <time>2017-10-29T16:19:27Z</time>
      </trkpt>
      <trkpt lat="43.43781" lon="6.48736">
        <ele>47</ele>
        <time>2017-10-29T16:19:29Z</time>
      </trkpt>
      <trkpt lat="43.43792" lon="6.48726">
        <ele>46</ele>
        <time>2017-10-29T16:19:31Z</time>
      </trkpt>
      <trkpt lat="43.43802" lon="6.48715">
        <ele>46</ele>
        <time>2017-10-29T16:19:33Z</time>
      </trkpt>
      <trkpt lat="43.43811" lon="6.48704">
        <ele>45</ele>
        <time>2017-10-29T16:19:35Z</time>
      </trkpt>
      <trkpt lat="43.43821" lon="6.48692">
        <ele>45</ele>
        <time>2017-10-29T16:19:37Z</time>
      </trkpt>
      <trkpt lat="43.43832" lon="6.48678">
        <ele>44</ele>
        <time>2017-10-29T16:19:39Z</time>
      </trkpt>
      <trkpt lat="43.43842" lon="6.48667">
        <ele>42</ele>
        <time>2017-10-29T16:19:42Z</time>
      </trkpt>
      <trkpt lat="43.43853" lon="6.48657">
        <ele>41</ele>
        <time>2017-10-29T16:19:44Z</time>
      </trkpt>
      <trkpt lat="43.4387" lon="6.48639">
        <ele>41</ele>
        <time>2017-10-29T16:19:46Z</time>
      </trkpt>
      <trkpt lat="43.43882" lon="6.48626">
        <ele>41</ele>
        <time>2017-10-29T16:19:48Z</time>
      </trkpt>
      <trkpt lat="43.43887" lon="6.48611">
        <ele>41</ele>
        <time>2017-10-29T16:19:50Z</time>
      </trkpt>
      <trkpt lat="43.43887" lon="6.48595">
        <ele>41</ele>
        <time>2017-10-29T16:19:52Z</time>
      </trkpt>
      <trkpt lat="43.43883" lon="6.48573">
        <ele>40</ele>
        <time>2017-10-29T16:19:55Z</time>
      </trkpt>
      <trkpt lat="43.43881" lon="6.4856">
        <ele>40</ele>
        <time>2017-10-29T16:19:57Z</time>
      </trkpt>
      <trkpt lat="43.4388" lon="6.48547">
        <ele>40</ele>
        <time>2017-10-29T16:19:59Z</time>
      </trkpt>
      <trkpt lat="43.43878" lon="6.48535">
        <ele>40</ele>
        <time>2017-10-29T16:20:01Z</time>
      </trkpt>
      <trkpt lat="43.43879" lon="6.48511">
        <ele>40</ele>
        <time>2017-10-29T16:20:05Z</time>
      </trkpt>
      <trkpt lat="43.4388" lon="6.48498">
        <ele>40</ele>
        <time>2017-10-29T16:20:07Z</time>
      </trkpt>
      <trkpt lat="43.43881" lon="6.48475">
        <ele>40</ele>
        <time>2017-10-29T16:20:11Z</time>
      </trkpt>
      <trkpt lat="43.43884" lon="6.48451">
        <ele>41</ele>
        <time>2017-10-29T16:20:15Z</time>
      </trkpt>
      <trkpt lat="43.43884" lon="6.48426">
        <ele>41</ele>
        <time>2017-10-29T16:20:19Z</time>
      </trkpt>
      <trkpt lat="43.43886" lon="6.48401">
        <ele>41</ele>
        <time>2017-10-29T16:20:24Z</time>
      </trkpt>
      <trkpt lat="43.43888" lon="6.48377">
        <ele>41</ele>
        <time>2017-10-29T16:20:28Z</time>
      </trkpt>
      <trkpt lat="43.43889" lon="6.48362">
        <ele>41</ele>
        <time>2017-10-29T16:20:30Z</time>
      </trkpt>
      <trkpt lat="43.43889" lon="6.48349">
        <ele>41</ele>
        <time>2017-10-29T16:20:32Z</time>
      </trkpt>
      <trkpt lat="43.4389" lon="6.48335">
        <ele>41</ele>
        <time>2017-10-29T16:20:34Z</time>
      </trkpt>
      <trkpt lat="43.43891" lon="6.48318">
        <ele>41</ele>
        <time>2017-10-29T16:20:37Z</time>
      </trkpt>
      <trkpt lat="43.43893" lon="6.48293">
        <ele>41</ele>
        <time>2017-10-29T16:20:41Z</time>
      </trkpt>
      <trkpt lat="43.43899" lon="6.48271">
        <ele>41</ele>
        <time>2017-10-29T16:20:45Z</time>
      </trkpt>
      <trkpt lat="43.43898" lon="6.48257">
        <ele>40</ele>
        <time>2017-10-29T16:20:47Z</time>
      </trkpt>
      <trkpt lat="43.43909" lon="6.48245">
        <ele>40</ele>
        <time>2017-10-29T16:20:51Z</time>
      </trkpt>
      <trkpt lat="43.43919" lon="6.48244">
        <ele>40</ele>
        <time>2017-10-29T16:20:53Z</time>
      </trkpt>
      <trkpt lat="43.43928" lon="6.48242">
        <ele>40</ele>
        <time>2017-10-29T16:20:55Z</time>
      </trkpt>
      <trkpt lat="43.43939" lon="6.48239">
        <ele>40</ele>
        <time>2017-10-29T16:20:57Z</time>
      </trkpt>
      <trkpt lat="43.43946" lon="6.48229">
        <ele>40</ele>
        <time>2017-10-29T16:20:59Z</time>
      </trkpt>
      <trkpt lat="43.43949" lon="6.48214">
        <ele>40</ele>
        <time>2017-10-29T16:21:02Z</time>
      </trkpt>
      <trkpt lat="43.43951" lon="6.48198">
        <ele>40</ele>
        <time>2017-10-29T16:21:04Z</time>
      </trkpt>
      <trkpt lat="43.43954" lon="6.48175">
        <ele>41</ele>
        <time>2017-10-29T16:21:06Z</time>
      </trkpt>
      <trkpt lat="43.43955" lon="6.48159">
        <ele>41</ele>
        <time>2017-10-29T16:21:08Z</time>
      </trkpt>
      <trkpt lat="43.4396" lon="6.48144">
        <ele>41</ele>
        <time>2017-10-29T16:21:10Z</time>
      </trkpt>
      <trkpt lat="43.43967" lon="6.4813">
        <ele>41</ele>
        <time>2017-10-29T16:21:12Z</time>
      </trkpt>
      <trkpt lat="43.4398" lon="6.48112">
        <ele>41</ele>
        <time>2017-10-29T16:21:15Z</time>
      </trkpt>
      <trkpt lat="43.43989" lon="6.48098">
        <ele>42</ele>
        <time>2017-10-29T16:21:17Z</time>
      </trkpt>
      <trkpt lat="43.43997" lon="6.48079">
        <ele>42</ele>
        <time>2017-10-29T16:21:19Z</time>
      </trkpt>
      <trkpt lat="43.43998" lon="6.4806">
        <ele>42</ele>
        <time>2017-10-29T16:21:21Z</time>
      </trkpt>
      <trkpt lat="43.43996" lon="6.48043">
        <ele>42</ele>
        <time>2017-10-29T16:21:23Z</time>
      </trkpt>
      <trkpt lat="43.43995" lon="6.4803">
        <ele>42</ele>
        <time>2017-10-29T16:21:25Z</time>
      </trkpt>
      <trkpt lat="43.43998" lon="6.48018">
        <ele>42</ele>
        <time>2017-10-29T16:21:27Z</time>
      </trkpt>
      <trkpt lat="43.44009" lon="6.48012">
        <ele>42</ele>
        <time>2017-10-29T16:21:29Z</time>
      </trkpt>
      <trkpt lat="43.4402" lon="6.48004">
        <ele>42</ele>
        <time>2017-10-29T16:21:31Z</time>
      </trkpt>
      <trkpt lat="43.4403" lon="6.47995">
        <ele>42</ele>
        <time>2017-10-29T16:21:33Z</time>
      </trkpt>
      <trkpt lat="43.44039" lon="6.47986">
        <ele>42</ele>
        <time>2017-10-29T16:21:35Z</time>
      </trkpt>
      <trkpt lat="43.44049" lon="6.47976">
        <ele>42</ele>
        <time>2017-10-29T16:21:37Z</time>
      </trkpt>
      <trkpt lat="43.44056" lon="6.47966">
        <ele>42</ele>
        <time>2017-10-29T16:21:39Z</time>
      </trkpt>
      <trkpt lat="43.44064" lon="6.47956">
        <ele>42</ele>
        <time>2017-10-29T16:21:41Z</time>
      </trkpt>
      <trkpt lat="43.44073" lon="6.47944">
        <ele>42</ele>
        <time>2017-10-29T16:21:44Z</time>
      </trkpt>
      <trkpt lat="43.4408" lon="6.47934">
        <ele>42</ele>
        <time>2017-10-29T16:21:46Z</time>
      </trkpt>
      <trkpt lat="43.44092" lon="6.47921">
        <ele>42</ele>
        <time>2017-10-29T16:21:48Z</time>
      </trkpt>
      <trkpt lat="43.44103" lon="6.47912">
        <ele>42</ele>
        <time>2017-10-29T16:21:50Z</time>
      </trkpt>
      <trkpt lat="43.44112" lon="6.47904">
        <ele>42</ele>
        <time>2017-10-29T16:21:52Z</time>
      </trkpt>
      <trkpt lat="43.44143" lon="6.47872">
        <ele>42</ele>
        <time>2017-10-29T16:21:59Z</time>
      </trkpt>
      <trkpt lat="43.44148" lon="6.4786">
        <ele>42</ele>
        <time>2017-10-29T16:22:01Z</time>
      </trkpt>
      <trkpt lat="43.44154" lon="6.47845">
        <ele>41</ele>
        <time>2017-10-29T16:22:03Z</time>
      </trkpt>
      <trkpt lat="43.44161" lon="6.47834">
        <ele>41</ele>
        <time>2017-10-29T16:22:05Z</time>
      </trkpt>
      <trkpt lat="43.44169" lon="6.47827">
        <ele>41</ele>
        <time>2017-10-29T16:22:07Z</time>
      </trkpt>
      <trkpt lat="43.44176" lon="6.47816">
        <ele>42</ele>
        <time>2017-10-29T16:22:09Z</time>
      </trkpt>
      <trkpt lat="43.44183" lon="6.47806">
        <ele>42</ele>
        <time>2017-10-29T16:22:11Z</time>
      </trkpt>
      <trkpt lat="43.4419" lon="6.47797">
        <ele>42</ele>
        <time>2017-10-29T16:22:13Z</time>
      </trkpt>
      <trkpt lat="43.44198" lon="6.47787">
        <ele>42</ele>
        <time>2017-10-29T16:22:15Z</time>
      </trkpt>
      <trkpt lat="43.44204" lon="6.47774">
        <ele>42</ele>
        <time>2017-10-29T16:22:17Z</time>
      </trkpt>
      <trkpt lat="43.44212" lon="6.47763">
        <ele>42</ele>
        <time>2017-10-29T16:22:19Z</time>
      </trkpt>
      <trkpt lat="43.44219" lon="6.47752">
        <ele>42</ele>
        <time>2017-10-29T16:22:21Z</time>
      </trkpt>
      <trkpt lat="43.44226" lon="6.47743">
        <ele>42</ele>
        <time>2017-10-29T16:22:24Z</time>
      </trkpt>
      <trkpt lat="43.44236" lon="6.47728">
        <ele>42</ele>
        <time>2017-10-29T16:22:26Z</time>
      </trkpt>
      <trkpt lat="43.44243" lon="6.47717">
        <ele>42</ele>
        <time>2017-10-29T16:22:28Z</time>
      </trkpt>
      <trkpt lat="43.44249" lon="6.47708">
        <ele>42</ele>
        <time>2017-10-29T16:22:30Z</time>
      </trkpt>
      <trkpt lat="43.44256" lon="6.47699">
        <ele>42</ele>
        <time>2017-10-29T16:22:32Z</time>
      </trkpt>
      <trkpt lat="43.44267" lon="6.47689">
        <ele>42</ele>
        <time>2017-10-29T16:22:35Z</time>
      </trkpt>
      <trkpt lat="43.44274" lon="6.4768">
        <ele>42</ele>
        <time>2017-10-29T16:22:37Z</time>
      </trkpt>
      <trkpt lat="43.44283" lon="6.47671">
        <ele>42</ele>
        <time>2017-10-29T16:22:39Z</time>
      </trkpt>
      <trkpt lat="43.44297" lon="6.47654">
        <ele>42</ele>
        <time>2017-10-29T16:22:43Z</time>
      </trkpt>
      <trkpt lat="43.44305" lon="6.47645">
        <ele>42</ele>
        <time>2017-10-29T16:22:45Z</time>
      </trkpt>
      <trkpt lat="43.44314" lon="6.47638">
        <ele>42</ele>
        <time>2017-10-29T16:22:47Z</time>
      </trkpt>
      <trkpt lat="43.4433" lon="6.47626">
        <ele>42</ele>
        <time>2017-10-29T16:22:51Z</time>
      </trkpt>
      <trkpt lat="43.44338" lon="6.47617">
        <ele>42</ele>
        <time>2017-10-29T16:22:53Z</time>
      </trkpt>
      <trkpt lat="43.44345" lon="6.47607">
        <ele>42</ele>
        <time>2017-10-29T16:22:55Z</time>
      </trkpt>
      <trkpt lat="43.44353" lon="6.47598">
        <ele>42</ele>
        <time>2017-10-29T16:22:58Z</time>
      </trkpt>
      <trkpt lat="43.44359" lon="6.47586">
        <ele>42</ele>
        <time>2017-10-29T16:23:00Z</time>
      </trkpt>
      <trkpt lat="43.44365" lon="6.47575">
        <ele>42</ele>
        <time>2017-10-29T16:23:02Z</time>
      </trkpt>
      <trkpt lat="43.44375" lon="6.47556">
        <ele>42</ele>
        <time>2017-10-29T16:23:04Z</time>
      </trkpt>
      <trkpt lat="43.44381" lon="6.47542">
        <ele>42</ele>
        <time>2017-10-29T16:23:06Z</time>
      </trkpt>
      <trkpt lat="43.44388" lon="6.47534">
        <ele>42</ele>
        <time>2017-10-29T16:23:08Z</time>
      </trkpt>
      <trkpt lat="43.44397" lon="6.47518">
        <ele>42</ele>
        <time>2017-10-29T16:23:11Z</time>
      </trkpt>
      <trkpt lat="43.44403" lon="6.47508">
        <ele>43</ele>
        <time>2017-10-29T16:23:13Z</time>
      </trkpt>
      <trkpt lat="43.44407" lon="6.47497">
        <ele>43</ele>
        <time>2017-10-29T16:23:15Z</time>
      </trkpt>
      <trkpt lat="43.44413" lon="6.47484">
        <ele>43</ele>
        <time>2017-10-29T16:23:17Z</time>
      </trkpt>
      <trkpt lat="43.44418" lon="6.47471">
        <ele>43</ele>
        <time>2017-10-29T16:23:19Z</time>
      </trkpt>
      <trkpt lat="43.44424" lon="6.47443">
        <ele>43</ele>
        <time>2017-10-29T16:23:23Z</time>
      </trkpt>
      <trkpt lat="43.44425" lon="6.47429">
        <ele>43</ele>
        <time>2017-10-29T16:23:25Z</time>
      </trkpt>
      <trkpt lat="43.44426" lon="6.47409">
        <ele>43</ele>
        <time>2017-10-29T16:23:29Z</time>
      </trkpt>
      <trkpt lat="43.44429" lon="6.47386">
        <ele>42</ele>
        <time>2017-10-29T16:23:33Z</time>
      </trkpt>
      <trkpt lat="43.44431" lon="6.47362">
        <ele>42</ele>
        <time>2017-10-29T16:23:37Z</time>
      </trkpt>
      <trkpt lat="43.44433" lon="6.4735">
        <ele>42</ele>
        <time>2017-10-29T16:23:39Z</time>
      </trkpt>
      <trkpt lat="43.44436" lon="6.47337">
        <ele>42</ele>
        <time>2017-10-29T16:23:42Z</time>
      </trkpt>
      <trkpt lat="43.44438" lon="6.47324">
        <ele>41</ele>
        <time>2017-10-29T16:23:44Z</time>
      </trkpt>
      <trkpt lat="43.4444" lon="6.47308">
        <ele>41</ele>
        <time>2017-10-29T16:23:46Z</time>
      </trkpt>
      <trkpt lat="43.44444" lon="6.47285">
        <ele>41</ele>
        <time>2017-10-29T16:23:50Z</time>
      </trkpt>
      <trkpt lat="43.44444" lon="6.47271">
        <ele>41</ele>
        <time>2017-10-29T16:23:53Z</time>
      </trkpt>
      <trkpt lat="43.44445" lon="6.47255">
        <ele>41</ele>
        <time>2017-10-29T16:23:55Z</time>
      </trkpt>
      <trkpt lat="43.44447" lon="6.47242">
        <ele>42</ele>
        <time>2017-10-29T16:23:57Z</time>
      </trkpt>
      <trkpt lat="43.44447" lon="6.47229">
        <ele>42</ele>
        <time>2017-10-29T16:23:59Z</time>
      </trkpt>
      <trkpt lat="43.44448" lon="6.47217">
        <ele>42</ele>
        <time>2017-10-29T16:24:01Z</time>
      </trkpt>
      <trkpt lat="43.44449" lon="6.47204">
        <ele>42</ele>
        <time>2017-10-29T16:24:03Z</time>
      </trkpt>
      <trkpt lat="43.44451" lon="6.47192">
        <ele>42</ele>
        <time>2017-10-29T16:24:05Z</time>
      </trkpt>
      <trkpt lat="43.44453" lon="6.47177">
        <ele>42</ele>
        <time>2017-10-29T16:24:07Z</time>
      </trkpt>
      <trkpt lat="43.44456" lon="6.47153">
        <ele>43</ele>
        <time>2017-10-29T16:24:11Z</time>
      </trkpt>
      <trkpt lat="43.44459" lon="6.47129">
        <ele>43</ele>
        <time>2017-10-29T16:24:15Z</time>
      </trkpt>
      <trkpt lat="43.44462" lon="6.47106">
        <ele>43</ele>
        <time>2017-10-29T16:24:19Z</time>
      </trkpt>
      <trkpt lat="43.44464" lon="6.47093">
        <ele>43</ele>
        <time>2017-10-29T16:24:21Z</time>
      </trkpt>
      <trkpt lat="43.44467" lon="6.47078">
        <ele>44</ele>
        <time>2017-10-29T16:24:23Z</time>
      </trkpt>
      <trkpt lat="43.44469" lon="6.47064">
        <ele>44</ele>
        <time>2017-10-29T16:24:26Z</time>
      </trkpt>
      <trkpt lat="43.44471" lon="6.47042">
        <ele>44</ele>
        <time>2017-10-29T16:24:28Z</time>
      </trkpt>
      <trkpt lat="43.44474" lon="6.47019">
        <ele>44</ele>
        <time>2017-10-29T16:24:32Z</time>
      </trkpt>
      <trkpt lat="43.44475" lon="6.47006">
        <ele>44</ele>
        <time>2017-10-29T16:24:34Z</time>
      </trkpt>
      <trkpt lat="43.44481" lon="6.46995">
        <ele>45</ele>
        <time>2017-10-29T16:24:37Z</time>
      </trkpt>
      <trkpt lat="43.44496" lon="6.47004">
        <ele>45</ele>
        <time>2017-10-29T16:24:41Z</time>
      </trkpt>
      <trkpt lat="43.44505" lon="6.47013">
        <ele>45</ele>
        <time>2017-10-29T16:24:43Z</time>
      </trkpt>
      <trkpt lat="43.44514" lon="6.47021">
        <ele>45</ele>
        <time>2017-10-29T16:24:45Z</time>
      </trkpt>
      <trkpt lat="43.44528" lon="6.47039">
        <ele>45</ele>
        <time>2017-10-29T16:24:49Z</time>
      </trkpt>
      <trkpt lat="43.44535" lon="6.4705">
        <ele>45</ele>
        <time>2017-10-29T16:24:51Z</time>
      </trkpt>
      <trkpt lat="43.44544" lon="6.47057">
        <ele>45</ele>
        <time>2017-10-29T16:24:53Z</time>
      </trkpt>
      <trkpt lat="43.44551" lon="6.47065">
        <ele>45</ele>
        <time>2017-10-29T16:24:55Z</time>
      </trkpt>
      <trkpt lat="43.4456" lon="6.47072">
        <ele>45</ele>
        <time>2017-10-29T16:24:57Z</time>
      </trkpt>
      <trkpt lat="43.44568" lon="6.47082">
        <ele>46</ele>
        <time>2017-10-29T16:25:00Z</time>
      </trkpt>
      <trkpt lat="43.44576" lon="6.47088">
        <ele>45</ele>
        <time>2017-10-29T16:25:02Z</time>
      </trkpt>
      <trkpt lat="43.44585" lon="6.47102">
        <ele>45</ele>
        <time>2017-10-29T16:25:06Z</time>
      </trkpt>
      <trkpt lat="43.44597" lon="6.47116">
        <ele>45</ele>
        <time>2017-10-29T16:25:08Z</time>
      </trkpt>
      <trkpt lat="43.44605" lon="6.47125">
        <ele>44</ele>
        <time>2017-10-29T16:25:10Z</time>
      </trkpt>
      <trkpt lat="43.44612" lon="6.47133">
        <ele>44</ele>
        <time>2017-10-29T16:25:12Z</time>
      </trkpt>
      <trkpt lat="43.4462" lon="6.47142">
        <ele>44</ele>
        <time>2017-10-29T16:25:14Z</time>
      </trkpt>
      <trkpt lat="43.44628" lon="6.47151">
        <ele>44</ele>
        <time>2017-10-29T16:25:17Z</time>
      </trkpt>
      <trkpt lat="43.44639" lon="6.47167">
        <ele>43</ele>
        <time>2017-10-29T16:25:21Z</time>
      </trkpt>
      <trkpt lat="43.44647" lon="6.47188">
        <ele>43</ele>
        <time>2017-10-29T16:25:25Z</time>
      </trkpt>
      <trkpt lat="43.44651" lon="6.47201">
        <ele>43</ele>
        <time>2017-10-29T16:25:27Z</time>
      </trkpt>
      <trkpt lat="43.44659" lon="6.47223">
        <ele>43</ele>
        <time>2017-10-29T16:25:31Z</time>
      </trkpt>
      <trkpt lat="43.44664" lon="6.47234">
        <ele>43</ele>
        <time>2017-10-29T16:25:33Z</time>
      </trkpt>
      <trkpt lat="43.44669" lon="6.47244">
        <ele>43</ele>
        <time>2017-10-29T16:25:35Z</time>
      </trkpt>
      <trkpt lat="43.44678" lon="6.47265">
        <ele>44</ele>
        <time>2017-10-29T16:25:39Z</time>
      </trkpt>
      <trkpt lat="43.44683" lon="6.47276">
        <ele>44</ele>
        <time>2017-10-29T16:25:42Z</time>
      </trkpt>
      <trkpt lat="43.44697" lon="6.47304">
        <ele>44</ele>
        <time>2017-10-29T16:25:46Z</time>
      </trkpt>
      <trkpt lat="43.44703" lon="6.47319">
        <ele>44</ele>
        <time>2017-10-29T16:25:48Z</time>
      </trkpt>
      <trkpt lat="43.44709" lon="6.47334">
        <ele>46</ele>
        <time>2017-10-29T16:25:50Z</time>
      </trkpt>
      <trkpt lat="43.44714" lon="6.4735">
        <ele>46</ele>
        <time>2017-10-29T16:25:52Z</time>
      </trkpt>
      <trkpt lat="43.4472" lon="6.47364">
        <ele>46</ele>
        <time>2017-10-29T16:25:54Z</time>
      </trkpt>
      <trkpt lat="43.44727" lon="6.47387">
        <ele>46</ele>
        <time>2017-10-29T16:25:57Z</time>
      </trkpt>
      <trkpt lat="43.44731" lon="6.47402">
        <ele>46</ele>
        <time>2017-10-29T16:25:59Z</time>
      </trkpt>
      <trkpt lat="43.44732" lon="6.47418">
        <ele>46</ele>
        <time>2017-10-29T16:26:01Z</time>
      </trkpt>
      <trkpt lat="43.44734" lon="6.47432">
        <ele>46</ele>
        <time>2017-10-29T16:26:03Z</time>
      </trkpt>
      <trkpt lat="43.44735" lon="6.47448">
        <ele>46</ele>
        <time>2017-10-29T16:26:05Z</time>
      </trkpt>
      <trkpt lat="43.44736" lon="6.47463">
        <ele>46</ele>
        <time>2017-10-29T16:26:07Z</time>
      </trkpt>
      <trkpt lat="43.44737" lon="6.47482">
        <ele>45</ele>
        <time>2017-10-29T16:26:09Z</time>
      </trkpt>
      <trkpt lat="43.44742" lon="6.47498">
        <ele>45</ele>
        <time>2017-10-29T16:26:11Z</time>
      </trkpt>
      <trkpt lat="43.44755" lon="6.475">
        <ele>45</ele>
        <time>2017-10-29T16:26:13Z</time>
      </trkpt>
      <trkpt lat="43.44766" lon="6.47495">
        <ele>46</ele>
        <time>2017-10-29T16:26:15Z</time>
      </trkpt>
      <trkpt lat="43.44778" lon="6.47491">
        <ele>46</ele>
        <time>2017-10-29T16:26:17Z</time>
      </trkpt>
      <trkpt lat="43.44789" lon="6.47494">
        <ele>46</ele>
        <time>2017-10-29T16:26:19Z</time>
      </trkpt>
      <trkpt lat="43.448" lon="6.47502">
        <ele>46</ele>
        <time>2017-10-29T16:26:21Z</time>
      </trkpt>
      <trkpt lat="43.44811" lon="6.4751">
        <ele>46</ele>
        <time>2017-10-29T16:26:24Z</time>
      </trkpt>
      <trkpt lat="43.44826" lon="6.47523">
        <ele>47</ele>
        <time>2017-10-29T16:26:26Z</time>
      </trkpt>
      <trkpt lat="43.44846" lon="6.47545">
        <ele>47</ele>
        <time>2017-10-29T16:26:30Z</time>
      </trkpt>
      <trkpt lat="43.44856" lon="6.47545">
        <ele>47</ele>
        <time>2017-10-29T16:26:32Z</time>
      </trkpt>
      <trkpt lat="43.44865" lon="6.47551">
        <ele>47</ele>
        <time>2017-10-29T16:26:34Z</time>
      </trkpt>
      <trkpt lat="43.44876" lon="6.47554">
        <ele>47</ele>
        <time>2017-10-29T16:26:36Z</time>
      </trkpt>
      <trkpt lat="43.44891" lon="6.47559">
        <ele>47</ele>
        <time>2017-10-29T16:26:39Z</time>
      </trkpt>
      <trkpt lat="43.449" lon="6.47565">
        <ele>47</ele>
        <time>2017-10-29T16:26:41Z</time>
      </trkpt>
      <trkpt lat="43.44908" lon="6.47573">
        <ele>48</ele>
        <time>2017-10-29T16:26:43Z</time>
      </trkpt>
      <trkpt lat="43.44916" lon="6.47578">
        <ele>48</ele>
        <time>2017-10-29T16:26:45Z</time>
      </trkpt>
      <trkpt lat="43.44925" lon="6.47584">
        <ele>48</ele>
        <time>2017-10-29T16:26:47Z</time>
      </trkpt>
      <trkpt lat="43.44933" lon="6.47595">
        <ele>49</ele>
        <time>2017-10-29T16:26:49Z</time>
      </trkpt>
      <trkpt lat="43.44941" lon="6.47603">
        <ele>49</ele>
        <time>2017-10-29T16:26:51Z</time>
      </trkpt>
      <trkpt lat="43.44956" lon="6.47614">
        <ele>49</ele>
        <time>2017-10-29T16:26:55Z</time>
      </trkpt>
      <trkpt lat="43.44972" lon="6.47626">
        <ele>50</ele>
        <time>2017-10-29T16:26:59Z</time>
      </trkpt>
      <trkpt lat="43.4498" lon="6.47632">
        <ele>50</ele>
        <time>2017-10-29T16:27:01Z</time>
      </trkpt>
      <trkpt lat="43.44989" lon="6.47637">
        <ele>50</ele>
        <time>2017-10-29T16:27:03Z</time>
      </trkpt>
      <trkpt lat="43.44997" lon="6.47642">
        <ele>50</ele>
        <time>2017-10-29T16:27:06Z</time>
      </trkpt>
      <trkpt lat="43.4501" lon="6.47652">
        <ele>51</ele>
        <time>2017-10-29T16:27:08Z</time>
      </trkpt>
      <trkpt lat="43.45019" lon="6.47658">
        <ele>51</ele>
        <time>2017-10-29T16:27:10Z</time>
      </trkpt>
      <trkpt lat="43.45028" lon="6.47664">
        <ele>51</ele>
        <time>2017-10-29T16:27:12Z</time>
      </trkpt>
      <trkpt lat="43.45037" lon="6.47671">
        <ele>52</ele>
        <time>2017-10-29T16:27:14Z</time>
      </trkpt>
      <trkpt lat="43.45048" lon="6.47678">
        <ele>52</ele>
        <time>2017-10-29T16:27:17Z</time>
      </trkpt>
      <trkpt lat="43.45064" lon="6.4769">
        <ele>52</ele>
        <time>2017-10-29T16:27:21Z</time>
      </trkpt>
      <trkpt lat="43.45077" lon="6.47699">
        <ele>52</ele>
        <time>2017-10-29T16:27:25Z</time>
      </trkpt>
      <trkpt lat="43.45094" lon="6.47706">
        <ele>54</ele>
        <time>2017-10-29T16:27:29Z</time>
      </trkpt>
      <trkpt lat="43.45108" lon="6.47716">
        <ele>55</ele>
        <time>2017-10-29T16:27:33Z</time>
      </trkpt>
      <trkpt lat="43.45122" lon="6.47727">
        <ele>55</ele>
        <time>2017-10-29T16:27:37Z</time>
      </trkpt>
      <trkpt lat="43.45136" lon="6.47739">
        <ele>55</ele>
        <time>2017-10-29T16:27:41Z</time>
      </trkpt>
      <trkpt lat="43.4515" lon="6.4775">
        <ele>56</ele>
        <time>2017-10-29T16:27:46Z</time>
      </trkpt>
      <trkpt lat="43.45169" lon="6.47765">
        <ele>57</ele>
        <time>2017-10-29T16:27:50Z</time>
      </trkpt>
      <trkpt lat="43.4518" lon="6.47773">
        <ele>57</ele>
        <time>2017-10-29T16:27:53Z</time>
      </trkpt>
      <trkpt lat="43.45195" lon="6.47784">
        <ele>58</ele>
        <time>2017-10-29T16:27:57Z</time>
      </trkpt>
      <trkpt lat="43.4521" lon="6.47794">
        <ele>58</ele>
        <time>2017-10-29T16:28:01Z</time>
      </trkpt>
      <trkpt lat="43.45226" lon="6.47804">
        <ele>58</ele>
        <time>2017-10-29T16:28:05Z</time>
      </trkpt>
      <trkpt lat="43.4524" lon="6.47814">
        <ele>58</ele>
        <time>2017-10-29T16:28:09Z</time>
      </trkpt>
      <trkpt lat="43.45254" lon="6.47824">
        <ele>59</ele>
        <time>2017-10-29T16:28:13Z</time>
      </trkpt>
      <trkpt lat="43.45268" lon="6.47834">
        <ele>59</ele>
        <time>2017-10-29T16:28:17Z</time>
      </trkpt>
      <trkpt lat="43.45283" lon="6.47845">
        <ele>59</ele>
        <time>2017-10-29T16:28:22Z</time>
      </trkpt>
      <trkpt lat="43.453" lon="6.47858">
        <ele>59</ele>
        <time>2017-10-29T16:28:26Z</time>
      </trkpt>
      <trkpt lat="43.45315" lon="6.47869">
        <ele>60</ele>
        <time>2017-10-29T16:28:30Z</time>
      </trkpt>
      <trkpt lat="43.45326" lon="6.47877">
        <ele>60</ele>
        <time>2017-10-29T16:28:33Z</time>
      </trkpt>
      <trkpt lat="43.45341" lon="6.47887">
        <ele>62</ele>
        <time>2017-10-29T16:28:37Z</time>
      </trkpt>
      <trkpt lat="43.45355" lon="6.47897">
        <ele>63</ele>
        <time>2017-10-29T16:28:41Z</time>
      </trkpt>
      <trkpt lat="43.45369" lon="6.47907">
        <ele>63</ele>
        <time>2017-10-29T16:28:45Z</time>
      </trkpt>
      <trkpt lat="43.45382" lon="6.47917">
        <ele>63</ele>
        <time>2017-10-29T16:28:49Z</time>
      </trkpt>
      <trkpt lat="43.45395" lon="6.47927">
        <ele>64</ele>
        <time>2017-10-29T16:28:53Z</time>
      </trkpt>
      <trkpt lat="43.45408" lon="6.47935">
        <ele>64</ele>
        <time>2017-10-29T16:28:57Z</time>
      </trkpt>
      <trkpt lat="43.45421" lon="6.47942">
        <ele>66</ele>
        <time>2017-10-29T16:29:02Z</time>
      </trkpt>
      <trkpt lat="43.45438" lon="6.47949">
        <ele>66</ele>
        <time>2017-10-29T16:29:06Z</time>
      </trkpt>
      <trkpt lat="43.45451" lon="6.47954">
        <ele>66</ele>
        <time>2017-10-29T16:29:10Z</time>
      </trkpt>
      <trkpt lat="43.45463" lon="6.47959">
        <ele>66</ele>
        <time>2017-10-29T16:29:14Z</time>
      </trkpt>
      <trkpt lat="43.45478" lon="6.47964">
        <ele>67</ele>
        <time>2017-10-29T16:29:19Z</time>
      </trkpt>
      <trkpt lat="43.45489" lon="6.47968">
        <ele>67</ele>
        <time>2017-10-29T16:29:23Z</time>
      </trkpt>
      <trkpt lat="43.455" lon="6.47972">
        <ele>68</ele>
        <time>2017-10-29T16:29:27Z</time>
      </trkpt>
      <trkpt lat="43.45512" lon="6.47976">
        <ele>68</ele>
        <time>2017-10-29T16:29:31Z</time>
      </trkpt>
      <trkpt lat="43.45523" lon="6.47982">
        <ele>68</ele>
        <time>2017-10-29T16:29:39Z</time>
      </trkpt>
      <trkpt lat="43.45539" lon="6.47992">
        <ele>69</ele>
        <time>2017-10-29T16:29:44Z</time>
      </trkpt>
      <trkpt lat="43.4555" lon="6.48019">
        <ele>68</ele>
        <time>2017-10-29T16:29:48Z</time>
      </trkpt>
      <trkpt lat="43.45553" lon="6.48034">
        <ele>68</ele>
        <time>2017-10-29T16:29:50Z</time>
      </trkpt>
      <trkpt lat="43.45557" lon="6.48056">
        <ele>68</ele>
        <time>2017-10-29T16:29:54Z</time>
      </trkpt>
      <trkpt lat="43.45562" lon="6.48078">
        <ele>68</ele>
        <time>2017-10-29T16:29:58Z</time>
      </trkpt>
      <trkpt lat="43.4557" lon="6.48093">
        <ele>68</ele>
        <time>2017-10-29T16:30:01Z</time>
      </trkpt>
      <trkpt lat="43.45579" lon="6.48107">
        <ele>67</ele>
        <time>2017-10-29T16:30:05Z</time>
      </trkpt>
      <trkpt lat="43.45593" lon="6.48097">
        <ele>69</ele>
        <time>2017-10-29T16:30:09Z</time>
      </trkpt>
      <trkpt lat="43.45606" lon="6.48088">
        <ele>69</ele>
        <time>2017-10-29T16:30:13Z</time>
      </trkpt>
      <trkpt lat="43.4562" lon="6.48081">
        <ele>71</ele>
        <time>2017-10-29T16:30:17Z</time>
      </trkpt>
      <trkpt lat="43.45635" lon="6.48075">
        <ele>71</ele>
        <time>2017-10-29T16:30:21Z</time>
      </trkpt>
      <trkpt lat="43.4565" lon="6.48068">
        <ele>71</ele>
        <time>2017-10-29T16:30:25Z</time>
      </trkpt>
      <trkpt lat="43.45663" lon="6.48059">
        <ele>71</ele>
        <time>2017-10-29T16:30:29Z</time>
      </trkpt>
      <trkpt lat="43.45678" lon="6.4805">
        <ele>73</ele>
        <time>2017-10-29T16:30:34Z</time>
      </trkpt>
      <trkpt lat="43.45689" lon="6.48048">
        <ele>73</ele>
        <time>2017-10-29T16:30:36Z</time>
      </trkpt>
      <trkpt lat="43.45705" lon="6.48051">
        <ele>73</ele>
        <time>2017-10-29T16:30:40Z</time>
      </trkpt>
      <trkpt lat="43.45714" lon="6.48055">
        <ele>73</ele>
        <time>2017-10-29T16:30:42Z</time>
      </trkpt>
      <trkpt lat="43.45726" lon="6.48058">
        <ele>73</ele>
        <time>2017-10-29T16:30:45Z</time>
      </trkpt>
      <trkpt lat="43.45741" lon="6.48063">
        <ele>73</ele>
        <time>2017-10-29T16:30:49Z</time>
      </trkpt>
      <trkpt lat="43.45757" lon="6.48065">
        <ele>74</ele>
        <time>2017-10-29T16:30:53Z</time>
      </trkpt>
      <trkpt lat="43.45773" lon="6.48066">
        <ele>74</ele>
        <time>2017-10-29T16:30:57Z</time>
      </trkpt>
      <trkpt lat="43.45788" lon="6.48065">
        <ele>75</ele>
        <time>2017-10-29T16:31:01Z</time>
      </trkpt>
      <trkpt lat="43.45804" lon="6.48064">
        <ele>75</ele>
        <time>2017-10-29T16:31:05Z</time>
      </trkpt>
      <trkpt lat="43.45822" lon="6.48062">
        <ele>75</ele>
        <time>2017-10-29T16:31:09Z</time>
      </trkpt>
      <trkpt lat="43.45837" lon="6.48061">
        <ele>76</ele>
        <time>2017-10-29T16:31:14Z</time>
      </trkpt>
      <trkpt lat="43.45853" lon="6.48062">
        <ele>76</ele>
        <time>2017-10-29T16:31:18Z</time>
      </trkpt>
      <trkpt lat="43.45864" lon="6.48061">
        <ele>76</ele>
        <time>2017-10-29T16:31:20Z</time>
      </trkpt>
      <trkpt lat="43.4588" lon="6.4806">
        <ele>77</ele>
        <time>2017-10-29T16:31:24Z</time>
      </trkpt>
      <trkpt lat="43.45899" lon="6.48057">
        <ele>77</ele>
        <time>2017-10-29T16:31:29Z</time>
      </trkpt>
      <trkpt lat="43.45916" lon="6.48058">
        <ele>77</ele>
        <time>2017-10-29T16:31:33Z</time>
      </trkpt>
      <trkpt lat="43.45931" lon="6.48058">
        <ele>79</ele>
        <time>2017-10-29T16:31:37Z</time>
      </trkpt>
      <trkpt lat="43.45947" lon="6.48059">
        <ele>80</ele>
        <time>2017-10-29T16:31:41Z</time>
      </trkpt>
      <trkpt lat="43.45965" lon="6.48059">
        <ele>80</ele>
        <time>2017-10-29T16:31:45Z</time>
      </trkpt>
      <trkpt lat="43.45977" lon="6.48058">
        <ele>81</ele>
        <time>2017-10-29T16:31:47Z</time>
      </trkpt>
      <trkpt lat="43.45995" lon="6.48057">
        <ele>81</ele>
        <time>2017-10-29T16:31:51Z</time>
      </trkpt>
      <trkpt lat="43.45999" lon="6.48068">
        <ele>81</ele>
        <time>2017-10-29T16:31:53Z</time>
      </trkpt>
      <trkpt lat="43.46" lon="6.48087">
        <ele>81</ele>
        <time>2017-10-29T16:31:58Z</time>
      </trkpt>
      <trkpt lat="43.46001" lon="6.48099">
        <ele>80</ele>
        <time>2017-10-29T16:32:00Z</time>
      </trkpt>
      <trkpt lat="43.46003" lon="6.48117">
        <ele>78</ele>
        <time>2017-10-29T16:32:02Z</time>
      </trkpt>
      <trkpt lat="43.46004" lon="6.4814">
        <ele>77</ele>
        <time>2017-10-29T16:32:06Z</time>
      </trkpt>
      <trkpt lat="43.46011" lon="6.48144">
        <ele>77</ele>
        <time>2017-10-29T16:32:08Z</time>
      </trkpt>
      <trkpt lat="43.46011" lon="6.48144">
        <ele>77</ele>
        <time>2017-10-29T16:33:21Z</time>
      </trkpt>
    </trkseg>
  </trk>
</gpx>